<?xml version='1.0' encoding='UTF-8'?><gpx version="1.1" creator="JPX - https://github.com/jenetics/jpx" xmlns="http://www.topografix.com/GPX/1/1"><trk><trkseg><trkpt lat="43.1083614" lon="12.441945"><ele>243.0</ele><time>2026-04-16T16:39:05.747Z</time></trkpt><trkpt lat="43.10829" lon="12.4419981"><ele>243.0</ele><time>2026-04-16T16:40:15.747Z</time></trkpt><trkpt lat="43.1082541" lon="12.4420798"><ele>243.0</ele><time>2026-04-16T16:40:17.746Z</time></trkpt><trkpt lat="43.1081899" lon="12.4421688"><ele>243.0</ele><time>2026-04-16T16:40:19.747Z</time></trkpt><trkpt lat="43.1081114" lon="12.442273"><ele>243.0</ele><time>2026-04-16T16:40:21.747Z</time></trkpt><trkpt lat="43.108061" lon="12.4423454"><ele>243.0</ele><time>2026-04-16T16:40:22.746Z</time></trkpt><trkpt lat="43.1079938" lon="12.4424177"><ele>241.5</ele><time>2026-04-16T16:40:23.747Z</time></trkpt><trkpt lat="43.1079339" lon="12.4424992"><ele>240.0</ele><time>2026-04-16T16:40:24.746Z</time></trkpt><trkpt lat="43.1078664" lon="12.4425905"><ele>238.5</ele><time>2026-04-16T16:40:25.746Z</time></trkpt><trkpt lat="43.1078059" lon="12.442666"><ele>237.0</ele><time>2026-04-16T16:40:26.746Z</time></trkpt><trkpt lat="43.1077502" lon="12.4427505"><ele>235.5</ele><time>2026-04-16T16:40:27.746Z</time></trkpt><trkpt lat="43.1077001" lon="12.4428168"><ele>234.0</ele><time>2026-04-16T16:40:28.746Z</time></trkpt><trkpt lat="43.107649" lon="12.4428857"><ele>234.0</ele><time>2026-04-16T16:40:29.746Z</time></trkpt><trkpt lat="43.107602" lon="12.4429595"><ele>234.0</ele><time>2026-04-16T16:40:30.746Z</time></trkpt><trkpt lat="43.1075595" lon="12.443049"><ele>234.0</ele><time>2026-04-16T16:40:31.746Z</time></trkpt><trkpt lat="43.1075227" lon="12.4431494"><ele>234.0</ele><time>2026-04-16T16:40:32.746Z</time></trkpt><trkpt lat="43.1074982" lon="12.4432427"><ele>234.0</ele><time>2026-04-16T16:40:33.746Z</time></trkpt><trkpt lat="43.107486" lon="12.443363"><ele>234.0</ele><time>2026-04-16T16:40:35.746Z</time></trkpt><trkpt lat="43.1075039" lon="12.4434696"><ele>231.5</ele><time>2026-04-16T16:40:37.747Z</time></trkpt><trkpt lat="43.1075117" lon="12.4436085"><ele>229.0</ele><time>2026-04-16T16:40:40.747Z</time></trkpt><trkpt lat="43.1075193" lon="12.4437196"><ele>226.5</ele><time>2026-04-16T16:40:42.746Z</time></trkpt><trkpt lat="43.1075181" lon="12.4438277"><ele>224.0</ele><time>2026-04-16T16:40:45.747Z</time></trkpt><trkpt lat="43.1075239" lon="12.4439248"><ele>221.5</ele><time>2026-04-16T16:40:47.746Z</time></trkpt><trkpt lat="43.1075443" lon="12.444035"><ele>219.0</ele><time>2026-04-16T16:40:50.746Z</time></trkpt><trkpt lat="43.1075612" lon="12.4441219"><ele>217.0</ele><time>2026-04-16T16:40:52.747Z</time></trkpt><trkpt lat="43.1075023" lon="12.4441604"><ele>215.0</ele><time>2026-04-16T16:42:14.747Z</time></trkpt><trkpt lat="43.1075232" lon="12.4442479"><ele>213.0</ele><time>2026-04-16T16:42:16.747Z</time></trkpt><trkpt lat="43.1075759" lon="12.4443613"><ele>211.0</ele><time>2026-04-16T16:42:19.747Z</time></trkpt><trkpt lat="43.1076694" lon="12.444421"><ele>209.0</ele><time>2026-04-16T16:42:21.747Z</time></trkpt><trkpt lat="43.1077697" lon="12.4444749"><ele>207.0</ele><time>2026-04-16T16:42:23.747Z</time></trkpt><trkpt lat="43.1078627" lon="12.4445509"><ele>205.5</ele><time>2026-04-16T16:42:25.746Z</time></trkpt><trkpt lat="43.1079587" lon="12.4446421"><ele>204.0</ele><time>2026-04-16T16:42:27.746Z</time></trkpt><trkpt lat="43.1080167" lon="12.4446903"><ele>202.5</ele><time>2026-04-16T16:42:28.747Z</time></trkpt><trkpt lat="43.1080751" lon="12.4447408"><ele>201.0</ele><time>2026-04-16T16:42:29.746Z</time></trkpt><trkpt lat="43.1081329" lon="12.4447841"><ele>199.5</ele><time>2026-04-16T16:42:30.746Z</time></trkpt><trkpt lat="43.1081945" lon="12.44483"><ele>198.0</ele><time>2026-04-16T16:42:31.746Z</time></trkpt><trkpt lat="43.1082523" lon="12.4448758"><ele>197.14285714285714</ele><time>2026-04-16T16:42:32.747Z</time></trkpt><trkpt lat="43.108311" lon="12.444925"><ele>196.28571428571428</ele><time>2026-04-16T16:42:33.747Z</time></trkpt><trkpt lat="43.1083654" lon="12.4449739"><ele>195.42857142857142</ele><time>2026-04-16T16:42:34.746Z</time></trkpt><trkpt lat="43.1084225" lon="12.4450196"><ele>194.57142857142856</ele><time>2026-04-16T16:42:35.747Z</time></trkpt><trkpt lat="43.1084807" lon="12.4450696"><ele>193.71428571428572</ele><time>2026-04-16T16:42:36.747Z</time></trkpt><trkpt lat="43.1085368" lon="12.4451265"><ele>192.85714285714283</ele><time>2026-04-16T16:42:37.746Z</time></trkpt><trkpt lat="43.1086008" lon="12.4451796"><ele>192.0</ele><time>2026-04-16T16:42:38.747Z</time></trkpt><trkpt lat="43.1086668" lon="12.4452384"><ele>192.0</ele><time>2026-04-16T16:42:39.747Z</time></trkpt><trkpt lat="43.1087315" lon="12.4452932"><ele>192.0</ele><time>2026-04-16T16:42:40.747Z</time></trkpt><trkpt lat="43.1088025" lon="12.4453488"><ele>192.0</ele><time>2026-04-16T16:42:41.747Z</time></trkpt><trkpt lat="43.1088693" lon="12.445412"><ele>192.0</ele><time>2026-04-16T16:42:42.747Z</time></trkpt><trkpt lat="43.108937" lon="12.4454733"><ele>192.0</ele><time>2026-04-16T16:42:43.746Z</time></trkpt><trkpt lat="43.1090103" lon="12.4455331"><ele>192.0</ele><time>2026-04-16T16:42:44.747Z</time></trkpt><trkpt lat="43.1090827" lon="12.4455949"><ele>192.2</ele><time>2026-04-16T16:42:45.747Z</time></trkpt><trkpt lat="43.1091575" lon="12.4456538"><ele>192.39999999999998</ele><time>2026-04-16T16:42:46.746Z</time></trkpt><trkpt lat="43.1092345" lon="12.4457163"><ele>192.60000000000002</ele><time>2026-04-16T16:42:47.747Z</time></trkpt><trkpt lat="43.1093128" lon="12.445775"><ele>192.8</ele><time>2026-04-16T16:42:48.747Z</time></trkpt><trkpt lat="43.1093941" lon="12.4458367"><ele>193.0</ele><time>2026-04-16T16:42:49.746Z</time></trkpt><trkpt lat="43.1094721" lon="12.4459075"><ele>193.0</ele><time>2026-04-16T16:42:50.746Z</time></trkpt><trkpt lat="43.1095497" lon="12.4459823"><ele>193.0</ele><time>2026-04-16T16:42:51.747Z</time></trkpt><trkpt lat="43.10962" lon="12.4460734"><ele>193.0</ele><time>2026-04-16T16:42:52.747Z</time></trkpt><trkpt lat="43.1096814" lon="12.4461807"><ele>193.0</ele><time>2026-04-16T16:42:53.747Z</time></trkpt><trkpt lat="43.1097459" lon="12.4463"><ele>193.0</ele><time>2026-04-16T16:42:54.747Z</time></trkpt><trkpt lat="43.1097938" lon="12.4464025"><ele>193.16666666666666</ele><time>2026-04-16T16:42:55.746Z</time></trkpt><trkpt lat="43.1098445" lon="12.4465076"><ele>193.33333333333331</ele><time>2026-04-16T16:42:56.747Z</time></trkpt><trkpt lat="43.1098975" lon="12.4466044"><ele>193.5</ele><time>2026-04-16T16:42:57.747Z</time></trkpt><trkpt lat="43.1099481" lon="12.4467"><ele>193.66666666666669</ele><time>2026-04-16T16:42:58.746Z</time></trkpt><trkpt lat="43.1099955" lon="12.446795"><ele>193.83333333333334</ele><time>2026-04-16T16:42:59.746Z</time></trkpt><trkpt lat="43.110044" lon="12.4468851"><ele>194.0</ele><time>2026-04-16T16:43:00.746Z</time></trkpt><trkpt lat="43.1100894" lon="12.4469685"><ele>194.00000000000003</ele><time>2026-04-16T16:43:01.746Z</time></trkpt><trkpt lat="43.1101368" lon="12.4470538"><ele>194.0</ele><time>2026-04-16T16:43:02.747Z</time></trkpt><trkpt lat="43.1101844" lon="12.4471379"><ele>194.0</ele><time>2026-04-16T16:43:03.747Z</time></trkpt><trkpt lat="43.1102227" lon="12.4472162"><ele>194.0</ele><time>2026-04-16T16:43:04.746Z</time></trkpt><trkpt lat="43.1102885" lon="12.4473615"><ele>194.00000000000003</ele><time>2026-04-16T16:43:06.747Z</time></trkpt><trkpt lat="43.1103292" lon="12.4474356"><ele>194.0</ele><time>2026-04-16T16:43:07.746Z</time></trkpt><trkpt lat="43.1103647" lon="12.4475149"><ele>194.14285714285714</ele><time>2026-04-16T16:43:08.747Z</time></trkpt><trkpt lat="43.1104061" lon="12.4475879"><ele>194.2857142857143</ele><time>2026-04-16T16:43:09.746Z</time></trkpt><trkpt lat="43.1104506" lon="12.4476614"><ele>194.42857142857144</ele><time>2026-04-16T16:43:10.747Z</time></trkpt><trkpt lat="43.1104861" lon="12.447742"><ele>194.57142857142856</ele><time>2026-04-16T16:43:11.747Z</time></trkpt><trkpt lat="43.1105182" lon="12.4478201"><ele>194.71428571428572</ele><time>2026-04-16T16:43:12.747Z</time></trkpt><trkpt lat="43.1105596" lon="12.4478948"><ele>194.85714285714286</ele><time>2026-04-16T16:43:13.747Z</time></trkpt><trkpt lat="43.1106017" lon="12.4479702"><ele>195.0</ele><time>2026-04-16T16:43:14.746Z</time></trkpt><trkpt lat="43.1106396" lon="12.4480478"><ele>195.0</ele><time>2026-04-16T16:43:15.747Z</time></trkpt><trkpt lat="43.1107042" lon="12.4481936"><ele>195.0</ele><time>2026-04-16T16:43:17.746Z</time></trkpt><trkpt lat="43.110765" lon="12.4483498"><ele>195.0</ele><time>2026-04-16T16:43:19.747Z</time></trkpt><trkpt lat="43.1108104" lon="12.4484259"><ele>195.0</ele><time>2026-04-16T16:43:20.746Z</time></trkpt><trkpt lat="43.1108558" lon="12.4484933"><ele>195.0</ele><time>2026-04-16T16:43:21.747Z</time></trkpt><trkpt lat="43.1109002" lon="12.4485676"><ele>195.0</ele><time>2026-04-16T16:43:22.747Z</time></trkpt><trkpt lat="43.110942" lon="12.4486523"><ele>195.0</ele><time>2026-04-16T16:43:23.746Z</time></trkpt><trkpt lat="43.1109886" lon="12.4487249"><ele>195.0</ele><time>2026-04-16T16:43:24.746Z</time></trkpt><trkpt lat="43.1110294" lon="12.4487971"><ele>195.0</ele><time>2026-04-16T16:43:25.746Z</time></trkpt><trkpt lat="43.1110657" lon="12.4488816"><ele>195.0</ele><time>2026-04-16T16:43:26.746Z</time></trkpt><trkpt lat="43.111102" lon="12.4489624"><ele>195.0</ele><time>2026-04-16T16:43:27.747Z</time></trkpt><trkpt lat="43.1111354" lon="12.4490404"><ele>195.0</ele><time>2026-04-16T16:43:28.746Z</time></trkpt><trkpt lat="43.1111638" lon="12.4491227"><ele>195.0</ele><time>2026-04-16T16:43:29.746Z</time></trkpt><trkpt lat="43.1111961" lon="12.4492008"><ele>195.0</ele><time>2026-04-16T16:43:30.746Z</time></trkpt><trkpt lat="43.1112335" lon="12.4492772"><ele>195.0</ele><time>2026-04-16T16:43:31.747Z</time></trkpt><trkpt lat="43.111273" lon="12.4493555"><ele>195.0</ele><time>2026-04-16T16:43:32.747Z</time></trkpt><trkpt lat="43.1113055" lon="12.4494312"><ele>195.0</ele><time>2026-04-16T16:43:33.747Z</time></trkpt><trkpt lat="43.1113493" lon="12.4495039"><ele>195.0</ele><time>2026-04-16T16:43:34.747Z</time></trkpt><trkpt lat="43.1113983" lon="12.4495711"><ele>195.0</ele><time>2026-04-16T16:43:35.746Z</time></trkpt><trkpt lat="43.111477" lon="12.4496991"><ele>194.8</ele><time>2026-04-16T16:43:37.746Z</time></trkpt><trkpt lat="43.1115547" lon="12.4498248"><ele>194.6</ele><time>2026-04-16T16:43:39.747Z</time></trkpt><trkpt lat="43.1115955" lon="12.4498922"><ele>194.39999999999998</ele><time>2026-04-16T16:43:40.746Z</time></trkpt><trkpt lat="43.1116906" lon="12.4500035"><ele>194.2</ele><time>2026-04-16T16:43:42.747Z</time></trkpt><trkpt lat="43.1117593" lon="12.450137"><ele>194.0</ele><time>2026-04-16T16:43:44.747Z</time></trkpt><trkpt lat="43.1118485" lon="12.4502294"><ele>193.75</ele><time>2026-04-16T16:43:46.747Z</time></trkpt><trkpt lat="43.111952" lon="12.4503194"><ele>193.5</ele><time>2026-04-16T16:43:48.747Z</time></trkpt><trkpt lat="43.1120465" lon="12.4504128"><ele>193.25</ele><time>2026-04-16T16:43:50.747Z</time></trkpt><trkpt lat="43.1121376" lon="12.4504978"><ele>193.0</ele><time>2026-04-16T16:43:52.746Z</time></trkpt><trkpt lat="43.1122364" lon="12.4505841"><ele>193.0</ele><time>2026-04-16T16:43:54.747Z</time></trkpt><trkpt lat="43.1122881" lon="12.4506574"><ele>193.0</ele><time>2026-04-16T16:43:55.747Z</time></trkpt><trkpt lat="43.1123395" lon="12.4507313"><ele>193.0</ele><time>2026-04-16T16:43:56.747Z</time></trkpt><trkpt lat="43.112441" lon="12.4508312"><ele>193.0</ele><time>2026-04-16T16:43:58.746Z</time></trkpt><trkpt lat="43.1125434" lon="12.4509389"><ele>193.0</ele><time>2026-04-16T16:44:00.746Z</time></trkpt><trkpt lat="43.1125968" lon="12.4509872"><ele>193.0</ele><time>2026-04-16T16:44:01.746Z</time></trkpt><trkpt lat="43.1126925" lon="12.4510826"><ele>193.0</ele><time>2026-04-16T16:44:03.746Z</time></trkpt><trkpt lat="43.112792" lon="12.4511754"><ele>193.0</ele><time>2026-04-16T16:44:05.747Z</time></trkpt><trkpt lat="43.1128622" lon="12.4512867"><ele>193.0</ele><time>2026-04-16T16:44:07.747Z</time></trkpt><trkpt lat="43.1129557" lon="12.451382"><ele>193.0</ele><time>2026-04-16T16:44:09.746Z</time></trkpt><trkpt lat="43.1130684" lon="12.4514519"><ele>193.0</ele><time>2026-04-16T16:44:11.747Z</time></trkpt><trkpt lat="43.1131313" lon="12.4514808"><ele>193.0</ele><time>2026-04-16T16:44:12.747Z</time></trkpt><trkpt lat="43.1132424" lon="12.4515317"><ele>193.0</ele><time>2026-04-16T16:44:14.747Z</time></trkpt><trkpt lat="43.1133023" lon="12.4515705"><ele>193.0</ele><time>2026-04-16T16:44:15.747Z</time></trkpt><trkpt lat="43.1134032" lon="12.4516416"><ele>192.99999999999997</ele><time>2026-04-16T16:44:17.746Z</time></trkpt><trkpt lat="43.1135058" lon="12.451731"><ele>193.0</ele><time>2026-04-16T16:44:19.746Z</time></trkpt><trkpt lat="43.1136131" lon="12.4518049"><ele>193.0</ele><time>2026-04-16T16:44:21.747Z</time></trkpt><trkpt lat="43.113671" lon="12.4518432"><ele>193.0</ele><time>2026-04-16T16:44:22.746Z</time></trkpt><trkpt lat="43.1137339" lon="12.4518808"><ele>192.99999999999997</ele><time>2026-04-16T16:44:23.747Z</time></trkpt><trkpt lat="43.1137904" lon="12.451922"><ele>193.0</ele><time>2026-04-16T16:44:24.746Z</time></trkpt><trkpt lat="43.1138456" lon="12.4519635"><ele>193.0</ele><time>2026-04-16T16:44:25.746Z</time></trkpt><trkpt lat="43.113944" lon="12.4520307"><ele>193.0</ele><time>2026-04-16T16:44:27.746Z</time></trkpt><trkpt lat="43.114001" lon="12.4520683"><ele>193.0</ele><time>2026-04-16T16:44:28.746Z</time></trkpt><trkpt lat="43.114107" lon="12.4521369"><ele>193.0</ele><time>2026-04-16T16:44:30.746Z</time></trkpt><trkpt lat="43.114209" lon="12.45221"><ele>193.0</ele><time>2026-04-16T16:44:32.746Z</time></trkpt><trkpt lat="43.1143162" lon="12.4522766"><ele>193.4</ele><time>2026-04-16T16:44:34.747Z</time></trkpt><trkpt lat="43.1143735" lon="12.4523159"><ele>193.8</ele><time>2026-04-16T16:44:35.746Z</time></trkpt><trkpt lat="43.1144727" lon="12.4523646"><ele>194.2</ele><time>2026-04-16T16:44:37.747Z</time></trkpt><trkpt lat="43.1145712" lon="12.4523864"><ele>194.6</ele><time>2026-04-16T16:44:39.746Z</time></trkpt><trkpt lat="43.1146757" lon="12.452403"><ele>195.0</ele><time>2026-04-16T16:44:41.747Z</time></trkpt><trkpt lat="43.1147739" lon="12.4524132"><ele>195.0</ele><time>2026-04-16T16:44:43.747Z</time></trkpt><trkpt lat="43.1148828" lon="12.4524164"><ele>195.0</ele><time>2026-04-16T16:44:45.747Z</time></trkpt><trkpt lat="43.1149972" lon="12.452422"><ele>195.0</ele><time>2026-04-16T16:44:47.746Z</time></trkpt><trkpt lat="43.1151129" lon="12.4524289"><ele>195.0</ele><time>2026-04-16T16:44:49.747Z</time></trkpt><trkpt lat="43.1152255" lon="12.4524409"><ele>194.6</ele><time>2026-04-16T16:44:51.747Z</time></trkpt><trkpt lat="43.1153277" lon="12.4524564"><ele>194.2</ele><time>2026-04-16T16:44:53.746Z</time></trkpt><trkpt lat="43.115442" lon="12.4524615"><ele>193.8</ele><time>2026-04-16T16:44:55.746Z</time></trkpt><trkpt lat="43.1155508" lon="12.4524905"><ele>193.4</ele><time>2026-04-16T16:44:57.747Z</time></trkpt><trkpt lat="43.1156461" lon="12.4525588"><ele>193.0</ele><time>2026-04-16T16:44:59.747Z</time></trkpt><trkpt lat="43.115728" lon="12.4526418"><ele>193.2</ele><time>2026-04-16T16:45:01.747Z</time></trkpt><trkpt lat="43.115789" lon="12.4527286"><ele>193.4</ele><time>2026-04-16T16:45:03.746Z</time></trkpt><trkpt lat="43.115852" lon="12.4528376"><ele>193.6</ele><time>2026-04-16T16:45:05.755Z</time></trkpt><trkpt lat="43.1158964" lon="12.4529614"><ele>193.79999999999998</ele><time>2026-04-16T16:45:07.754Z</time></trkpt><trkpt lat="43.1159455" lon="12.4530973"><ele>194.0</ele><time>2026-04-16T16:45:09.755Z</time></trkpt><trkpt lat="43.1160003" lon="12.453206"><ele>194.00000000000003</ele><time>2026-04-16T16:45:11.755Z</time></trkpt><trkpt lat="43.1160034" lon="12.4533388"><ele>194.0</ele><time>2026-04-16T16:45:13.755Z</time></trkpt><trkpt lat="43.1159648" lon="12.4534565"><ele>194.0</ele><time>2026-04-16T16:45:15.754Z</time></trkpt><trkpt lat="43.1159091" lon="12.4535025"><ele>194.0</ele><time>2026-04-16T16:45:17.754Z</time></trkpt><trkpt lat="43.1158301" lon="12.453554"><ele>194.00000000000003</ele><time>2026-04-16T16:45:19.754Z</time></trkpt><trkpt lat="43.1157439" lon="12.4536058"><ele>194.0</ele><time>2026-04-16T16:45:21.755Z</time></trkpt><trkpt lat="43.1156515" lon="12.4536322"><ele>194.0</ele><time>2026-04-16T16:45:23.755Z</time></trkpt><trkpt lat="43.1155611" lon="12.4536546"><ele>194.0</ele><time>2026-04-16T16:45:25.755Z</time></trkpt><trkpt lat="43.1154594" lon="12.4537051"><ele>194.0</ele><time>2026-04-16T16:45:27.755Z</time></trkpt><trkpt lat="43.1153683" lon="12.4537549"><ele>194.0</ele><time>2026-04-16T16:45:29.755Z</time></trkpt><trkpt lat="43.1152822" lon="12.453829"><ele>194.0</ele><time>2026-04-16T16:45:31.755Z</time></trkpt><trkpt lat="43.1152031" lon="12.453914"><ele>194.0</ele><time>2026-04-16T16:45:33.754Z</time></trkpt><trkpt lat="43.1151259" lon="12.4540078"><ele>194.0</ele><time>2026-04-16T16:45:35.755Z</time></trkpt><trkpt lat="43.115048" lon="12.4541045"><ele>194.0</ele><time>2026-04-16T16:45:37.754Z</time></trkpt><trkpt lat="43.1149772" lon="12.4541964"><ele>194.0</ele><time>2026-04-16T16:45:39.754Z</time></trkpt><trkpt lat="43.1148985" lon="12.454299"><ele>194.0</ele><time>2026-04-16T16:45:41.755Z</time></trkpt><trkpt lat="43.1148235" lon="12.4543931"><ele>194.2</ele><time>2026-04-16T16:45:43.754Z</time></trkpt><trkpt lat="43.1147437" lon="12.4544907"><ele>194.39999999999998</ele><time>2026-04-16T16:45:45.754Z</time></trkpt><trkpt lat="43.1146687" lon="12.4545765"><ele>194.6</ele><time>2026-04-16T16:45:47.755Z</time></trkpt><trkpt lat="43.1145836" lon="12.4546777"><ele>194.8</ele><time>2026-04-16T16:45:49.755Z</time></trkpt><trkpt lat="43.1145097" lon="12.4547661"><ele>195.0</ele><time>2026-04-16T16:45:51.755Z</time></trkpt><trkpt lat="43.1144346" lon="12.4548817"><ele>195.0</ele><time>2026-04-16T16:45:53.754Z</time></trkpt><trkpt lat="43.1143838" lon="12.4549342"><ele>195.0</ele><time>2026-04-16T16:45:54.755Z</time></trkpt><trkpt lat="43.1143072" lon="12.455031"><ele>195.0</ele><time>2026-04-16T16:45:56.754Z</time></trkpt><trkpt lat="43.1142364" lon="12.4551297"><ele>195.0</ele><time>2026-04-16T16:45:58.755Z</time></trkpt><trkpt lat="43.1141643" lon="12.4552239"><ele>195.0</ele><time>2026-04-16T16:46:00.755Z</time></trkpt><trkpt lat="43.1140774" lon="12.4553289"><ele>194.4</ele><time>2026-04-16T16:46:02.754Z</time></trkpt><trkpt lat="43.1139942" lon="12.4554308"><ele>193.8</ele><time>2026-04-16T16:46:04.754Z</time></trkpt><trkpt lat="43.1139193" lon="12.4555401"><ele>193.2</ele><time>2026-04-16T16:46:06.755Z</time></trkpt><trkpt lat="43.1138309" lon="12.4556469"><ele>192.6</ele><time>2026-04-16T16:46:08.754Z</time></trkpt><trkpt lat="43.1137516" lon="12.4557453"><ele>192.0</ele><time>2026-04-16T16:46:10.754Z</time></trkpt><trkpt lat="43.1136674" lon="12.4558528"><ele>192.0</ele><time>2026-04-16T16:46:12.755Z</time></trkpt><trkpt lat="43.113602" lon="12.4559778"><ele>192.0</ele><time>2026-04-16T16:46:14.754Z</time></trkpt><trkpt lat="43.1135295" lon="12.4561026"><ele>192.0</ele><time>2026-04-16T16:46:16.755Z</time></trkpt><trkpt lat="43.1134718" lon="12.456231"><ele>192.0</ele><time>2026-04-16T16:46:18.755Z</time></trkpt><trkpt lat="43.1134307" lon="12.4563524"><ele>192.0</ele><time>2026-04-16T16:46:20.754Z</time></trkpt><trkpt lat="43.1133945" lon="12.4564916"><ele>191.75</ele><time>2026-04-16T16:46:22.755Z</time></trkpt><trkpt lat="43.1133684" lon="12.4566456"><ele>191.5</ele><time>2026-04-16T16:46:24.755Z</time></trkpt><trkpt lat="43.1133418" lon="12.4567883"><ele>191.25</ele><time>2026-04-16T16:46:26.755Z</time></trkpt><trkpt lat="43.1133267" lon="12.456944"><ele>191.0</ele><time>2026-04-16T16:46:28.755Z</time></trkpt><trkpt lat="43.1133332" lon="12.4570971"><ele>191.20000000000002</ele><time>2026-04-16T16:46:30.754Z</time></trkpt><trkpt lat="43.1133386" lon="12.4572368"><ele>191.4</ele><time>2026-04-16T16:46:32.754Z</time></trkpt><trkpt lat="43.1133592" lon="12.4573753"><ele>191.6</ele><time>2026-04-16T16:46:34.755Z</time></trkpt><trkpt lat="43.1133974" lon="12.4575162"><ele>191.8</ele><time>2026-04-16T16:46:36.754Z</time></trkpt><trkpt lat="43.1134419" lon="12.4576412"><ele>192.0</ele><time>2026-04-16T16:46:38.755Z</time></trkpt><trkpt lat="43.1135042" lon="12.4577717"><ele>192.0</ele><time>2026-04-16T16:46:40.755Z</time></trkpt><trkpt lat="43.1135604" lon="12.4578947"><ele>192.0</ele><time>2026-04-16T16:46:42.755Z</time></trkpt><trkpt lat="43.1136069" lon="12.4580215"><ele>192.0</ele><time>2026-04-16T16:46:44.755Z</time></trkpt><trkpt lat="43.1136556" lon="12.4581451"><ele>192.0</ele><time>2026-04-16T16:46:46.755Z</time></trkpt><trkpt lat="43.1137057" lon="12.4582604"><ele>192.0</ele><time>2026-04-16T16:46:48.755Z</time></trkpt><trkpt lat="43.1137567" lon="12.4583732"><ele>192.0</ele><time>2026-04-16T16:46:50.755Z</time></trkpt><trkpt lat="43.1138145" lon="12.4584989"><ele>192.0</ele><time>2026-04-16T16:46:52.755Z</time></trkpt><trkpt lat="43.1138596" lon="12.4586197"><ele>192.0</ele><time>2026-04-16T16:46:54.755Z</time></trkpt><trkpt lat="43.1139003" lon="12.4587352"><ele>192.0</ele><time>2026-04-16T16:46:56.755Z</time></trkpt><trkpt lat="43.1139413" lon="12.4588539"><ele>192.0</ele><time>2026-04-16T16:46:58.754Z</time></trkpt><trkpt lat="43.114" lon="12.4589741"><ele>192.39999999999998</ele><time>2026-04-16T16:47:00.754Z</time></trkpt><trkpt lat="43.1140514" lon="12.4590858"><ele>192.79999999999998</ele><time>2026-04-16T16:47:02.755Z</time></trkpt><trkpt lat="43.1141025" lon="12.4592188"><ele>193.2</ele><time>2026-04-16T16:47:04.755Z</time></trkpt><trkpt lat="43.1141521" lon="12.4593333"><ele>193.6</ele><time>2026-04-16T16:47:06.754Z</time></trkpt><trkpt lat="43.1141939" lon="12.4594425"><ele>194.0</ele><time>2026-04-16T16:47:08.755Z</time></trkpt><trkpt lat="43.1142377" lon="12.4595603"><ele>194.0</ele><time>2026-04-16T16:47:10.755Z</time></trkpt><trkpt lat="43.1142862" lon="12.4596703"><ele>194.0</ele><time>2026-04-16T16:47:12.755Z</time></trkpt><trkpt lat="43.1143294" lon="12.4597908"><ele>194.0</ele><time>2026-04-16T16:47:14.755Z</time></trkpt><trkpt lat="43.1143859" lon="12.459901"><ele>194.0</ele><time>2026-04-16T16:47:16.754Z</time></trkpt><trkpt lat="43.1144365" lon="12.4600074"><ele>194.0</ele><time>2026-04-16T16:47:18.755Z</time></trkpt><trkpt lat="43.1144712" lon="12.460108"><ele>194.00000000000003</ele><time>2026-04-16T16:47:20.755Z</time></trkpt><trkpt lat="43.1145211" lon="12.4602144"><ele>194.0</ele><time>2026-04-16T16:47:22.755Z</time></trkpt><trkpt lat="43.1145645" lon="12.4603114"><ele>194.0</ele><time>2026-04-16T16:47:24.754Z</time></trkpt><trkpt lat="43.1146114" lon="12.4604208"><ele>194.0</ele><time>2026-04-16T16:47:26.755Z</time></trkpt><trkpt lat="43.11465" lon="12.4605353"><ele>194.00000000000003</ele><time>2026-04-16T16:47:28.754Z</time></trkpt><trkpt lat="43.1146933" lon="12.4606297"><ele>194.0</ele><time>2026-04-16T16:47:30.755Z</time></trkpt><trkpt lat="43.1147325" lon="12.4607315"><ele>194.2</ele><time>2026-04-16T16:47:32.755Z</time></trkpt><trkpt lat="43.1147754" lon="12.4608519"><ele>194.39999999999998</ele><time>2026-04-16T16:47:34.755Z</time></trkpt><trkpt lat="43.1148187" lon="12.4609543"><ele>194.6</ele><time>2026-04-16T16:47:36.755Z</time></trkpt><trkpt lat="43.1148601" lon="12.4610673"><ele>194.8</ele><time>2026-04-16T16:47:38.755Z</time></trkpt><trkpt lat="43.1149042" lon="12.4611718"><ele>195.0</ele><time>2026-04-16T16:47:40.755Z</time></trkpt><trkpt lat="43.1149469" lon="12.4612736"><ele>195.0</ele><time>2026-04-16T16:47:42.754Z</time></trkpt><trkpt lat="43.1149877" lon="12.4613833"><ele>195.0</ele><time>2026-04-16T16:47:44.754Z</time></trkpt><trkpt lat="43.1150243" lon="12.4614837"><ele>195.0</ele><time>2026-04-16T16:47:46.754Z</time></trkpt><trkpt lat="43.115063" lon="12.4615918"><ele>195.0</ele><time>2026-04-16T16:47:48.755Z</time></trkpt><trkpt lat="43.1151048" lon="12.4616913"><ele>195.0</ele><time>2026-04-16T16:47:50.754Z</time></trkpt><trkpt lat="43.115149" lon="12.4618031"><ele>195.0</ele><time>2026-04-16T16:47:52.755Z</time></trkpt><trkpt lat="43.1151929" lon="12.4619137"><ele>195.0</ele><time>2026-04-16T16:47:54.754Z</time></trkpt><trkpt lat="43.115238" lon="12.4620213"><ele>195.0</ele><time>2026-04-16T16:47:56.755Z</time></trkpt><trkpt lat="43.1152799" lon="12.4621284"><ele>195.0</ele><time>2026-04-16T16:47:58.754Z</time></trkpt><trkpt lat="43.1153199" lon="12.4622203"><ele>195.0</ele><time>2026-04-16T16:48:00.755Z</time></trkpt><trkpt lat="43.1153582" lon="12.4623167"><ele>195.0</ele><time>2026-04-16T16:48:02.755Z</time></trkpt><trkpt lat="43.1154014" lon="12.462433"><ele>195.0</ele><time>2026-04-16T16:48:04.754Z</time></trkpt><trkpt lat="43.115444" lon="12.4625331"><ele>195.0</ele><time>2026-04-16T16:48:06.755Z</time></trkpt><trkpt lat="43.1154843" lon="12.4626326"><ele>195.0</ele><time>2026-04-16T16:48:08.755Z</time></trkpt><trkpt lat="43.1155242" lon="12.4627358"><ele>195.0</ele><time>2026-04-16T16:48:10.755Z</time></trkpt><trkpt lat="43.115572" lon="12.4628378"><ele>195.0</ele><time>2026-04-16T16:48:12.755Z</time></trkpt><trkpt lat="43.1156161" lon="12.4629517"><ele>195.0</ele><time>2026-04-16T16:48:14.754Z</time></trkpt><trkpt lat="43.1156612" lon="12.4630491"><ele>195.0</ele><time>2026-04-16T16:48:16.755Z</time></trkpt><trkpt lat="43.1156982" lon="12.4631567"><ele>195.16666666666666</ele><time>2026-04-16T16:48:18.754Z</time></trkpt><trkpt lat="43.1157323" lon="12.4632702"><ele>195.33333333333331</ele><time>2026-04-16T16:48:20.755Z</time></trkpt><trkpt lat="43.1157744" lon="12.4633713"><ele>195.5</ele><time>2026-04-16T16:48:22.755Z</time></trkpt><trkpt lat="43.1158173" lon="12.4634713"><ele>195.66666666666666</ele><time>2026-04-16T16:48:24.754Z</time></trkpt><trkpt lat="43.1158629" lon="12.4635669"><ele>195.83333333333331</ele><time>2026-04-16T16:48:26.755Z</time></trkpt><trkpt lat="43.115909" lon="12.4636826"><ele>196.0</ele><time>2026-04-16T16:48:28.755Z</time></trkpt><trkpt lat="43.1159553" lon="12.4637882"><ele>196.16666666666666</ele><time>2026-04-16T16:48:30.755Z</time></trkpt><trkpt lat="43.115994" lon="12.4638849"><ele>196.33333333333331</ele><time>2026-04-16T16:48:32.755Z</time></trkpt><trkpt lat="43.1160435" lon="12.4639904"><ele>196.5</ele><time>2026-04-16T16:48:34.755Z</time></trkpt><trkpt lat="43.1160907" lon="12.4641055"><ele>196.66666666666669</ele><time>2026-04-16T16:48:36.755Z</time></trkpt><trkpt lat="43.1161305" lon="12.4642053"><ele>196.83333333333334</ele><time>2026-04-16T16:48:38.755Z</time></trkpt><trkpt lat="43.116172" lon="12.4643181"><ele>197.0</ele><time>2026-04-16T16:48:40.755Z</time></trkpt><trkpt lat="43.1162107" lon="12.4644167"><ele>197.00000000000003</ele><time>2026-04-16T16:48:42.755Z</time></trkpt><trkpt lat="43.1162502" lon="12.4645248"><ele>197.0</ele><time>2026-04-16T16:48:44.755Z</time></trkpt><trkpt lat="43.1163011" lon="12.4646228"><ele>197.0</ele><time>2026-04-16T16:48:46.754Z</time></trkpt><trkpt lat="43.1163433" lon="12.4647286"><ele>197.0</ele><time>2026-04-16T16:48:48.755Z</time></trkpt><trkpt lat="43.1163827" lon="12.4648262"><ele>197.00000000000003</ele><time>2026-04-16T16:48:50.755Z</time></trkpt><trkpt lat="43.1164157" lon="12.4649243"><ele>197.0</ele><time>2026-04-16T16:48:52.755Z</time></trkpt><trkpt lat="43.1164519" lon="12.4650265"><ele>197.00000000000003</ele><time>2026-04-16T16:48:54.754Z</time></trkpt><trkpt lat="43.1164884" lon="12.4651286"><ele>197.0</ele><time>2026-04-16T16:48:56.754Z</time></trkpt><trkpt lat="43.1165279" lon="12.4652353"><ele>197.0</ele><time>2026-04-16T16:48:58.754Z</time></trkpt><trkpt lat="43.1165741" lon="12.4653443"><ele>197.0</ele><time>2026-04-16T16:49:00.755Z</time></trkpt><trkpt lat="43.1166225" lon="12.4654367"><ele>197.00000000000003</ele><time>2026-04-16T16:49:02.754Z</time></trkpt><trkpt lat="43.1166621" lon="12.4655347"><ele>197.0</ele><time>2026-04-16T16:49:04.755Z</time></trkpt><trkpt lat="43.1167082" lon="12.4656429"><ele>197.00000000000003</ele><time>2026-04-16T16:49:06.754Z</time></trkpt><trkpt lat="43.1167422" lon="12.4657547"><ele>197.0</ele><time>2026-04-16T16:49:08.754Z</time></trkpt><trkpt lat="43.1167909" lon="12.4658505"><ele>197.0</ele><time>2026-04-16T16:49:10.754Z</time></trkpt><trkpt lat="43.116833" lon="12.4659626"><ele>197.0</ele><time>2026-04-16T16:49:12.754Z</time></trkpt><trkpt lat="43.1168765" lon="12.4660649"><ele>197.00000000000003</ele><time>2026-04-16T16:49:14.755Z</time></trkpt><trkpt lat="43.1169162" lon="12.4661608"><ele>197.0</ele><time>2026-04-16T16:49:16.755Z</time></trkpt><trkpt lat="43.1169589" lon="12.4662743"><ele>197.00000000000003</ele><time>2026-04-16T16:49:18.754Z</time></trkpt><trkpt lat="43.1169977" lon="12.4663688"><ele>197.0</ele><time>2026-04-16T16:49:20.754Z</time></trkpt><trkpt lat="43.1170457" lon="12.4664752"><ele>197.0</ele><time>2026-04-16T16:49:22.754Z</time></trkpt><trkpt lat="43.1170947" lon="12.4665761"><ele>197.0</ele><time>2026-04-16T16:49:24.754Z</time></trkpt><trkpt lat="43.1171373" lon="12.4666713"><ele>197.00000000000003</ele><time>2026-04-16T16:49:26.755Z</time></trkpt><trkpt lat="43.1171787" lon="12.4667652"><ele>197.0</ele><time>2026-04-16T16:49:28.754Z</time></trkpt><trkpt lat="43.117223" lon="12.4668591"><ele>197.00000000000003</ele><time>2026-04-16T16:49:30.754Z</time></trkpt><trkpt lat="43.1172623" lon="12.4669742"><ele>197.0</ele><time>2026-04-16T16:49:32.754Z</time></trkpt><trkpt lat="43.1172968" lon="12.4670689"><ele>197.0</ele><time>2026-04-16T16:49:34.754Z</time></trkpt><trkpt lat="43.1173234" lon="12.4671492"><ele>197.0</ele><time>2026-04-16T16:49:36.755Z</time></trkpt><trkpt lat="43.1173617" lon="12.4672497"><ele>197.00000000000003</ele><time>2026-04-16T16:49:38.755Z</time></trkpt><trkpt lat="43.1174052" lon="12.4673515"><ele>197.0</ele><time>2026-04-16T16:49:40.754Z</time></trkpt><trkpt lat="43.1174595" lon="12.4674634"><ele>197.83333333333334</ele><time>2026-04-16T16:49:43.754Z</time></trkpt><trkpt lat="43.1174908" lon="12.4675403"><ele>198.66666666666669</ele><time>2026-04-16T16:49:45.754Z</time></trkpt><trkpt lat="43.1175235" lon="12.4676171"><ele>199.5</ele><time>2026-04-16T16:49:47.755Z</time></trkpt><trkpt lat="43.1175747" lon="12.467726"><ele>200.33333333333331</ele><time>2026-04-16T16:49:50.754Z</time></trkpt><trkpt lat="43.1176167" lon="12.4678204"><ele>201.16666666666666</ele><time>2026-04-16T16:49:53.755Z</time></trkpt><trkpt lat="43.117653" lon="12.4679125"><ele>202.0</ele><time>2026-04-16T16:49:56.754Z</time></trkpt><trkpt lat="43.117698" lon="12.4680224"><ele>202.28571428571428</ele><time>2026-04-16T16:49:59.755Z</time></trkpt><trkpt lat="43.1177314" lon="12.4680995"><ele>202.57142857142856</ele><time>2026-04-16T16:50:01.755Z</time></trkpt><trkpt lat="43.1177578" lon="12.4681834"><ele>202.85714285714286</ele><time>2026-04-16T16:50:03.755Z</time></trkpt><trkpt lat="43.117796" lon="12.4682651"><ele>203.14285714285714</ele><time>2026-04-16T16:50:05.755Z</time></trkpt><trkpt lat="43.1178264" lon="12.4683506"><ele>203.42857142857144</ele><time>2026-04-16T16:50:07.755Z</time></trkpt><trkpt lat="43.1178656" lon="12.4684494"><ele>203.71428571428572</ele><time>2026-04-16T16:50:10.754Z</time></trkpt><trkpt lat="43.1179079" lon="12.4685479"><ele>204.0</ele><time>2026-04-16T16:50:13.754Z</time></trkpt><trkpt lat="43.1179411" lon="12.4686415"><ele>204.0</ele><time>2026-04-16T16:50:16.755Z</time></trkpt><trkpt lat="43.1179806" lon="12.4687225"><ele>204.0</ele><time>2026-04-16T16:50:18.755Z</time></trkpt><trkpt lat="43.1180153" lon="12.4688182"><ele>204.0</ele><time>2026-04-16T16:50:21.755Z</time></trkpt><trkpt lat="43.1180653" lon="12.4689038"><ele>204.0</ele><time>2026-04-16T16:50:24.754Z</time></trkpt><trkpt lat="43.118101" lon="12.4689801"><ele>204.0</ele><time>2026-04-16T16:50:26.754Z</time></trkpt><trkpt lat="43.1181472" lon="12.4690886"><ele>204.0</ele><time>2026-04-16T16:50:29.754Z</time></trkpt><trkpt lat="43.1181757" lon="12.4691986"><ele>204.16666666666666</ele><time>2026-04-16T16:50:32.755Z</time></trkpt><trkpt lat="43.1182131" lon="12.4692963"><ele>204.33333333333331</ele><time>2026-04-16T16:50:35.754Z</time></trkpt><trkpt lat="43.1182514" lon="12.4693695"><ele>204.5</ele><time>2026-04-16T16:50:37.754Z</time></trkpt><trkpt lat="43.1182884" lon="12.469491"><ele>204.66666666666666</ele><time>2026-04-16T16:50:40.754Z</time></trkpt><trkpt lat="43.1183268" lon="12.4695846"><ele>204.83333333333331</ele><time>2026-04-16T16:50:42.755Z</time></trkpt><trkpt lat="43.1183666" lon="12.4696791"><ele>205.0</ele><time>2026-04-16T16:50:45.755Z</time></trkpt><trkpt lat="43.1184109" lon="12.4697845"><ele>205.33333333333331</ele><time>2026-04-16T16:50:48.754Z</time></trkpt><trkpt lat="43.1184468" lon="12.4698577"><ele>205.66666666666666</ele><time>2026-04-16T16:50:50.754Z</time></trkpt><trkpt lat="43.1184816" lon="12.4699616"><ele>206.0</ele><time>2026-04-16T16:50:53.754Z</time></trkpt><trkpt lat="43.1185229" lon="12.4700604"><ele>206.33333333333331</ele><time>2026-04-16T16:50:56.754Z</time></trkpt><trkpt lat="43.1185626" lon="12.4701586"><ele>206.66666666666666</ele><time>2026-04-16T16:50:59.754Z</time></trkpt><trkpt lat="43.1185988" lon="12.4702329"><ele>207.0</ele><time>2026-04-16T16:51:01.755Z</time></trkpt><trkpt lat="43.1186478" lon="12.4703475"><ele>207.0</ele><time>2026-04-16T16:51:04.755Z</time></trkpt><trkpt lat="43.1186913" lon="12.4704301"><ele>207.0</ele><time>2026-04-16T16:51:06.755Z</time></trkpt><trkpt lat="43.1187304" lon="12.4705287"><ele>207.0</ele><time>2026-04-16T16:51:08.755Z</time></trkpt><trkpt lat="43.1187711" lon="12.47064"><ele>207.0</ele><time>2026-04-16T16:51:10.754Z</time></trkpt><trkpt lat="43.1188273" lon="12.4707621"><ele>207.0</ele><time>2026-04-16T16:51:12.755Z</time></trkpt><trkpt lat="43.1188942" lon="12.4708935"><ele>206.66666666666666</ele><time>2026-04-16T16:51:14.755Z</time></trkpt><trkpt lat="43.1189249" lon="12.4709691"><ele>206.33333333333331</ele><time>2026-04-16T16:51:15.754Z</time></trkpt><trkpt lat="43.11899" lon="12.4711265"><ele>206.0</ele><time>2026-04-16T16:51:17.755Z</time></trkpt><trkpt lat="43.1190239" lon="12.4712128"><ele>205.66666666666666</ele><time>2026-04-16T16:51:18.754Z</time></trkpt><trkpt lat="43.1190671" lon="12.4712982"><ele>205.33333333333331</ele><time>2026-04-16T16:51:19.755Z</time></trkpt><trkpt lat="43.1191042" lon="12.4713899"><ele>205.0</ele><time>2026-04-16T16:51:20.754Z</time></trkpt><trkpt lat="43.119142" lon="12.4714814"><ele>204.83333333333331</ele><time>2026-04-16T16:51:21.754Z</time></trkpt><trkpt lat="43.11918" lon="12.4715682"><ele>204.66666666666666</ele><time>2026-04-16T16:51:22.754Z</time></trkpt><trkpt lat="43.1192189" lon="12.4716525"><ele>204.5</ele><time>2026-04-16T16:51:23.755Z</time></trkpt><trkpt lat="43.1192558" lon="12.4717306"><ele>204.33333333333331</ele><time>2026-04-16T16:51:24.754Z</time></trkpt><trkpt lat="43.119292" lon="12.4718118"><ele>204.16666666666666</ele><time>2026-04-16T16:51:25.755Z</time></trkpt><trkpt lat="43.1193215" lon="12.4718894"><ele>204.0</ele><time>2026-04-16T16:51:26.755Z</time></trkpt><trkpt lat="43.1193771" lon="12.472037"><ele>203.6</ele><time>2026-04-16T16:51:28.754Z</time></trkpt><trkpt lat="43.1194322" lon="12.4721578"><ele>203.2</ele><time>2026-04-16T16:51:30.754Z</time></trkpt><trkpt lat="43.1194716" lon="12.4722741"><ele>202.79999999999998</ele><time>2026-04-16T16:51:32.755Z</time></trkpt><trkpt lat="43.119518" lon="12.4723777"><ele>202.39999999999998</ele><time>2026-04-16T16:51:34.755Z</time></trkpt><trkpt lat="43.1195675" lon="12.4724715"><ele>202.0</ele><time>2026-04-16T16:51:36.755Z</time></trkpt><trkpt lat="43.1196223" lon="12.4725546"><ele>201.99999999999997</ele><time>2026-04-16T16:51:38.755Z</time></trkpt><trkpt lat="43.1196775" lon="12.472633"><ele>202.0</ele><time>2026-04-16T16:51:40.755Z</time></trkpt><trkpt lat="43.1197397" lon="12.4727314"><ele>202.0</ele><time>2026-04-16T16:51:42.755Z</time></trkpt><trkpt lat="43.1198009" lon="12.4728214"><ele>202.0</ele><time>2026-04-16T16:51:44.764Z</time></trkpt><trkpt lat="43.1198581" lon="12.4729125"><ele>201.99999999999997</ele><time>2026-04-16T16:51:46.764Z</time></trkpt><trkpt lat="43.1199139" lon="12.4730047"><ele>202.0</ele><time>2026-04-16T16:51:48.764Z</time></trkpt><trkpt lat="43.1199615" lon="12.4730885"><ele>201.83333333333331</ele><time>2026-04-16T16:51:50.764Z</time></trkpt><trkpt lat="43.1200086" lon="12.4731806"><ele>201.66666666666666</ele><time>2026-04-16T16:51:52.763Z</time></trkpt><trkpt lat="43.1200567" lon="12.4732674"><ele>201.5</ele><time>2026-04-16T16:51:54.764Z</time></trkpt><trkpt lat="43.1201025" lon="12.4733567"><ele>201.33333333333331</ele><time>2026-04-16T16:51:56.764Z</time></trkpt><trkpt lat="43.12015" lon="12.4734448"><ele>201.16666666666666</ele><time>2026-04-16T16:51:58.763Z</time></trkpt><trkpt lat="43.1201979" lon="12.4735179"><ele>201.0</ele><time>2026-04-16T16:52:00.764Z</time></trkpt><trkpt lat="43.1202445" lon="12.4735931"><ele>201.0</ele><time>2026-04-16T16:52:02.764Z</time></trkpt><trkpt lat="43.1202891" lon="12.4736687"><ele>201.0</ele><time>2026-04-16T16:52:04.763Z</time></trkpt><trkpt lat="43.1203348" lon="12.4737326"><ele>201.0</ele><time>2026-04-16T16:52:06.763Z</time></trkpt><trkpt lat="43.1203807" lon="12.4737953"><ele>201.0</ele><time>2026-04-16T16:52:08.764Z</time></trkpt><trkpt lat="43.120429" lon="12.4738677"><ele>201.0</ele><time>2026-04-16T16:52:10.764Z</time></trkpt><trkpt lat="43.1204782" lon="12.4739703"><ele>201.0</ele><time>2026-04-16T16:52:13.763Z</time></trkpt><trkpt lat="43.1205245" lon="12.4740408"><ele>201.0</ele><time>2026-04-16T16:52:15.764Z</time></trkpt><trkpt lat="43.1205688" lon="12.4741173"><ele>201.16666666666666</ele><time>2026-04-16T16:52:17.763Z</time></trkpt><trkpt lat="43.1206142" lon="12.4741885"><ele>201.33333333333331</ele><time>2026-04-16T16:52:19.764Z</time></trkpt><trkpt lat="43.1206567" lon="12.4742609"><ele>201.5</ele><time>2026-04-16T16:52:21.764Z</time></trkpt><trkpt lat="43.1206976" lon="12.4743368"><ele>201.66666666666666</ele><time>2026-04-16T16:52:23.763Z</time></trkpt><trkpt lat="43.1207549" lon="12.4744453"><ele>201.83333333333331</ele><time>2026-04-16T16:52:26.764Z</time></trkpt><trkpt lat="43.1208238" lon="12.4745458"><ele>202.0</ele><time>2026-04-16T16:52:29.764Z</time></trkpt><trkpt lat="43.1208701" lon="12.4746193"><ele>202.85714285714286</ele><time>2026-04-16T16:52:31.764Z</time></trkpt><trkpt lat="43.1209152" lon="12.4746909"><ele>203.71428571428572</ele><time>2026-04-16T16:52:33.764Z</time></trkpt><trkpt lat="43.1209571" lon="12.4747666"><ele>204.57142857142856</ele><time>2026-04-16T16:52:35.764Z</time></trkpt><trkpt lat="43.1209994" lon="12.4748343"><ele>205.42857142857144</ele><time>2026-04-16T16:52:37.763Z</time></trkpt><trkpt lat="43.1210612" lon="12.4749323"><ele>206.2857142857143</ele><time>2026-04-16T16:52:40.764Z</time></trkpt><trkpt lat="43.1211024" lon="12.4750016"><ele>207.14285714285714</ele><time>2026-04-16T16:52:42.764Z</time></trkpt><trkpt lat="43.1211451" lon="12.4750659"><ele>208.0</ele><time>2026-04-16T16:52:44.764Z</time></trkpt><trkpt lat="43.1211865" lon="12.4751377"><ele>208.0</ele><time>2026-04-16T16:52:46.763Z</time></trkpt><trkpt lat="43.1212278" lon="12.4752115"><ele>208.0</ele><time>2026-04-16T16:52:48.764Z</time></trkpt><trkpt lat="43.1212728" lon="12.4752908"><ele>208.0</ele><time>2026-04-16T16:52:50.764Z</time></trkpt><trkpt lat="43.1213169" lon="12.475363"><ele>208.0</ele><time>2026-04-16T16:52:52.763Z</time></trkpt><trkpt lat="43.1213635" lon="12.4754351"><ele>208.0</ele><time>2026-04-16T16:52:54.764Z</time></trkpt><trkpt lat="43.1213983" lon="12.4755133"><ele>208.0</ele><time>2026-04-16T16:52:56.764Z</time></trkpt><trkpt lat="43.1214295" lon="12.4755921"><ele>208.0</ele><time>2026-04-16T16:52:58.764Z</time></trkpt><trkpt lat="43.1214566" lon="12.475672"><ele>208.33333333333331</ele><time>2026-04-16T16:53:00.764Z</time></trkpt><trkpt lat="43.1214865" lon="12.4757881"><ele>208.66666666666666</ele><time>2026-04-16T16:53:03.763Z</time></trkpt><trkpt lat="43.1214977" lon="12.4759153"><ele>209.0</ele><time>2026-04-16T16:53:06.764Z</time></trkpt><trkpt lat="43.1215002" lon="12.4760325"><ele>209.33333333333331</ele><time>2026-04-16T16:53:09.763Z</time></trkpt><trkpt lat="43.1215017" lon="12.4761242"><ele>209.66666666666666</ele><time>2026-04-16T16:53:12.764Z</time></trkpt><trkpt lat="43.1214896" lon="12.4762232"><ele>210.0</ele><time>2026-04-16T16:53:16.764Z</time></trkpt><trkpt lat="43.1214678" lon="12.4763059"><ele>210.33333333333334</ele><time>2026-04-16T16:53:19.763Z</time></trkpt><trkpt lat="43.1214412" lon="12.4764091"><ele>210.66666666666669</ele><time>2026-04-16T16:53:23.764Z</time></trkpt><trkpt lat="43.1214099" lon="12.4765112"><ele>211.0</ele><time>2026-04-16T16:53:28.764Z</time></trkpt><trkpt lat="43.1213842" lon="12.4766104"><ele>211.33333333333334</ele><time>2026-04-16T16:53:32.764Z</time></trkpt><trkpt lat="43.1213609" lon="12.4766919"><ele>211.66666666666669</ele><time>2026-04-16T16:53:35.763Z</time></trkpt><trkpt lat="43.1213328" lon="12.4767966"><ele>212.0</ele><time>2026-04-16T16:53:39.763Z</time></trkpt><trkpt lat="43.1213112" lon="12.4768962"><ele>212.0</ele><time>2026-04-16T16:53:43.764Z</time></trkpt><trkpt lat="43.1212772" lon="12.4769981"><ele>212.0</ele><time>2026-04-16T16:53:47.763Z</time></trkpt><trkpt lat="43.1212558" lon="12.477102"><ele>212.0</ele><time>2026-04-16T16:53:51.763Z</time></trkpt><trkpt lat="43.1212308" lon="12.4771861"><ele>212.0</ele><time>2026-04-16T16:53:55.764Z</time></trkpt><trkpt lat="43.1212162" lon="12.4772728"><ele>212.0</ele><time>2026-04-16T16:53:59.763Z</time></trkpt><trkpt lat="43.1211907" lon="12.4773666"><ele>212.0</ele><time>2026-04-16T16:54:03.764Z</time></trkpt><trkpt lat="43.1211619" lon="12.4774669"><ele>212.0</ele><time>2026-04-16T16:54:07.764Z</time></trkpt><trkpt lat="43.1211415" lon="12.4775647"><ele>212.42857142857144</ele><time>2026-04-16T16:54:11.763Z</time></trkpt><trkpt lat="43.1211204" lon="12.4776572"><ele>212.85714285714283</ele><time>2026-04-16T16:54:15.764Z</time></trkpt><trkpt lat="43.1210994" lon="12.4777556"><ele>213.28571428571428</ele><time>2026-04-16T16:54:19.763Z</time></trkpt><trkpt lat="43.1210902" lon="12.4778566"><ele>213.71428571428572</ele><time>2026-04-16T16:54:23.763Z</time></trkpt><trkpt lat="43.1210813" lon="12.4779528"><ele>214.14285714285717</ele><time>2026-04-16T16:54:27.764Z</time></trkpt><trkpt lat="43.1210797" lon="12.478056"><ele>214.57142857142856</ele><time>2026-04-16T16:54:31.764Z</time></trkpt><trkpt lat="43.1210852" lon="12.4781621"><ele>215.0</ele><time>2026-04-16T16:54:35.764Z</time></trkpt><trkpt lat="43.1210939" lon="12.4782686"><ele>215.42857142857142</ele><time>2026-04-16T16:54:39.763Z</time></trkpt><trkpt lat="43.1211134" lon="12.4783709"><ele>215.85714285714286</ele><time>2026-04-16T16:54:43.764Z</time></trkpt><trkpt lat="43.121134" lon="12.4784698"><ele>216.28571428571428</ele><time>2026-04-16T16:54:47.764Z</time></trkpt><trkpt lat="43.1211603" lon="12.4785765"><ele>216.71428571428572</ele><time>2026-04-16T16:54:51.764Z</time></trkpt><trkpt lat="43.1211836" lon="12.4786763"><ele>217.14285714285717</ele><time>2026-04-16T16:54:55.763Z</time></trkpt><trkpt lat="43.1211999" lon="12.4787743"><ele>217.57142857142858</ele><time>2026-04-16T16:54:59.764Z</time></trkpt><trkpt lat="43.1212262" lon="12.4788531"><ele>218.0</ele><time>2026-04-16T16:55:02.764Z</time></trkpt><trkpt lat="43.1212546" lon="12.4789424"><ele>218.0</ele><time>2026-04-16T16:55:06.764Z</time></trkpt><trkpt lat="43.1212744" lon="12.4790371"><ele>218.0</ele><time>2026-04-16T16:55:10.763Z</time></trkpt><trkpt lat="43.1213073" lon="12.4791277"><ele>218.0</ele><time>2026-04-16T16:55:14.764Z</time></trkpt><trkpt lat="43.1213319" lon="12.4792086"><ele>218.0</ele><time>2026-04-16T16:55:17.764Z</time></trkpt><trkpt lat="43.1213646" lon="12.4793"><ele>218.0</ele><time>2026-04-16T16:55:21.764Z</time></trkpt><trkpt lat="43.1214016" lon="12.4793827"><ele>218.0</ele><time>2026-04-16T16:55:25.763Z</time></trkpt><trkpt lat="43.1214361" lon="12.4794766"><ele>218.0</ele><time>2026-04-16T16:55:29.763Z</time></trkpt><trkpt lat="43.1214845" lon="12.4795519"><ele>218.28571428571428</ele><time>2026-04-16T16:55:33.764Z</time></trkpt><trkpt lat="43.1215207" lon="12.4796327"><ele>218.57142857142858</ele><time>2026-04-16T16:55:37.764Z</time></trkpt><trkpt lat="43.1215593" lon="12.4797184"><ele>218.85714285714283</ele><time>2026-04-16T16:55:41.763Z</time></trkpt><trkpt lat="43.1216115" lon="12.4797916"><ele>219.14285714285714</ele><time>2026-04-16T16:55:45.763Z</time></trkpt><trkpt lat="43.1216598" lon="12.4798597"><ele>219.42857142857142</ele><time>2026-04-16T16:55:49.764Z</time></trkpt><trkpt lat="43.1217028" lon="12.479935"><ele>219.7142857142857</ele><time>2026-04-16T16:55:53.763Z</time></trkpt><trkpt lat="43.1217548" lon="12.4800153"><ele>220.0</ele><time>2026-04-16T16:55:57.764Z</time></trkpt><trkpt lat="43.1218057" lon="12.4800882"><ele>221.7142857142857</ele><time>2026-04-16T16:56:01.763Z</time></trkpt><trkpt lat="43.1218547" lon="12.4801509"><ele>223.42857142857144</ele><time>2026-04-16T16:56:06.764Z</time></trkpt><trkpt lat="43.1218996" lon="12.4802146"><ele>225.14285714285717</ele><time>2026-04-16T16:56:11.764Z</time></trkpt><trkpt lat="43.1219503" lon="12.4802911"><ele>226.85714285714286</ele><time>2026-04-16T16:56:17.764Z</time></trkpt><trkpt lat="43.1219957" lon="12.4803626"><ele>228.57142857142858</ele><time>2026-04-16T16:56:22.763Z</time></trkpt><trkpt lat="43.1220314" lon="12.480443"><ele>230.2857142857143</ele><time>2026-04-16T16:56:27.764Z</time></trkpt><trkpt lat="43.1220725" lon="12.4805216"><ele>232.00000000000003</ele><time>2026-04-16T16:56:33.764Z</time></trkpt><trkpt lat="43.1221037" lon="12.4806002"><ele>232.00000000000003</ele><time>2026-04-16T16:56:38.764Z</time></trkpt><trkpt lat="43.1221361" lon="12.4806912"><ele>232.0</ele><time>2026-04-16T16:56:44.764Z</time></trkpt><trkpt lat="43.1221546" lon="12.4807763"><ele>232.00000000000003</ele><time>2026-04-16T16:56:49.764Z</time></trkpt><trkpt lat="43.1221768" lon="12.4808655"><ele>232.00000000000003</ele><time>2026-04-16T16:56:55.764Z</time></trkpt><trkpt lat="43.1221877" lon="12.4809537"><ele>232.0</ele><time>2026-04-16T16:57:00.763Z</time></trkpt><trkpt lat="43.1222044" lon="12.4810401"><ele>232.00000000000003</ele><time>2026-04-16T16:57:05.764Z</time></trkpt><trkpt lat="43.1222106" lon="12.4811292"><ele>232.00000000000003</ele><time>2026-04-16T16:57:10.764Z</time></trkpt><trkpt lat="43.1222226" lon="12.4812162"><ele>232.00000000000003</ele><time>2026-04-16T16:57:15.764Z</time></trkpt><trkpt lat="43.1222328" lon="12.4813032"><ele>232.0</ele><time>2026-04-16T16:57:19.764Z</time></trkpt><trkpt lat="43.1222473" lon="12.4813969"><ele>232.00000000000003</ele><time>2026-04-16T16:57:24.764Z</time></trkpt><trkpt lat="43.1222588" lon="12.4814848"><ele>232.00000000000003</ele><time>2026-04-16T16:57:28.764Z</time></trkpt><trkpt lat="43.1222745" lon="12.4815902"><ele>232.0</ele><time>2026-04-16T16:57:33.763Z</time></trkpt><trkpt lat="43.1222837" lon="12.4816757"><ele>232.00000000000003</ele><time>2026-04-16T16:57:37.764Z</time></trkpt><trkpt lat="43.1222985" lon="12.4817671"><ele>232.00000000000003</ele><time>2026-04-16T16:57:42.764Z</time></trkpt><trkpt lat="43.12232" lon="12.4818601"><ele>232.00000000000003</ele><time>2026-04-16T16:57:46.764Z</time></trkpt><trkpt lat="43.1223336" lon="12.4819534"><ele>232.0</ele><time>2026-04-16T16:57:51.764Z</time></trkpt><trkpt lat="43.1223529" lon="12.4820468"><ele>232.00000000000003</ele><time>2026-04-16T16:57:56.763Z</time></trkpt><trkpt lat="43.1223697" lon="12.4821481"><ele>232.00000000000003</ele><time>2026-04-16T16:58:01.763Z</time></trkpt><trkpt lat="43.1223798" lon="12.4822476"><ele>232.0</ele><time>2026-04-16T16:58:06.764Z</time></trkpt><trkpt lat="43.122402" lon="12.4823429"><ele>232.00000000000003</ele><time>2026-04-16T16:58:11.764Z</time></trkpt><trkpt lat="43.1224169" lon="12.4824358"><ele>232.00000000000003</ele><time>2026-04-16T16:58:16.763Z</time></trkpt><trkpt lat="43.1224332" lon="12.4825247"><ele>234.28571428571433</ele><time>2026-04-16T16:58:21.764Z</time></trkpt><trkpt lat="43.1224466" lon="12.4826184"><ele>236.57142857142858</ele><time>2026-04-16T16:58:26.772Z</time></trkpt><trkpt lat="43.1224576" lon="12.4827086"><ele>238.8571428571429</ele><time>2026-04-16T16:58:30.772Z</time></trkpt><trkpt lat="43.1224822" lon="12.482794"><ele>241.14285714285717</ele><time>2026-04-16T16:58:34.771Z</time></trkpt><trkpt lat="43.1225007" lon="12.4828778"><ele>243.42857142857144</ele><time>2026-04-16T16:58:38.772Z</time></trkpt><trkpt lat="43.1225335" lon="12.4829691"><ele>245.71428571428572</ele><time>2026-04-16T16:58:43.771Z</time></trkpt><trkpt lat="43.1225574" lon="12.4830635"><ele>248.0</ele><time>2026-04-16T16:58:48.772Z</time></trkpt><trkpt lat="43.1225848" lon="12.4831608"><ele>248.14285714285717</ele><time>2026-04-16T16:58:53.772Z</time></trkpt><trkpt lat="43.1226136" lon="12.4832507"><ele>248.2857142857143</ele><time>2026-04-16T16:58:58.772Z</time></trkpt><trkpt lat="43.122647" lon="12.4833319"><ele>248.42857142857144</ele><time>2026-04-16T16:59:03.771Z</time></trkpt><trkpt lat="43.1226746" lon="12.4834157"><ele>248.57142857142856</ele><time>2026-04-16T16:59:08.771Z</time></trkpt><trkpt lat="43.1227222" lon="12.4834928"><ele>248.7142857142857</ele><time>2026-04-16T16:59:13.772Z</time></trkpt><trkpt lat="43.1227634" lon="12.48357"><ele>248.85714285714283</ele><time>2026-04-16T16:59:18.772Z</time></trkpt><trkpt lat="43.1227981" lon="12.4836496"><ele>249.0</ele><time>2026-04-16T16:59:23.772Z</time></trkpt><trkpt lat="43.1228451" lon="12.4837187"><ele>248.42857142857142</ele><time>2026-04-16T16:59:28.771Z</time></trkpt><trkpt lat="43.1228916" lon="12.4837957"><ele>247.85714285714283</ele><time>2026-04-16T16:59:33.772Z</time></trkpt><trkpt lat="43.1229435" lon="12.4838751"><ele>247.28571428571428</ele><time>2026-04-16T16:59:38.771Z</time></trkpt><trkpt lat="43.1229969" lon="12.4839449"><ele>246.71428571428572</ele><time>2026-04-16T16:59:43.772Z</time></trkpt><trkpt lat="43.1230522" lon="12.4840185"><ele>246.14285714285714</ele><time>2026-04-16T16:59:48.771Z</time></trkpt><trkpt lat="43.1231014" lon="12.4840786"><ele>245.57142857142856</ele><time>2026-04-16T16:59:52.772Z</time></trkpt><trkpt lat="43.1231488" lon="12.4841629"><ele>245.0</ele><time>2026-04-16T16:59:57.771Z</time></trkpt><trkpt lat="43.1231926" lon="12.4842378"><ele>247.14285714285714</ele><time>2026-04-16T17:00:01.772Z</time></trkpt><trkpt lat="43.1232472" lon="12.484307"><ele>249.28571428571428</ele><time>2026-04-16T17:00:06.771Z</time></trkpt><trkpt lat="43.1233024" lon="12.4843828"><ele>251.42857142857144</ele><time>2026-04-16T17:00:11.772Z</time></trkpt><trkpt lat="43.1233507" lon="12.484446"><ele>253.57142857142858</ele><time>2026-04-16T17:00:15.772Z</time></trkpt><trkpt lat="43.1233956" lon="12.4845079"><ele>255.71428571428572</ele><time>2026-04-16T17:00:19.772Z</time></trkpt><trkpt lat="43.1234467" lon="12.4845902"><ele>257.8571428571429</ele><time>2026-04-16T17:00:24.772Z</time></trkpt><trkpt lat="43.1234887" lon="12.4846578"><ele>260.0</ele><time>2026-04-16T17:00:28.771Z</time></trkpt><trkpt lat="43.1235383" lon="12.4847326"><ele>260.00000000000006</ele><time>2026-04-16T17:00:33.772Z</time></trkpt><trkpt lat="43.1235865" lon="12.4848005"><ele>260.0</ele><time>2026-04-16T17:00:37.772Z</time></trkpt><trkpt lat="43.1236376" lon="12.4848686"><ele>260.0</ele><time>2026-04-16T17:00:41.772Z</time></trkpt><trkpt lat="43.1236916" lon="12.48495"><ele>260.0</ele><time>2026-04-16T17:00:46.771Z</time></trkpt><trkpt lat="43.1237375" lon="12.485024"><ele>260.0</ele><time>2026-04-16T17:00:50.771Z</time></trkpt><trkpt lat="43.1237926" lon="12.4851045"><ele>260.00000000000006</ele><time>2026-04-16T17:00:54.771Z</time></trkpt><trkpt lat="43.1238383" lon="12.4851754"><ele>260.0</ele><time>2026-04-16T17:00:58.772Z</time></trkpt><trkpt lat="43.1238918" lon="12.4852498"><ele>260.00000000000006</ele><time>2026-04-16T17:01:02.772Z</time></trkpt><trkpt lat="43.1239364" lon="12.4853225"><ele>260.0</ele><time>2026-04-16T17:01:05.771Z</time></trkpt><trkpt lat="43.123983" lon="12.485396"><ele>260.0</ele><time>2026-04-16T17:01:08.771Z</time></trkpt><trkpt lat="43.1240362" lon="12.485453"><ele>260.0</ele><time>2026-04-16T17:01:11.771Z</time></trkpt><trkpt lat="43.1240848" lon="12.4855334"><ele>260.0</ele><time>2026-04-16T17:01:14.771Z</time></trkpt><trkpt lat="43.1241435" lon="12.4856136"><ele>260.00000000000006</ele><time>2026-04-16T17:01:18.771Z</time></trkpt><trkpt lat="43.1241877" lon="12.4856882"><ele>260.0</ele><time>2026-04-16T17:01:21.771Z</time></trkpt><trkpt lat="43.124248" lon="12.4857659"><ele>261.1666666666667</ele><time>2026-04-16T17:01:25.772Z</time></trkpt><trkpt lat="43.1243063" lon="12.4858446"><ele>262.33333333333337</ele><time>2026-04-16T17:01:29.772Z</time></trkpt><trkpt lat="43.1243619" lon="12.4859201"><ele>263.5</ele><time>2026-04-16T17:01:33.771Z</time></trkpt><trkpt lat="43.1244124" lon="12.4860053"><ele>264.6666666666667</ele><time>2026-04-16T17:01:37.772Z</time></trkpt><trkpt lat="43.1244661" lon="12.4860686"><ele>265.8333333333333</ele><time>2026-04-16T17:01:40.772Z</time></trkpt><trkpt lat="43.1245259" lon="12.4861446"><ele>267.0</ele><time>2026-04-16T17:01:44.771Z</time></trkpt><trkpt lat="43.1245816" lon="12.4862254"><ele>268.0</ele><time>2026-04-16T17:01:48.772Z</time></trkpt><trkpt lat="43.1246378" lon="12.486301"><ele>269.0</ele><time>2026-04-16T17:01:52.772Z</time></trkpt><trkpt lat="43.1246866" lon="12.4863896"><ele>270.0</ele><time>2026-04-16T17:01:56.771Z</time></trkpt><trkpt lat="43.1247376" lon="12.4864618"><ele>271.0</ele><time>2026-04-16T17:02:00.771Z</time></trkpt><trkpt lat="43.1247889" lon="12.4865357"><ele>272.0</ele><time>2026-04-16T17:02:04.772Z</time></trkpt><trkpt lat="43.1248398" lon="12.4866114"><ele>273.0</ele><time>2026-04-16T17:02:08.772Z</time></trkpt><trkpt lat="43.1248971" lon="12.4866687"><ele>273.0</ele><time>2026-04-16T17:02:12.772Z</time></trkpt><trkpt lat="43.1249551" lon="12.4867258"><ele>273.0</ele><time>2026-04-16T17:02:16.772Z</time></trkpt><trkpt lat="43.1250187" lon="12.486775"><ele>273.0</ele><time>2026-04-16T17:02:20.772Z</time></trkpt><trkpt lat="43.1250737" lon="12.4868177"><ele>273.0</ele><time>2026-04-16T17:02:23.772Z</time></trkpt><trkpt lat="43.1251337" lon="12.4868636"><ele>273.0</ele><time>2026-04-16T17:02:27.772Z</time></trkpt><trkpt lat="43.1252047" lon="12.4868914"><ele>273.0</ele><time>2026-04-16T17:02:31.772Z</time></trkpt><trkpt lat="43.1252831" lon="12.4869266"><ele>273.0</ele><time>2026-04-16T17:02:35.772Z</time></trkpt><trkpt lat="43.1253465" lon="12.4869734"><ele>273.0</ele><time>2026-04-16T17:02:39.772Z</time></trkpt><trkpt lat="43.1254113" lon="12.4870169"><ele>273.0</ele><time>2026-04-16T17:02:43.772Z</time></trkpt><trkpt lat="43.1254775" lon="12.4870594"><ele>273.0</ele><time>2026-04-16T17:02:47.772Z</time></trkpt><trkpt lat="43.1255456" lon="12.4870896"><ele>273.0</ele><time>2026-04-16T17:02:51.772Z</time></trkpt><trkpt lat="43.1256035" lon="12.4871239"><ele>273.0</ele><time>2026-04-16T17:02:54.772Z</time></trkpt><trkpt lat="43.1256747" lon="12.4871576"><ele>273.0</ele><time>2026-04-16T17:02:58.772Z</time></trkpt><trkpt lat="43.1257518" lon="12.4871952"><ele>273.0</ele><time>2026-04-16T17:03:02.771Z</time></trkpt><trkpt lat="43.1258297" lon="12.487212"><ele>273.6666666666667</ele><time>2026-04-16T17:03:06.772Z</time></trkpt><trkpt lat="43.1259038" lon="12.4872059"><ele>274.3333333333333</ele><time>2026-04-16T17:03:10.772Z</time></trkpt><trkpt lat="43.1259847" lon="12.4872028"><ele>275.0</ele><time>2026-04-16T17:03:14.771Z</time></trkpt><trkpt lat="43.1260526" lon="12.4872234"><ele>275.66666666666663</ele><time>2026-04-16T17:03:18.771Z</time></trkpt><trkpt lat="43.126133" lon="12.4872212"><ele>276.3333333333333</ele><time>2026-04-16T17:03:22.772Z</time></trkpt><trkpt lat="43.1262122" lon="12.4872239"><ele>277.0</ele><time>2026-04-16T17:03:26.772Z</time></trkpt><trkpt lat="43.1262859" lon="12.4872314"><ele>277.0</ele><time>2026-04-16T17:03:30.771Z</time></trkpt><trkpt lat="43.1263672" lon="12.4872308"><ele>277.0</ele><time>2026-04-16T17:03:35.772Z</time></trkpt><trkpt lat="43.1264312" lon="12.4872607"><ele>277.0</ele><time>2026-04-16T17:03:38.771Z</time></trkpt><trkpt lat="43.1265054" lon="12.4873004"><ele>277.0</ele><time>2026-04-16T17:03:42.772Z</time></trkpt><trkpt lat="43.1265835" lon="12.4873295"><ele>277.0</ele><time>2026-04-16T17:03:46.772Z</time></trkpt><trkpt lat="43.1266386" lon="12.4873725"><ele>277.0</ele><time>2026-04-16T17:03:49.771Z</time></trkpt><trkpt lat="43.1267011" lon="12.487416"><ele>277.0</ele><time>2026-04-16T17:03:53.77Z</time></trkpt><trkpt lat="43.1267706" lon="12.4874779"><ele>278.42857142857144</ele><time>2026-04-16T17:03:57.772Z</time></trkpt><trkpt lat="43.1268259" lon="12.4875257"><ele>279.85714285714283</ele><time>2026-04-16T17:04:01.772Z</time></trkpt><trkpt lat="43.1268769" lon="12.4875949"><ele>281.2857142857143</ele><time>2026-04-16T17:04:06.771Z</time></trkpt><trkpt lat="43.1269222" lon="12.4876748"><ele>282.7142857142857</ele><time>2026-04-16T17:04:11.771Z</time></trkpt><trkpt lat="43.1269721" lon="12.4877421"><ele>284.1428571428571</ele><time>2026-04-16T17:04:16.771Z</time></trkpt><trkpt lat="43.1270174" lon="12.4878191"><ele>285.57142857142856</ele><time>2026-04-16T17:04:21.772Z</time></trkpt><trkpt lat="43.1270634" lon="12.4879044"><ele>287.0</ele><time>2026-04-16T17:04:26.772Z</time></trkpt><trkpt lat="43.1271068" lon="12.4879892"><ele>287.0</ele><time>2026-04-16T17:04:31.771Z</time></trkpt><trkpt lat="43.1271333" lon="12.4880845"><ele>287.0</ele><time>2026-04-16T17:04:36.771Z</time></trkpt><trkpt lat="43.1271709" lon="12.4881804"><ele>287.0</ele><time>2026-04-16T17:04:41.771Z</time></trkpt><trkpt lat="43.1271896" lon="12.4882664"><ele>287.0</ele><time>2026-04-16T17:04:46.772Z</time></trkpt><trkpt lat="43.1272107" lon="12.4883494"><ele>287.0</ele><time>2026-04-16T17:04:51.772Z</time></trkpt><trkpt lat="43.1272354" lon="12.4884447"><ele>287.0</ele><time>2026-04-16T17:04:56.772Z</time></trkpt><trkpt lat="43.127242" lon="12.4885342"><ele>287.0</ele><time>2026-04-16T17:05:01.772Z</time></trkpt><trkpt lat="43.1272244" lon="12.4886263"><ele>287.0</ele><time>2026-04-16T17:05:06.78Z</time></trkpt><trkpt lat="43.1271958" lon="12.4887144"><ele>287.0</ele><time>2026-04-16T17:05:11.78Z</time></trkpt><trkpt lat="43.1271596" lon="12.4888002"><ele>287.0</ele><time>2026-04-16T17:05:16.78Z</time></trkpt><trkpt lat="43.1271075" lon="12.4888641"><ele>287.0</ele><time>2026-04-16T17:05:21.779Z</time></trkpt><trkpt lat="43.1270396" lon="12.4888849"><ele>287.0</ele><time>2026-04-16T17:05:25.78Z</time></trkpt><trkpt lat="43.1269773" lon="12.488905"><ele>287.0</ele><time>2026-04-16T17:05:29.78Z</time></trkpt><trkpt lat="43.1269059" lon="12.4889379"><ele>287.0</ele><time>2026-04-16T17:05:35.779Z</time></trkpt><trkpt lat="43.1268321" lon="12.4889592"><ele>287.42857142857144</ele><time>2026-04-16T17:05:40.78Z</time></trkpt><trkpt lat="43.1267689" lon="12.4889813"><ele>287.8571428571429</ele><time>2026-04-16T17:05:44.78Z</time></trkpt><trkpt lat="43.1266957" lon="12.4890019"><ele>288.2857142857143</ele><time>2026-04-16T17:05:49.78Z</time></trkpt><trkpt lat="43.126621" lon="12.4890368"><ele>288.7142857142857</ele><time>2026-04-16T17:05:54.78Z</time></trkpt><trkpt lat="43.1265539" lon="12.4890524"><ele>289.14285714285717</ele><time>2026-04-16T17:05:58.78Z</time></trkpt><trkpt lat="43.1264883" lon="12.489085"><ele>289.57142857142856</ele><time>2026-04-16T17:06:02.78Z</time></trkpt><trkpt lat="43.1264247" lon="12.4891108"><ele>290.0</ele><time>2026-04-16T17:06:06.779Z</time></trkpt><trkpt lat="43.1263634" lon="12.4891387"><ele>290.0</ele><time>2026-04-16T17:06:11.78Z</time></trkpt><trkpt lat="43.1263047" lon="12.4891718"><ele>290.0</ele><time>2026-04-16T17:06:15.78Z</time></trkpt><trkpt lat="43.1262413" lon="12.4892177"><ele>290.0</ele><time>2026-04-16T17:06:19.779Z</time></trkpt><trkpt lat="43.1261886" lon="12.4892951"><ele>290.0</ele><time>2026-04-16T17:06:24.78Z</time></trkpt><trkpt lat="43.1261433" lon="12.4893661"><ele>290.0</ele><time>2026-04-16T17:06:28.78Z</time></trkpt><trkpt lat="43.1261027" lon="12.4894469"><ele>290.0</ele><time>2026-04-16T17:06:32.78Z</time></trkpt><trkpt lat="43.1260565" lon="12.4895368"><ele>290.0</ele><time>2026-04-16T17:06:35.78Z</time></trkpt><trkpt lat="43.1260076" lon="12.489645"><ele>291.33333333333337</ele><time>2026-04-16T17:06:38.78Z</time></trkpt><trkpt lat="43.1259793" lon="12.4897641"><ele>292.6666666666667</ele><time>2026-04-16T17:06:41.779Z</time></trkpt><trkpt lat="43.1259656" lon="12.4898827"><ele>294.0</ele><time>2026-04-16T17:06:44.779Z</time></trkpt><trkpt lat="43.1259588" lon="12.4900079"><ele>295.3333333333333</ele><time>2026-04-16T17:06:47.78Z</time></trkpt><trkpt lat="43.1259683" lon="12.4901034"><ele>296.66666666666663</ele><time>2026-04-16T17:06:49.78Z</time></trkpt><trkpt lat="43.1259995" lon="12.4902151"><ele>298.0</ele><time>2026-04-16T17:06:52.78Z</time></trkpt><trkpt lat="43.1260212" lon="12.490299"><ele>298.0</ele><time>2026-04-16T17:06:54.78Z</time></trkpt><trkpt lat="43.1260447" lon="12.4903819"><ele>298.0</ele><time>2026-04-16T17:06:56.78Z</time></trkpt><trkpt lat="43.1260758" lon="12.490463"><ele>298.0</ele><time>2026-04-16T17:06:58.78Z</time></trkpt><trkpt lat="43.1261272" lon="12.4905396"><ele>298.0</ele><time>2026-04-16T17:07:00.779Z</time></trkpt><trkpt lat="43.1261829" lon="12.4906247"><ele>298.0</ele><time>2026-04-16T17:07:02.78Z</time></trkpt><trkpt lat="43.1262506" lon="12.4906909"><ele>298.0</ele><time>2026-04-16T17:07:04.779Z</time></trkpt><trkpt lat="43.1263311" lon="12.4907647"><ele>298.0</ele><time>2026-04-16T17:07:06.779Z</time></trkpt><trkpt lat="43.1264136" lon="12.4908207"><ele>298.0</ele><time>2026-04-16T17:07:08.78Z</time></trkpt><trkpt lat="43.1265038" lon="12.4908812"><ele>298.0</ele><time>2026-04-16T17:07:10.78Z</time></trkpt><trkpt lat="43.1265948" lon="12.4909509"><ele>298.0</ele><time>2026-04-16T17:07:12.779Z</time></trkpt><trkpt lat="43.1266875" lon="12.4910191"><ele>298.0</ele><time>2026-04-16T17:07:14.779Z</time></trkpt><trkpt lat="43.126783" lon="12.4910713"><ele>298.0</ele><time>2026-04-16T17:07:16.78Z</time></trkpt><trkpt lat="43.1268792" lon="12.4911453"><ele>298.0</ele><time>2026-04-16T17:07:18.779Z</time></trkpt><trkpt lat="43.1269828" lon="12.4912192"><ele>298.0</ele><time>2026-04-16T17:07:20.78Z</time></trkpt><trkpt lat="43.127082" lon="12.4912873"><ele>298.0</ele><time>2026-04-16T17:07:22.779Z</time></trkpt><trkpt lat="43.1271808" lon="12.4913407"><ele>298.0</ele><time>2026-04-16T17:07:24.78Z</time></trkpt><trkpt lat="43.1272887" lon="12.4914107"><ele>296.8333333333333</ele><time>2026-04-16T17:07:26.78Z</time></trkpt><trkpt lat="43.1274028" lon="12.4914754"><ele>295.66666666666663</ele><time>2026-04-16T17:07:28.779Z</time></trkpt><trkpt lat="43.127464" lon="12.4915022"><ele>294.5</ele><time>2026-04-16T17:07:29.779Z</time></trkpt><trkpt lat="43.1275251" lon="12.491533"><ele>293.3333333333333</ele><time>2026-04-16T17:07:30.779Z</time></trkpt><trkpt lat="43.1275914" lon="12.4915852"><ele>292.1666666666667</ele><time>2026-04-16T17:07:31.78Z</time></trkpt><trkpt lat="43.1276564" lon="12.4916341"><ele>291.0</ele><time>2026-04-16T17:07:32.78Z</time></trkpt><trkpt lat="43.1277202" lon="12.4916838"><ele>291.0</ele><time>2026-04-16T17:07:33.78Z</time></trkpt><trkpt lat="43.1277841" lon="12.4917288"><ele>291.0</ele><time>2026-04-16T17:07:34.78Z</time></trkpt><trkpt lat="43.1278533" lon="12.4917717"><ele>291.0</ele><time>2026-04-16T17:07:35.779Z</time></trkpt><trkpt lat="43.1279232" lon="12.4918113"><ele>291.0</ele><time>2026-04-16T17:07:36.78Z</time></trkpt><trkpt lat="43.1279895" lon="12.4918593"><ele>291.0</ele><time>2026-04-16T17:07:37.779Z</time></trkpt><trkpt lat="43.1280595" lon="12.4919125"><ele>291.0</ele><time>2026-04-16T17:07:38.78Z</time></trkpt><trkpt lat="43.1281258" lon="12.4919595"><ele>291.0</ele><time>2026-04-16T17:07:39.78Z</time></trkpt><trkpt lat="43.1281916" lon="12.4920015"><ele>291.0</ele><time>2026-04-16T17:07:40.779Z</time></trkpt><trkpt lat="43.1282606" lon="12.4920359"><ele>291.0</ele><time>2026-04-16T17:07:41.78Z</time></trkpt><trkpt lat="43.1283272" lon="12.4920708"><ele>291.0</ele><time>2026-04-16T17:07:42.78Z</time></trkpt><trkpt lat="43.1283929" lon="12.4920907"><ele>291.0</ele><time>2026-04-16T17:07:43.779Z</time></trkpt><trkpt lat="43.1284618" lon="12.4921158"><ele>291.0</ele><time>2026-04-16T17:07:44.78Z</time></trkpt><trkpt lat="43.1285338" lon="12.4921385"><ele>291.0</ele><time>2026-04-16T17:07:45.78Z</time></trkpt><trkpt lat="43.128608" lon="12.4921583"><ele>289.5</ele><time>2026-04-16T17:07:46.779Z</time></trkpt><trkpt lat="43.1286827" lon="12.4921796"><ele>288.0</ele><time>2026-04-16T17:07:47.779Z</time></trkpt><trkpt lat="43.1287597" lon="12.4922065"><ele>286.5</ele><time>2026-04-16T17:07:48.779Z</time></trkpt><trkpt lat="43.1288383" lon="12.4922255"><ele>285.0</ele><time>2026-04-16T17:07:49.78Z</time></trkpt><trkpt lat="43.1289183" lon="12.4922532"><ele>283.5</ele><time>2026-04-16T17:07:50.779Z</time></trkpt><trkpt lat="43.1290002" lon="12.4922825"><ele>282.0</ele><time>2026-04-16T17:07:51.78Z</time></trkpt><trkpt lat="43.1290821" lon="12.4923099"><ele>282.0</ele><time>2026-04-16T17:07:52.78Z</time></trkpt><trkpt lat="43.1291687" lon="12.492339"><ele>282.0</ele><time>2026-04-16T17:07:53.78Z</time></trkpt><trkpt lat="43.1292585" lon="12.4923619"><ele>282.0</ele><time>2026-04-16T17:07:54.779Z</time></trkpt><trkpt lat="43.1293476" lon="12.4923913"><ele>282.0</ele><time>2026-04-16T17:07:55.78Z</time></trkpt><trkpt lat="43.1294381" lon="12.4924203"><ele>282.0</ele><time>2026-04-16T17:07:56.78Z</time></trkpt><trkpt lat="43.12953" lon="12.4924478"><ele>282.0</ele><time>2026-04-16T17:07:57.779Z</time></trkpt><trkpt lat="43.129622" lon="12.4924889"><ele>282.0</ele><time>2026-04-16T17:07:58.779Z</time></trkpt><trkpt lat="43.1297124" lon="12.4925375"><ele>282.0</ele><time>2026-04-16T17:07:59.78Z</time></trkpt><trkpt lat="43.1298026" lon="12.492594"><ele>282.0</ele><time>2026-04-16T17:08:00.78Z</time></trkpt><trkpt lat="43.129885" lon="12.4926573"><ele>282.0</ele><time>2026-04-16T17:08:01.78Z</time></trkpt><trkpt lat="43.1299692" lon="12.4927209"><ele>282.2</ele><time>2026-04-16T17:08:02.779Z</time></trkpt><trkpt lat="43.1300541" lon="12.4927859"><ele>282.4</ele><time>2026-04-16T17:08:03.779Z</time></trkpt><trkpt lat="43.1301349" lon="12.4928644"><ele>282.6</ele><time>2026-04-16T17:08:04.779Z</time></trkpt><trkpt lat="43.1302104" lon="12.4929457"><ele>282.8</ele><time>2026-04-16T17:08:05.78Z</time></trkpt><trkpt lat="43.1302837" lon="12.4930389"><ele>283.0</ele><time>2026-04-16T17:08:06.779Z</time></trkpt><trkpt lat="43.1303562" lon="12.4931279"><ele>281.2</ele><time>2026-04-16T17:08:07.78Z</time></trkpt><trkpt lat="43.1304267" lon="12.4932216"><ele>279.4</ele><time>2026-04-16T17:08:08.779Z</time></trkpt><trkpt lat="43.1304941" lon="12.493317"><ele>277.59999999999997</ele><time>2026-04-16T17:08:09.779Z</time></trkpt><trkpt lat="43.1305614" lon="12.4934104"><ele>275.8</ele><time>2026-04-16T17:08:10.78Z</time></trkpt><trkpt lat="43.1306218" lon="12.4935"><ele>274.0</ele><time>2026-04-16T17:08:11.78Z</time></trkpt><trkpt lat="43.1306741" lon="12.4935809"><ele>274.5</ele><time>2026-04-16T17:08:12.779Z</time></trkpt><trkpt lat="43.1307272" lon="12.4936568"><ele>275.0</ele><time>2026-04-16T17:08:13.78Z</time></trkpt><trkpt lat="43.1307783" lon="12.493729"><ele>275.5</ele><time>2026-04-16T17:08:14.78Z</time></trkpt><trkpt lat="43.1308242" lon="12.4938005"><ele>276.0</ele><time>2026-04-16T17:08:15.779Z</time></trkpt><trkpt lat="43.1308635" lon="12.4938691"><ele>276.5</ele><time>2026-04-16T17:08:16.78Z</time></trkpt><trkpt lat="43.1309378" lon="12.4939858"><ele>277.0</ele><time>2026-04-16T17:08:18.779Z</time></trkpt><trkpt lat="43.131008" lon="12.4940857"><ele>277.0</ele><time>2026-04-16T17:08:20.78Z</time></trkpt><trkpt lat="43.1310707" lon="12.4941811"><ele>277.0</ele><time>2026-04-16T17:08:22.779Z</time></trkpt><trkpt lat="43.1311268" lon="12.4942794"><ele>277.0</ele><time>2026-04-16T17:08:24.78Z</time></trkpt><trkpt lat="43.1311753" lon="12.4943633"><ele>277.0</ele><time>2026-04-16T17:08:26.78Z</time></trkpt><trkpt lat="43.1312308" lon="12.494433"><ele>277.0</ele><time>2026-04-16T17:08:28.78Z</time></trkpt><trkpt lat="43.1312756" lon="12.4945161"><ele>277.0</ele><time>2026-04-16T17:08:30.779Z</time></trkpt><trkpt lat="43.1313211" lon="12.4946012"><ele>276.7142857142857</ele><time>2026-04-16T17:08:32.78Z</time></trkpt><trkpt lat="43.1313577" lon="12.4946765"><ele>276.4285714285714</ele><time>2026-04-16T17:08:34.78Z</time></trkpt><trkpt lat="43.1313945" lon="12.4947498"><ele>276.1428571428571</ele><time>2026-04-16T17:08:36.78Z</time></trkpt><trkpt lat="43.1314355" lon="12.4948186"><ele>275.85714285714283</ele><time>2026-04-16T17:08:38.78Z</time></trkpt><trkpt lat="43.1314668" lon="12.4948963"><ele>275.57142857142856</ele><time>2026-04-16T17:08:40.78Z</time></trkpt><trkpt lat="43.1315106" lon="12.4950113"><ele>275.2857142857143</ele><time>2026-04-16T17:08:43.78Z</time></trkpt><trkpt lat="43.1315471" lon="12.49513"><ele>275.0</ele><time>2026-04-16T17:08:46.78Z</time></trkpt><trkpt lat="43.1315907" lon="12.4952334"><ele>276.0</ele><time>2026-04-16T17:08:49.779Z</time></trkpt><trkpt lat="43.131632" lon="12.4953467"><ele>277.0</ele><time>2026-04-16T17:08:52.779Z</time></trkpt><trkpt lat="43.1316666" lon="12.4954657"><ele>278.0</ele><time>2026-04-16T17:08:55.779Z</time></trkpt><trkpt lat="43.1316916" lon="12.4955453"><ele>279.0</ele><time>2026-04-16T17:08:57.78Z</time></trkpt><trkpt lat="43.1317199" lon="12.4956639"><ele>280.0</ele><time>2026-04-16T17:09:00.78Z</time></trkpt><trkpt lat="43.1317464" lon="12.4957813"><ele>281.0</ele><time>2026-04-16T17:09:03.78Z</time></trkpt><trkpt lat="43.1317729" lon="12.4958832"><ele>281.1666666666667</ele><time>2026-04-16T17:09:06.779Z</time></trkpt><trkpt lat="43.1318018" lon="12.4960035"><ele>281.33333333333337</ele><time>2026-04-16T17:09:09.779Z</time></trkpt><trkpt lat="43.1318286" lon="12.4961199"><ele>281.5</ele><time>2026-04-16T17:09:12.78Z</time></trkpt><trkpt lat="43.1318532" lon="12.4962003"><ele>281.6666666666667</ele><time>2026-04-16T17:09:14.779Z</time></trkpt><trkpt lat="43.131879" lon="12.4963219"><ele>281.8333333333333</ele><time>2026-04-16T17:09:17.78Z</time></trkpt><trkpt lat="43.1318982" lon="12.4964048"><ele>282.0</ele><time>2026-04-16T17:09:19.779Z</time></trkpt><trkpt lat="43.1319243" lon="12.4965205"><ele>282.5</ele><time>2026-04-16T17:09:22.78Z</time></trkpt><trkpt lat="43.131955" lon="12.4966286"><ele>283.0</ele><time>2026-04-16T17:09:25.78Z</time></trkpt><trkpt lat="43.1319801" lon="12.4967418"><ele>283.5</ele><time>2026-04-16T17:09:28.779Z</time></trkpt><trkpt lat="43.1320121" lon="12.4968576"><ele>284.0</ele><time>2026-04-16T17:09:31.779Z</time></trkpt><trkpt lat="43.1320398" lon="12.4969762"><ele>284.5</ele><time>2026-04-16T17:09:34.78Z</time></trkpt><trkpt lat="43.1320696" lon="12.4970932"><ele>285.0</ele><time>2026-04-16T17:09:37.779Z</time></trkpt><trkpt lat="43.1320978" lon="12.4972077"><ele>285.1666666666667</ele><time>2026-04-16T17:09:40.78Z</time></trkpt><trkpt lat="43.1321251" lon="12.4973188"><ele>285.3333333333333</ele><time>2026-04-16T17:09:43.779Z</time></trkpt><trkpt lat="43.1321544" lon="12.4974309"><ele>285.5</ele><time>2026-04-16T17:09:46.779Z</time></trkpt><trkpt lat="43.1321893" lon="12.4975418"><ele>285.66666666666663</ele><time>2026-04-16T17:09:49.78Z</time></trkpt><trkpt lat="43.1322086" lon="12.4976639"><ele>285.8333333333333</ele><time>2026-04-16T17:09:52.78Z</time></trkpt><trkpt lat="43.1322404" lon="12.4977777"><ele>286.0</ele><time>2026-04-16T17:09:55.779Z</time></trkpt><trkpt lat="43.1322729" lon="12.4978909"><ele>286.66666666666663</ele><time>2026-04-16T17:09:58.779Z</time></trkpt><trkpt lat="43.132321" lon="12.4980723"><ele>287.3333333333333</ele><time>2026-04-16T17:10:00.994Z</time></trkpt><trkpt lat="43.1323393" lon="12.4981722"><ele>288.0</ele><time>2026-04-16T17:10:03.994Z</time></trkpt><trkpt lat="43.1323648" lon="12.49828"><ele>288.6666666666667</ele><time>2026-04-16T17:10:07.994Z</time></trkpt><trkpt lat="43.1323839" lon="12.4983731"><ele>289.33333333333337</ele><time>2026-04-16T17:10:11.994Z</time></trkpt><trkpt lat="43.1324008" lon="12.4984605"><ele>290.0</ele><time>2026-04-16T17:10:14.994Z</time></trkpt><trkpt lat="43.132419" lon="12.4985478"><ele>290.33333333333337</ele><time>2026-04-16T17:10:17.994Z</time></trkpt><trkpt lat="43.1324414" lon="12.4986311"><ele>290.6666666666667</ele><time>2026-04-16T17:10:20.994Z</time></trkpt><trkpt lat="43.1324776" lon="12.4987345"><ele>291.0</ele><time>2026-04-16T17:10:23.994Z</time></trkpt><trkpt lat="43.1325071" lon="12.4988479"><ele>291.3333333333333</ele><time>2026-04-16T17:10:26.994Z</time></trkpt><trkpt lat="43.1325355" lon="12.4989272"><ele>291.66666666666663</ele><time>2026-04-16T17:10:28.994Z</time></trkpt><trkpt lat="43.132567" lon="12.4990444"><ele>292.0</ele><time>2026-04-16T17:10:31.994Z</time></trkpt><trkpt lat="43.1325916" lon="12.4991276"><ele>291.8333333333333</ele><time>2026-04-16T17:10:33.994Z</time></trkpt><trkpt lat="43.1326231" lon="12.4992547"><ele>291.66666666666663</ele><time>2026-04-16T17:10:36.994Z</time></trkpt><trkpt lat="43.1326456" lon="12.4993583"><ele>291.5</ele><time>2026-04-16T17:10:38.994Z</time></trkpt><trkpt lat="43.1326711" lon="12.4994559"><ele>291.3333333333333</ele><time>2026-04-16T17:10:40.994Z</time></trkpt><trkpt lat="43.1327043" lon="12.4995496"><ele>291.1666666666667</ele><time>2026-04-16T17:10:42.994Z</time></trkpt><trkpt lat="43.1327261" lon="12.4996569"><ele>291.0</ele><time>2026-04-16T17:10:44.994Z</time></trkpt><trkpt lat="43.1327468" lon="12.4997613"><ele>291.0</ele><time>2026-04-16T17:10:46.994Z</time></trkpt><trkpt lat="43.1327764" lon="12.4998608"><ele>291.0</ele><time>2026-04-16T17:10:48.993Z</time></trkpt><trkpt lat="43.1328071" lon="12.4999619"><ele>291.0</ele><time>2026-04-16T17:10:50.994Z</time></trkpt><trkpt lat="43.1328416" lon="12.5000545"><ele>291.0</ele><time>2026-04-16T17:10:52.994Z</time></trkpt><trkpt lat="43.1328636" lon="12.5001575"><ele>291.0</ele><time>2026-04-16T17:10:54.994Z</time></trkpt><trkpt lat="43.1328862" lon="12.5002609"><ele>291.0</ele><time>2026-04-16T17:10:56.994Z</time></trkpt><trkpt lat="43.1329094" lon="12.5003593"><ele>290.5</ele><time>2026-04-16T17:10:58.993Z</time></trkpt><trkpt lat="43.1329363" lon="12.5004551"><ele>290.0</ele><time>2026-04-16T17:11:00.994Z</time></trkpt><trkpt lat="43.1329645" lon="12.5005461"><ele>289.5</ele><time>2026-04-16T17:11:02.994Z</time></trkpt><trkpt lat="43.1329842" lon="12.5006407"><ele>289.0</ele><time>2026-04-16T17:11:04.994Z</time></trkpt><trkpt lat="43.1330093" lon="12.500741"><ele>288.5</ele><time>2026-04-16T17:11:06.993Z</time></trkpt><trkpt lat="43.1330363" lon="12.5008388"><ele>288.0</ele><time>2026-04-16T17:11:08.994Z</time></trkpt><trkpt lat="43.1330648" lon="12.5009398"><ele>288.0</ele><time>2026-04-16T17:11:10.994Z</time></trkpt><trkpt lat="43.133089" lon="12.5010446"><ele>288.0</ele><time>2026-04-16T17:11:12.994Z</time></trkpt><trkpt lat="43.1331193" lon="12.5011471"><ele>288.0</ele><time>2026-04-16T17:11:14.994Z</time></trkpt><trkpt lat="43.1331519" lon="12.5012454"><ele>288.0</ele><time>2026-04-16T17:11:16.994Z</time></trkpt><trkpt lat="43.1331818" lon="12.5013487"><ele>288.0</ele><time>2026-04-16T17:11:18.994Z</time></trkpt><trkpt lat="43.1332021" lon="12.5014509"><ele>288.0</ele><time>2026-04-16T17:11:20.994Z</time></trkpt><trkpt lat="43.1332307" lon="12.5015543"><ele>288.8571428571429</ele><time>2026-04-16T17:11:22.994Z</time></trkpt><trkpt lat="43.1332556" lon="12.5016482"><ele>289.7142857142857</ele><time>2026-04-16T17:11:24.994Z</time></trkpt><trkpt lat="43.1332836" lon="12.5017331"><ele>290.57142857142856</ele><time>2026-04-16T17:11:26.994Z</time></trkpt><trkpt lat="43.1333101" lon="12.5018274"><ele>291.42857142857144</ele><time>2026-04-16T17:11:28.994Z</time></trkpt><trkpt lat="43.1333291" lon="12.5019201"><ele>292.2857142857143</ele><time>2026-04-16T17:11:30.994Z</time></trkpt><trkpt lat="43.1333517" lon="12.5020134"><ele>293.14285714285717</ele><time>2026-04-16T17:11:32.994Z</time></trkpt><trkpt lat="43.1333694" lon="12.5021062"><ele>294.0</ele><time>2026-04-16T17:11:34.994Z</time></trkpt><trkpt lat="43.1333858" lon="12.5021976"><ele>294.0</ele><time>2026-04-16T17:11:36.994Z</time></trkpt><trkpt lat="43.1334044" lon="12.5022961"><ele>294.0</ele><time>2026-04-16T17:11:38.994Z</time></trkpt><trkpt lat="43.133421" lon="12.5023951"><ele>294.0</ele><time>2026-04-16T17:11:40.994Z</time></trkpt><trkpt lat="43.133437" lon="12.5024812"><ele>294.0</ele><time>2026-04-16T17:11:42.994Z</time></trkpt><trkpt lat="43.133453" lon="12.5025683"><ele>294.0</ele><time>2026-04-16T17:11:45.002Z</time></trkpt><trkpt lat="43.1334717" lon="12.5026628"><ele>294.0</ele><time>2026-04-16T17:11:47.002Z</time></trkpt><trkpt lat="43.1334842" lon="12.5027496"><ele>294.0</ele><time>2026-04-16T17:11:49.001Z</time></trkpt><trkpt lat="43.1335013" lon="12.5028333"><ele>294.5</ele><time>2026-04-16T17:11:51.002Z</time></trkpt><trkpt lat="43.1335164" lon="12.5029227"><ele>295.0</ele><time>2026-04-16T17:11:53.002Z</time></trkpt><trkpt lat="43.1335282" lon="12.5030111"><ele>295.5</ele><time>2026-04-16T17:11:55.002Z</time></trkpt><trkpt lat="43.1335414" lon="12.5031023"><ele>296.0</ele><time>2026-04-16T17:11:57.002Z</time></trkpt><trkpt lat="43.1335473" lon="12.5031933"><ele>296.5</ele><time>2026-04-16T17:11:59.002Z</time></trkpt><trkpt lat="43.1335531" lon="12.5033182"><ele>297.0</ele><time>2026-04-16T17:12:02.002Z</time></trkpt><trkpt lat="43.1335517" lon="12.5034475"><ele>297.0</ele><time>2026-04-16T17:12:05.002Z</time></trkpt><trkpt lat="43.1335543" lon="12.5035408"><ele>297.0</ele><time>2026-04-16T17:12:07.002Z</time></trkpt><trkpt lat="43.1335489" lon="12.5036332"><ele>297.0</ele><time>2026-04-16T17:12:09.002Z</time></trkpt><trkpt lat="43.1335417" lon="12.5037234"><ele>297.0</ele><time>2026-04-16T17:12:11.002Z</time></trkpt><trkpt lat="43.1335297" lon="12.5038144"><ele>297.0</ele><time>2026-04-16T17:12:13.002Z</time></trkpt><trkpt lat="43.1335181" lon="12.5039128"><ele>297.0</ele><time>2026-04-16T17:12:15.002Z</time></trkpt><trkpt lat="43.1335027" lon="12.5040114"><ele>297.0</ele><time>2026-04-16T17:12:17.002Z</time></trkpt><trkpt lat="43.1334817" lon="12.5041123"><ele>297.2857142857143</ele><time>2026-04-16T17:12:19.002Z</time></trkpt><trkpt lat="43.1334621" lon="12.5042101"><ele>297.5714285714286</ele><time>2026-04-16T17:12:21.002Z</time></trkpt><trkpt lat="43.1334383" lon="12.5042946"><ele>297.8571428571429</ele><time>2026-04-16T17:12:23.002Z</time></trkpt><trkpt lat="43.1334035" lon="12.5043853"><ele>298.14285714285717</ele><time>2026-04-16T17:12:25.002Z</time></trkpt><trkpt lat="43.1333639" lon="12.5044701"><ele>298.42857142857144</ele><time>2026-04-16T17:12:27.001Z</time></trkpt><trkpt lat="43.1333204" lon="12.5045448"><ele>298.7142857142857</ele><time>2026-04-16T17:12:29.002Z</time></trkpt><trkpt lat="43.1332706" lon="12.5046175"><ele>299.0</ele><time>2026-04-16T17:12:31.002Z</time></trkpt><trkpt lat="43.1332106" lon="12.5046891"><ele>299.0</ele><time>2026-04-16T17:12:33.002Z</time></trkpt><trkpt lat="43.1331437" lon="12.5047544"><ele>299.0</ele><time>2026-04-16T17:12:35.002Z</time></trkpt><trkpt lat="43.1330833" lon="12.5048154"><ele>299.0</ele><time>2026-04-16T17:12:37.002Z</time></trkpt><trkpt lat="43.1330056" lon="12.5048691"><ele>299.0</ele><time>2026-04-16T17:12:39.002Z</time></trkpt><trkpt lat="43.1329295" lon="12.5049221"><ele>299.0</ele><time>2026-04-16T17:12:41.002Z</time></trkpt><trkpt lat="43.1328654" lon="12.5049825"><ele>299.0</ele><time>2026-04-16T17:12:43.002Z</time></trkpt><trkpt lat="43.1327942" lon="12.5050301"><ele>299.0</ele><time>2026-04-16T17:12:45.002Z</time></trkpt><trkpt lat="43.1327229" lon="12.5050664"><ele>299.0</ele><time>2026-04-16T17:12:47.002Z</time></trkpt><trkpt lat="43.1326442" lon="12.5050991"><ele>299.0</ele><time>2026-04-16T17:12:49.002Z</time></trkpt><trkpt lat="43.1325649" lon="12.5051451"><ele>299.0</ele><time>2026-04-16T17:12:51.001Z</time></trkpt><trkpt lat="43.1324857" lon="12.505187"><ele>299.0</ele><time>2026-04-16T17:12:53.002Z</time></trkpt><trkpt lat="43.1324152" lon="12.5052238"><ele>299.0</ele><time>2026-04-16T17:12:55.002Z</time></trkpt><trkpt lat="43.132349" lon="12.5052654"><ele>299.0</ele><time>2026-04-16T17:12:57.002Z</time></trkpt><trkpt lat="43.1322816" lon="12.5052891"><ele>299.0</ele><time>2026-04-16T17:12:59.002Z</time></trkpt><trkpt lat="43.1322145" lon="12.5053117"><ele>299.0</ele><time>2026-04-16T17:13:01.002Z</time></trkpt><trkpt lat="43.1321508" lon="12.5053446"><ele>299.0</ele><time>2026-04-16T17:13:03.002Z</time></trkpt><trkpt lat="43.1320712" lon="12.5053881"><ele>299.0</ele><time>2026-04-16T17:13:05.002Z</time></trkpt><trkpt lat="43.1319975" lon="12.5054429"><ele>299.0</ele><time>2026-04-16T17:13:07.002Z</time></trkpt><trkpt lat="43.1319285" lon="12.5055021"><ele>299.0</ele><time>2026-04-16T17:13:09.002Z</time></trkpt><trkpt lat="43.131872" lon="12.5055737"><ele>299.0</ele><time>2026-04-16T17:13:11.002Z</time></trkpt><trkpt lat="43.1318268" lon="12.5056621"><ele>299.0</ele><time>2026-04-16T17:13:13.002Z</time></trkpt><trkpt lat="43.1317776" lon="12.505745"><ele>299.0</ele><time>2026-04-16T17:13:15.002Z</time></trkpt><trkpt lat="43.1317469" lon="12.5058289"><ele>299.0</ele><time>2026-04-16T17:13:17.002Z</time></trkpt><trkpt lat="43.1317153" lon="12.5059208"><ele>299.0</ele><time>2026-04-16T17:13:19.002Z</time></trkpt><trkpt lat="43.1316855" lon="12.5060284"><ele>299.0</ele><time>2026-04-16T17:13:21.002Z</time></trkpt><trkpt lat="43.1316587" lon="12.5061315"><ele>299.0</ele><time>2026-04-16T17:13:23.002Z</time></trkpt><trkpt lat="43.1316298" lon="12.5062324"><ele>299.0</ele><time>2026-04-16T17:13:25.002Z</time></trkpt><trkpt lat="43.1316011" lon="12.5063315"><ele>299.0</ele><time>2026-04-16T17:13:27.002Z</time></trkpt><trkpt lat="43.1315801" lon="12.5064345"><ele>299.0</ele><time>2026-04-16T17:13:29.002Z</time></trkpt><trkpt lat="43.1315509" lon="12.5065365"><ele>299.0</ele><time>2026-04-16T17:13:31.002Z</time></trkpt><trkpt lat="43.1315267" lon="12.5066448"><ele>297.33333333333337</ele><time>2026-04-16T17:13:33.002Z</time></trkpt><trkpt lat="43.1314962" lon="12.5067474"><ele>295.6666666666667</ele><time>2026-04-16T17:13:35.002Z</time></trkpt><trkpt lat="43.1314652" lon="12.5068542"><ele>294.0</ele><time>2026-04-16T17:13:37.002Z</time></trkpt><trkpt lat="43.1314342" lon="12.5069567"><ele>292.3333333333333</ele><time>2026-04-16T17:13:39.002Z</time></trkpt><trkpt lat="43.1314035" lon="12.5070663"><ele>290.66666666666663</ele><time>2026-04-16T17:13:41.002Z</time></trkpt><trkpt lat="43.1313634" lon="12.5071782"><ele>289.0</ele><time>2026-04-16T17:13:43.002Z</time></trkpt><trkpt lat="43.131329" lon="12.5072955"><ele>289.0</ele><time>2026-04-16T17:13:45.002Z</time></trkpt><trkpt lat="43.1312909" lon="12.5074286"><ele>289.0</ele><time>2026-04-16T17:13:47.002Z</time></trkpt><trkpt lat="43.1312547" lon="12.5075681"><ele>289.0</ele><time>2026-04-16T17:13:49.002Z</time></trkpt><trkpt lat="43.1312155" lon="12.507704"><ele>289.0</ele><time>2026-04-16T17:13:51.002Z</time></trkpt><trkpt lat="43.1311745" lon="12.5078334"><ele>289.0</ele><time>2026-04-16T17:13:53.002Z</time></trkpt><trkpt lat="43.1311383" lon="12.5079729"><ele>290.0</ele><time>2026-04-16T17:13:55.002Z</time></trkpt><trkpt lat="43.1310939" lon="12.5081178"><ele>291.0</ele><time>2026-04-16T17:13:57.002Z</time></trkpt><trkpt lat="43.1310549" lon="12.5082605"><ele>292.0</ele><time>2026-04-16T17:13:59.002Z</time></trkpt><trkpt lat="43.1310211" lon="12.5084045"><ele>293.0</ele><time>2026-04-16T17:14:01.002Z</time></trkpt><trkpt lat="43.1309958" lon="12.5085501"><ele>294.0</ele><time>2026-04-16T17:14:03.002Z</time></trkpt><trkpt lat="43.1309657" lon="12.5086988"><ele>294.8</ele><time>2026-04-16T17:14:05.002Z</time></trkpt><trkpt lat="43.1309466" lon="12.5088509"><ele>295.59999999999997</ele><time>2026-04-16T17:14:07.002Z</time></trkpt><trkpt lat="43.1309287" lon="12.5089961"><ele>296.4</ele><time>2026-04-16T17:14:09.002Z</time></trkpt><trkpt lat="43.1309183" lon="12.509144"><ele>297.2</ele><time>2026-04-16T17:14:11.002Z</time></trkpt><trkpt lat="43.1309092" lon="12.5092988"><ele>298.0</ele><time>2026-04-16T17:14:13.002Z</time></trkpt><trkpt lat="43.1309006" lon="12.5094562"><ele>298.25</ele><time>2026-04-16T17:14:15.002Z</time></trkpt><trkpt lat="43.1308874" lon="12.5096108"><ele>298.5</ele><time>2026-04-16T17:14:17.002Z</time></trkpt><trkpt lat="43.1308687" lon="12.5097664"><ele>298.75</ele><time>2026-04-16T17:14:19.002Z</time></trkpt><trkpt lat="43.130843" lon="12.5099231"><ele>299.0</ele><time>2026-04-16T17:14:21.002Z</time></trkpt><trkpt lat="43.1308076" lon="12.5100736"><ele>299.0</ele><time>2026-04-16T17:14:23.002Z</time></trkpt><trkpt lat="43.130774" lon="12.5102273"><ele>299.0</ele><time>2026-04-16T17:14:25.002Z</time></trkpt><trkpt lat="43.1307454" lon="12.5103812"><ele>299.0</ele><time>2026-04-16T17:14:27.002Z</time></trkpt><trkpt lat="43.1307187" lon="12.5105309"><ele>299.0</ele><time>2026-04-16T17:14:29.002Z</time></trkpt><trkpt lat="43.1306853" lon="12.5106724"><ele>298.8</ele><time>2026-04-16T17:14:31.002Z</time></trkpt><trkpt lat="43.1306525" lon="12.5108145"><ele>298.59999999999997</ele><time>2026-04-16T17:14:33.002Z</time></trkpt><trkpt lat="43.1306254" lon="12.5109587"><ele>298.4</ele><time>2026-04-16T17:14:35.002Z</time></trkpt><trkpt lat="43.1305856" lon="12.5110941"><ele>298.2</ele><time>2026-04-16T17:14:37.002Z</time></trkpt><trkpt lat="43.130535" lon="12.5112485"><ele>298.0</ele><time>2026-04-16T17:14:39.002Z</time></trkpt><trkpt lat="43.1305092" lon="12.5113304"><ele>298.0</ele><time>2026-04-16T17:14:40.002Z</time></trkpt><trkpt lat="43.1304524" lon="12.5114696"><ele>298.0</ele><time>2026-04-16T17:14:42.002Z</time></trkpt><trkpt lat="43.1303946" lon="12.5116172"><ele>298.0</ele><time>2026-04-16T17:14:44.002Z</time></trkpt><trkpt lat="43.1303425" lon="12.5117587"><ele>298.0</ele><time>2026-04-16T17:14:46.002Z</time></trkpt><trkpt lat="43.13029" lon="12.5118923"><ele>298.0</ele><time>2026-04-16T17:14:48.002Z</time></trkpt><trkpt lat="43.1302355" lon="12.5120177"><ele>298.0</ele><time>2026-04-16T17:14:50.002Z</time></trkpt><trkpt lat="43.1301839" lon="12.5121341"><ele>298.0</ele><time>2026-04-16T17:14:52.002Z</time></trkpt><trkpt lat="43.1301357" lon="12.512259"><ele>298.0</ele><time>2026-04-16T17:14:54.002Z</time></trkpt><trkpt lat="43.1300816" lon="12.5123704"><ele>298.0</ele><time>2026-04-16T17:14:56.002Z</time></trkpt><trkpt lat="43.1300292" lon="12.5124782"><ele>297.8333333333333</ele><time>2026-04-16T17:14:58.002Z</time></trkpt><trkpt lat="43.1299728" lon="12.5125829"><ele>297.66666666666663</ele><time>2026-04-16T17:15:00.002Z</time></trkpt><trkpt lat="43.1299174" lon="12.5126958"><ele>297.5</ele><time>2026-04-16T17:15:02.002Z</time></trkpt><trkpt lat="43.1298638" lon="12.5127963"><ele>297.3333333333333</ele><time>2026-04-16T17:15:04.002Z</time></trkpt><trkpt lat="43.1298209" lon="12.5128854"><ele>297.1666666666667</ele><time>2026-04-16T17:15:06.002Z</time></trkpt><trkpt lat="43.1297594" lon="12.5129406"><ele>297.0</ele><time>2026-04-16T17:15:08.002Z</time></trkpt><trkpt lat="43.1296689" lon="12.5129586"><ele>297.0</ele><time>2026-04-16T17:15:10.002Z</time></trkpt><trkpt lat="43.1295911" lon="12.5129296"><ele>297.0</ele><time>2026-04-16T17:15:12.002Z</time></trkpt><trkpt lat="43.1295272" lon="12.5128855"><ele>297.0</ele><time>2026-04-16T17:15:14.002Z</time></trkpt><trkpt lat="43.1294622" lon="12.5128331"><ele>297.0</ele><time>2026-04-16T17:15:16.002Z</time></trkpt><trkpt lat="43.1293894" lon="12.5128179"><ele>297.0</ele><time>2026-04-16T17:15:18.002Z</time></trkpt><trkpt lat="43.1293188" lon="12.5127962"><ele>297.0</ele><time>2026-04-16T17:15:20.002Z</time></trkpt><trkpt lat="43.1292563" lon="12.5127584"><ele>297.0</ele><time>2026-04-16T17:15:22.002Z</time></trkpt><trkpt lat="43.1291955" lon="12.512732"><ele>297.0</ele><time>2026-04-16T17:15:24.002Z</time></trkpt><trkpt lat="43.1291163" lon="12.5126746"><ele>297.0</ele><time>2026-04-16T17:15:27.002Z</time></trkpt><trkpt lat="43.1290457" lon="12.5125998"><ele>297.0</ele><time>2026-04-16T17:15:30.002Z</time></trkpt><trkpt lat="43.1290031" lon="12.5125025"><ele>297.0</ele><time>2026-04-16T17:15:33.002Z</time></trkpt><trkpt lat="43.1289729" lon="12.5123833"><ele>297.0</ele><time>2026-04-16T17:15:36.002Z</time></trkpt><trkpt lat="43.128944" lon="12.512303"><ele>297.0</ele><time>2026-04-16T17:15:38.002Z</time></trkpt><trkpt lat="43.1289251" lon="12.5122033"><ele>297.0</ele><time>2026-04-16T17:15:40.002Z</time></trkpt><trkpt lat="43.1289021" lon="12.5121177"><ele>297.0</ele><time>2026-04-16T17:15:42.002Z</time></trkpt><trkpt lat="43.128878" lon="12.5120178"><ele>297.0</ele><time>2026-04-16T17:15:45.002Z</time></trkpt><trkpt lat="43.1288612" lon="12.5119316"><ele>297.0</ele><time>2026-04-16T17:15:48.002Z</time></trkpt><trkpt lat="43.1288393" lon="12.5118441"><ele>297.0</ele><time>2026-04-16T17:15:51.002Z</time></trkpt><trkpt lat="43.128815" lon="12.5117499"><ele>297.0</ele><time>2026-04-16T17:15:54.002Z</time></trkpt><trkpt lat="43.1287923" lon="12.5116493"><ele>297.0</ele><time>2026-04-16T17:15:57.002Z</time></trkpt><trkpt lat="43.1287703" lon="12.5115499"><ele>298.1666666666667</ele><time>2026-04-16T17:16:00.002Z</time></trkpt><trkpt lat="43.1287462" lon="12.5114431"><ele>299.3333333333333</ele><time>2026-04-16T17:16:03.002Z</time></trkpt><trkpt lat="43.1287257" lon="12.5113406"><ele>300.5</ele><time>2026-04-16T17:16:06.002Z</time></trkpt><trkpt lat="43.128698" lon="12.511243"><ele>301.66666666666663</ele><time>2026-04-16T17:16:09.002Z</time></trkpt><trkpt lat="43.1286763" lon="12.5111396"><ele>302.8333333333333</ele><time>2026-04-16T17:16:12.002Z</time></trkpt><trkpt lat="43.1286393" lon="12.5110437"><ele>304.0</ele><time>2026-04-16T17:16:15.002Z</time></trkpt><trkpt lat="43.1286106" lon="12.5109647"><ele>304.59999999999997</ele><time>2026-04-16T17:16:17.002Z</time></trkpt><trkpt lat="43.1285709" lon="12.510852"><ele>305.2</ele><time>2026-04-16T17:16:20.002Z</time></trkpt><trkpt lat="43.1285211" lon="12.5107428"><ele>305.79999999999995</ele><time>2026-04-16T17:16:23.002Z</time></trkpt><trkpt lat="43.1284812" lon="12.5106239"><ele>306.4</ele><time>2026-04-16T17:16:26.002Z</time></trkpt><trkpt lat="43.1284377" lon="12.5105168"><ele>307.0</ele><time>2026-04-16T17:16:29.002Z</time></trkpt><trkpt lat="43.1283953" lon="12.5104056"><ele>307.0</ele><time>2026-04-16T17:16:32.002Z</time></trkpt><trkpt lat="43.1283663" lon="12.5103268"><ele>307.0</ele><time>2026-04-16T17:16:34.002Z</time></trkpt><trkpt lat="43.1283289" lon="12.5102234"><ele>307.0</ele><time>2026-04-16T17:16:37.002Z</time></trkpt><trkpt lat="43.1282887" lon="12.5101195"><ele>307.0</ele><time>2026-04-16T17:16:40.002Z</time></trkpt><trkpt lat="43.128242" lon="12.5100055"><ele>307.0</ele><time>2026-04-16T17:16:43.002Z</time></trkpt><trkpt lat="43.1282048" lon="12.5098941"><ele>307.0</ele><time>2026-04-16T17:16:46.002Z</time></trkpt><trkpt lat="43.1281729" lon="12.5098184"><ele>307.16666666666663</ele><time>2026-04-16T17:16:48.002Z</time></trkpt><trkpt lat="43.1281412" lon="12.5097045"><ele>307.3333333333333</ele><time>2026-04-16T17:16:51.001Z</time></trkpt><trkpt lat="43.1281142" lon="12.5095875"><ele>307.5</ele><time>2026-04-16T17:16:54.002Z</time></trkpt><trkpt lat="43.1280753" lon="12.5094758"><ele>307.6666666666667</ele><time>2026-04-16T17:16:57.002Z</time></trkpt><trkpt lat="43.1280453" lon="12.5093937"><ele>307.83333333333337</ele><time>2026-04-16T17:16:59.002Z</time></trkpt><trkpt lat="43.1279914" lon="12.5092857"><ele>308.0</ele><time>2026-04-16T17:17:02.002Z</time></trkpt><trkpt lat="43.1279511" lon="12.5091728"><ele>308.83333333333337</ele><time>2026-04-16T17:17:05.002Z</time></trkpt><trkpt lat="43.1279108" lon="12.5090834"><ele>309.6666666666667</ele><time>2026-04-16T17:17:08.002Z</time></trkpt><trkpt lat="43.1278712" lon="12.5089838"><ele>310.5</ele><time>2026-04-16T17:17:11.002Z</time></trkpt><trkpt lat="43.1278509" lon="12.5088713"><ele>311.3333333333333</ele><time>2026-04-16T17:17:14.002Z</time></trkpt><trkpt lat="43.1278486" lon="12.5087448"><ele>312.16666666666663</ele><time>2026-04-16T17:17:17.002Z</time></trkpt><trkpt lat="43.1278619" lon="12.508631"><ele>313.0</ele><time>2026-04-16T17:17:20.001Z</time></trkpt><trkpt lat="43.1278709" lon="12.508534"><ele>313.0</ele><time>2026-04-16T17:17:22.002Z</time></trkpt><trkpt lat="43.1278605" lon="12.5084229"><ele>313.0</ele><time>2026-04-16T17:17:24.002Z</time></trkpt><trkpt lat="43.1278327" lon="12.508317"><ele>313.0</ele><time>2026-04-16T17:17:26.002Z</time></trkpt><trkpt lat="43.1277989" lon="12.5082371"><ele>313.0</ele><time>2026-04-16T17:17:28.002Z</time></trkpt><trkpt lat="43.1277446" lon="12.5081512"><ele>313.0</ele><time>2026-04-16T17:17:30.002Z</time></trkpt><trkpt lat="43.1276839" lon="12.5080851"><ele>313.0</ele><time>2026-04-16T17:17:32.002Z</time></trkpt><trkpt lat="43.1276152" lon="12.5080045"><ele>313.0</ele><time>2026-04-16T17:17:35.002Z</time></trkpt><trkpt lat="43.1275488" lon="12.507944"><ele>313.0</ele><time>2026-04-16T17:17:38.002Z</time></trkpt><trkpt lat="43.1274758" lon="12.507916"><ele>313.0</ele><time>2026-04-16T17:17:40.002Z</time></trkpt><trkpt lat="43.1273744" lon="12.5079053"><ele>313.0</ele><time>2026-04-16T17:17:42.002Z</time></trkpt><trkpt lat="43.1272644" lon="12.5079036"><ele>313.0</ele><time>2026-04-16T17:17:44.002Z</time></trkpt><trkpt lat="43.1271978" lon="12.5079119"><ele>313.0</ele><time>2026-04-16T17:17:45.002Z</time></trkpt><trkpt lat="43.127136" lon="12.507936"><ele>311.0</ele><time>2026-04-16T17:17:46.002Z</time></trkpt><trkpt lat="43.1270286" lon="12.5079661"><ele>309.0</ele><time>2026-04-16T17:17:48.002Z</time></trkpt><trkpt lat="43.126931" lon="12.5080406"><ele>307.0</ele><time>2026-04-16T17:17:50.002Z</time></trkpt><trkpt lat="43.1268723" lon="12.5080776"><ele>305.0</ele><time>2026-04-16T17:17:51.002Z</time></trkpt><trkpt lat="43.1267812" lon="12.5081947"><ele>303.0</ele><time>2026-04-16T17:17:53.002Z</time></trkpt><trkpt lat="43.1267047" lon="12.5083268"><ele>303.0</ele><time>2026-04-16T17:17:55.002Z</time></trkpt><trkpt lat="43.1266238" lon="12.508463"><ele>303.0</ele><time>2026-04-16T17:17:57.002Z</time></trkpt><trkpt lat="43.1265762" lon="12.5085348"><ele>303.0</ele><time>2026-04-16T17:17:58.002Z</time></trkpt><trkpt lat="43.1265309" lon="12.5086141"><ele>303.0</ele><time>2026-04-16T17:17:59.002Z</time></trkpt><trkpt lat="43.1264907" lon="12.5087059"><ele>303.0</ele><time>2026-04-16T17:18:00.002Z</time></trkpt><trkpt lat="43.1264489" lon="12.5087853"><ele>303.0</ele><time>2026-04-16T17:18:01.002Z</time></trkpt><trkpt lat="43.1263821" lon="12.5088971"><ele>300.6666666666667</ele><time>2026-04-16T17:18:03.002Z</time></trkpt><trkpt lat="43.1263033" lon="12.5089583"><ele>298.3333333333333</ele><time>2026-04-16T17:18:06.002Z</time></trkpt><trkpt lat="43.1262152" lon="12.5089309"><ele>296.0</ele><time>2026-04-16T17:18:08.002Z</time></trkpt><trkpt lat="43.12614" lon="12.5088532"><ele>293.66666666666663</ele><time>2026-04-16T17:18:10.002Z</time></trkpt><trkpt lat="43.1260901" lon="12.5087497"><ele>291.3333333333333</ele><time>2026-04-16T17:18:12.002Z</time></trkpt><trkpt lat="43.1260625" lon="12.5086591"><ele>289.0</ele><time>2026-04-16T17:18:14.002Z</time></trkpt><trkpt lat="43.126046" lon="12.5085508"><ele>289.0</ele><time>2026-04-16T17:18:17.002Z</time></trkpt><trkpt lat="43.1260342" lon="12.5084335"><ele>289.0</ele><time>2026-04-16T17:18:20.002Z</time></trkpt><trkpt lat="43.1260141" lon="12.508524"><ele>289.0</ele><time>2026-04-16T17:18:24.008Z</time></trkpt><trkpt lat="43.1260436" lon="12.5086335"><ele>289.0</ele><time>2026-04-16T17:18:27.009Z</time></trkpt><trkpt lat="43.1260525" lon="12.508729"><ele>289.0</ele><time>2026-04-16T17:18:31.009Z</time></trkpt><trkpt lat="43.1259613" lon="12.5087661"><ele>289.0</ele><time>2026-04-16T17:18:34.009Z</time></trkpt><trkpt lat="43.1258939" lon="12.5087847"><ele>289.0</ele><time>2026-04-16T17:18:36.009Z</time></trkpt><trkpt lat="43.1258215" lon="12.5088143"><ele>289.0</ele><time>2026-04-16T17:18:40.009Z</time></trkpt><trkpt lat="43.1257575" lon="12.5087906"><ele>289.0</ele><time>2026-04-16T17:18:44.009Z</time></trkpt><trkpt lat="43.1258049" lon="12.5088604"><ele>289.0</ele><time>2026-04-16T17:19:17.009Z</time></trkpt><trkpt lat="43.1258705" lon="12.5087947"><ele>289.0</ele><time>2026-04-16T17:19:22.009Z</time></trkpt><trkpt lat="43.1259382" lon="12.5087454"><ele>289.0</ele><time>2026-04-16T17:19:26.009Z</time></trkpt><trkpt lat="43.1260116" lon="12.5087149"><ele>289.0</ele><time>2026-04-16T17:19:29.009Z</time></trkpt><trkpt lat="43.1260571" lon="12.5086311"><ele>288.8</ele><time>2026-04-16T17:19:33.009Z</time></trkpt><trkpt lat="43.1260309" lon="12.5084923"><ele>288.59999999999997</ele><time>2026-04-16T17:19:36.009Z</time></trkpt><trkpt lat="43.1260156" lon="12.5083684"><ele>288.4</ele><time>2026-04-16T17:19:38.009Z</time></trkpt><trkpt lat="43.1259965" lon="12.50821"><ele>288.2</ele><time>2026-04-16T17:19:40.009Z</time></trkpt><trkpt lat="43.1259686" lon="12.508047"><ele>288.0</ele><time>2026-04-16T17:19:42.009Z</time></trkpt><trkpt lat="43.1259479" lon="12.5079531"><ele>287.2</ele><time>2026-04-16T17:19:43.009Z</time></trkpt><trkpt lat="43.1259241" lon="12.507797"><ele>286.4</ele><time>2026-04-16T17:19:45.009Z</time></trkpt><trkpt lat="43.1258853" lon="12.5077145"><ele>285.59999999999997</ele><time>2026-04-16T17:19:47.009Z</time></trkpt><trkpt lat="43.1258129" lon="12.5076834"><ele>284.8</ele><time>2026-04-16T17:19:50.009Z</time></trkpt><trkpt lat="43.1257158" lon="12.507725"><ele>284.0</ele><time>2026-04-16T17:19:53.009Z</time></trkpt><trkpt lat="43.1256427" lon="12.5077937"><ele>283.2</ele><time>2026-04-16T17:19:55.009Z</time></trkpt><trkpt lat="43.125564" lon="12.5078746"><ele>282.4</ele><time>2026-04-16T17:19:57.009Z</time></trkpt><trkpt lat="43.1254934" lon="12.5079722"><ele>281.6</ele><time>2026-04-16T17:19:59.009Z</time></trkpt><trkpt lat="43.125428" lon="12.5080611"><ele>280.8</ele><time>2026-04-16T17:20:01.009Z</time></trkpt><trkpt lat="43.1253498" lon="12.5081592"><ele>280.0</ele><time>2026-04-16T17:20:03.009Z</time></trkpt><trkpt lat="43.1252584" lon="12.5082392"><ele>280.0</ele><time>2026-04-16T17:20:05.009Z</time></trkpt><trkpt lat="43.1251772" lon="12.5082952"><ele>280.0</ele><time>2026-04-16T17:20:07.009Z</time></trkpt><trkpt lat="43.1251263" lon="12.5083584"><ele>280.0</ele><time>2026-04-16T17:20:09.008Z</time></trkpt><trkpt lat="43.1250779" lon="12.508278"><ele>280.0</ele><time>2026-04-16T17:21:29.009Z</time></trkpt><trkpt lat="43.1250118" lon="12.5082699"><ele>280.0</ele><time>2026-04-16T17:21:31.009Z</time></trkpt><trkpt lat="43.1249317" lon="12.5082714"><ele>280.0</ele><time>2026-04-16T17:21:33.009Z</time></trkpt><trkpt lat="43.1248293" lon="12.5082606"><ele>278.66666666666663</ele><time>2026-04-16T17:21:35.009Z</time></trkpt><trkpt lat="43.1247" lon="12.5082461"><ele>277.3333333333333</ele><time>2026-04-16T17:21:37.009Z</time></trkpt><trkpt lat="43.1246308" lon="12.5082455"><ele>276.0</ele><time>2026-04-16T17:21:38.009Z</time></trkpt><trkpt lat="43.1245554" lon="12.508246"><ele>274.6666666666667</ele><time>2026-04-16T17:21:39.009Z</time></trkpt><trkpt lat="43.1244742" lon="12.5082441"><ele>273.33333333333337</ele><time>2026-04-16T17:21:40.009Z</time></trkpt><trkpt lat="43.1243901" lon="12.5082336"><ele>272.0</ele><time>2026-04-16T17:21:41.009Z</time></trkpt><trkpt lat="43.1243032" lon="12.508226"><ele>272.0</ele><time>2026-04-16T17:21:42.009Z</time></trkpt><trkpt lat="43.1242111" lon="12.5082258"><ele>272.0</ele><time>2026-04-16T17:21:43.009Z</time></trkpt><trkpt lat="43.1241203" lon="12.5082256"><ele>272.0</ele><time>2026-04-16T17:21:44.009Z</time></trkpt><trkpt lat="43.1240286" lon="12.5082222"><ele>272.0</ele><time>2026-04-16T17:21:45.009Z</time></trkpt><trkpt lat="43.1239349" lon="12.508218"><ele>272.0</ele><time>2026-04-16T17:21:46.009Z</time></trkpt><trkpt lat="43.1238352" lon="12.5082102"><ele>270.2</ele><time>2026-04-16T17:21:47.009Z</time></trkpt><trkpt lat="43.1237311" lon="12.508199"><ele>268.4</ele><time>2026-04-16T17:21:48.009Z</time></trkpt><trkpt lat="43.1236248" lon="12.5081888"><ele>266.6</ele><time>2026-04-16T17:21:49.009Z</time></trkpt><trkpt lat="43.1235169" lon="12.5081826"><ele>264.8</ele><time>2026-04-16T17:21:50.009Z</time></trkpt><trkpt lat="43.1234084" lon="12.508176"><ele>263.0</ele><time>2026-04-16T17:21:51.009Z</time></trkpt><trkpt lat="43.123296" lon="12.5081696"><ele>261.0</ele><time>2026-04-16T17:21:52.009Z</time></trkpt><trkpt lat="43.1231788" lon="12.5081628"><ele>259.0</ele><time>2026-04-16T17:21:53.009Z</time></trkpt><trkpt lat="43.123059" lon="12.5081559"><ele>257.0</ele><time>2026-04-16T17:21:54.009Z</time></trkpt><trkpt lat="43.1229465" lon="12.5081517"><ele>255.0</ele><time>2026-04-16T17:21:55.009Z</time></trkpt><trkpt lat="43.1228376" lon="12.5081517"><ele>255.0</ele><time>2026-04-16T17:21:56.009Z</time></trkpt><trkpt lat="43.1227263" lon="12.5081495"><ele>255.0</ele><time>2026-04-16T17:21:57.009Z</time></trkpt><trkpt lat="43.1226131" lon="12.508144"><ele>255.0</ele><time>2026-04-16T17:21:58.009Z</time></trkpt><trkpt lat="43.1224959" lon="12.5081335"><ele>255.0</ele><time>2026-04-16T17:21:59.009Z</time></trkpt><trkpt lat="43.1223773" lon="12.5081118"><ele>253.25</ele><time>2026-04-16T17:22:00.009Z</time></trkpt><trkpt lat="43.1222608" lon="12.508077"><ele>251.5</ele><time>2026-04-16T17:22:01.009Z</time></trkpt><trkpt lat="43.1221473" lon="12.5080398"><ele>249.75</ele><time>2026-04-16T17:22:02.009Z</time></trkpt><trkpt lat="43.1220388" lon="12.5080017"><ele>248.0</ele><time>2026-04-16T17:22:03.009Z</time></trkpt><trkpt lat="43.1219315" lon="12.507957"><ele>248.0</ele><time>2026-04-16T17:22:04.009Z</time></trkpt><trkpt lat="43.1218206" lon="12.5079143"><ele>248.0</ele><time>2026-04-16T17:22:05.009Z</time></trkpt><trkpt lat="43.1217071" lon="12.5078728"><ele>248.0</ele><time>2026-04-16T17:22:06.009Z</time></trkpt><trkpt lat="43.1215992" lon="12.5078287"><ele>248.0</ele><time>2026-04-16T17:22:07.009Z</time></trkpt><trkpt lat="43.1214958" lon="12.5077834"><ele>246.0</ele><time>2026-04-16T17:22:08.009Z</time></trkpt><trkpt lat="43.1213923" lon="12.5077353"><ele>244.0</ele><time>2026-04-16T17:22:09.009Z</time></trkpt><trkpt lat="43.1212872" lon="12.5076864"><ele>242.0</ele><time>2026-04-16T17:22:10.009Z</time></trkpt><trkpt lat="43.1211755" lon="12.5076344"><ele>240.0</ele><time>2026-04-16T17:22:11.009Z</time></trkpt><trkpt lat="43.1210655" lon="12.5075816"><ele>240.0</ele><time>2026-04-16T17:22:12.009Z</time></trkpt><trkpt lat="43.1209571" lon="12.5075361"><ele>240.0</ele><time>2026-04-16T17:22:13.009Z</time></trkpt><trkpt lat="43.1208579" lon="12.5074871"><ele>240.0</ele><time>2026-04-16T17:22:14.009Z</time></trkpt><trkpt lat="43.1207579" lon="12.5074361"><ele>240.0</ele><time>2026-04-16T17:22:15.009Z</time></trkpt><trkpt lat="43.1206549" lon="12.5073834"><ele>240.0</ele><time>2026-04-16T17:22:16.009Z</time></trkpt><trkpt lat="43.1205502" lon="12.5073374"><ele>239.0</ele><time>2026-04-16T17:22:17.009Z</time></trkpt><trkpt lat="43.1204466" lon="12.5072843"><ele>238.0</ele><time>2026-04-16T17:22:18.009Z</time></trkpt><trkpt lat="43.1203481" lon="12.5072317"><ele>237.0</ele><time>2026-04-16T17:22:19.009Z</time></trkpt><trkpt lat="43.120254" lon="12.5071841"><ele>236.0</ele><time>2026-04-16T17:22:20.008Z</time></trkpt><trkpt lat="43.1201572" lon="12.5071381"><ele>235.0</ele><time>2026-04-16T17:22:21.009Z</time></trkpt><trkpt lat="43.120069" lon="12.5070898"><ele>234.33333333333331</ele><time>2026-04-16T17:22:22.009Z</time></trkpt><trkpt lat="43.1199879" lon="12.5070471"><ele>233.66666666666666</ele><time>2026-04-16T17:22:23.009Z</time></trkpt><trkpt lat="43.1199153" lon="12.5070121"><ele>233.0</ele><time>2026-04-16T17:22:24.009Z</time></trkpt><trkpt lat="43.1198138" lon="12.506966"><ele>232.33333333333331</ele><time>2026-04-16T17:22:26.009Z</time></trkpt><trkpt lat="43.1197984" lon="12.5068681"><ele>231.66666666666666</ele><time>2026-04-16T17:22:28.009Z</time></trkpt><trkpt lat="43.1198213" lon="12.5067738"><ele>231.0</ele><time>2026-04-16T17:22:30.009Z</time></trkpt><trkpt lat="43.1198415" lon="12.5066842"><ele>231.0</ele><time>2026-04-16T17:22:32.009Z</time></trkpt><trkpt lat="43.1198685" lon="12.506591"><ele>231.0</ele><time>2026-04-16T17:22:34.009Z</time></trkpt><trkpt lat="43.1198994" lon="12.5064967"><ele>231.0</ele><time>2026-04-16T17:22:36.009Z</time></trkpt><trkpt lat="43.1199294" lon="12.5064024"><ele>231.0</ele><time>2026-04-16T17:22:38.009Z</time></trkpt><trkpt lat="43.1199692" lon="12.506314"><ele>231.0</ele><time>2026-04-16T17:22:40.009Z</time></trkpt><trkpt lat="43.1200105" lon="12.5062143"><ele>231.0</ele><time>2026-04-16T17:22:42.009Z</time></trkpt><trkpt lat="43.1200576" lon="12.5061283"><ele>230.33333333333334</ele><time>2026-04-16T17:22:44.009Z</time></trkpt><trkpt lat="43.1201055" lon="12.5060285"><ele>229.66666666666669</ele><time>2026-04-16T17:22:46.009Z</time></trkpt><trkpt lat="43.1201567" lon="12.5059285"><ele>229.0</ele><time>2026-04-16T17:22:48.009Z</time></trkpt><trkpt lat="43.1202091" lon="12.5058359"><ele>228.33333333333334</ele><time>2026-04-16T17:22:50.009Z</time></trkpt><trkpt lat="43.1202703" lon="12.5057411"><ele>227.66666666666669</ele><time>2026-04-16T17:22:52.009Z</time></trkpt><trkpt lat="43.1203269" lon="12.5056546"><ele>227.0</ele><time>2026-04-16T17:22:54.009Z</time></trkpt><trkpt lat="43.1203819" lon="12.5055632"><ele>227.00000000000003</ele><time>2026-04-16T17:22:56.009Z</time></trkpt><trkpt lat="43.1204444" lon="12.5054806"><ele>227.0</ele><time>2026-04-16T17:22:58.009Z</time></trkpt><trkpt lat="43.1205109" lon="12.5054037"><ele>227.0</ele><time>2026-04-16T17:23:00.009Z</time></trkpt><trkpt lat="43.1205818" lon="12.5053402"><ele>227.0</ele><time>2026-04-16T17:23:02.009Z</time></trkpt><trkpt lat="43.1206581" lon="12.5052815"><ele>227.00000000000003</ele><time>2026-04-16T17:23:04.009Z</time></trkpt><trkpt lat="43.1207261" lon="12.5052229"><ele>227.0</ele><time>2026-04-16T17:23:06.009Z</time></trkpt><trkpt lat="43.1207931" lon="12.505156"><ele>227.2857142857143</ele><time>2026-04-16T17:23:08.009Z</time></trkpt><trkpt lat="43.1208466" lon="12.5050856"><ele>227.5714285714286</ele><time>2026-04-16T17:23:10.009Z</time></trkpt><trkpt lat="43.1208895" lon="12.5050204"><ele>227.85714285714286</ele><time>2026-04-16T17:23:12.009Z</time></trkpt><trkpt lat="43.1209396" lon="12.5049449"><ele>228.14285714285717</ele><time>2026-04-16T17:23:15.009Z</time></trkpt><trkpt lat="43.1210001" lon="12.5048529"><ele>228.42857142857144</ele><time>2026-04-16T17:23:18.009Z</time></trkpt><trkpt lat="43.1210452" lon="12.5047759"><ele>228.71428571428572</ele><time>2026-04-16T17:23:20.009Z</time></trkpt><trkpt lat="43.1210811" lon="12.5046961"><ele>229.0</ele><time>2026-04-16T17:23:22.009Z</time></trkpt><trkpt lat="43.1211219" lon="12.5046038"><ele>228.83333333333331</ele><time>2026-04-16T17:23:24.009Z</time></trkpt><trkpt lat="43.121148" lon="12.504507"><ele>228.66666666666666</ele><time>2026-04-16T17:23:26.009Z</time></trkpt><trkpt lat="43.1211028" lon="12.504431"><ele>228.5</ele><time>2026-04-16T17:23:28.009Z</time></trkpt><trkpt lat="43.1210397" lon="12.5043856"><ele>228.33333333333331</ele><time>2026-04-16T17:23:30.009Z</time></trkpt><trkpt lat="43.1209823" lon="12.504345"><ele>228.16666666666666</ele><time>2026-04-16T17:23:32.009Z</time></trkpt><trkpt lat="43.120901" lon="12.5042881"><ele>228.0</ele><time>2026-04-16T17:23:35.009Z</time></trkpt><trkpt lat="43.1208073" lon="12.5042247"><ele>228.0</ele><time>2026-04-16T17:23:38.009Z</time></trkpt><trkpt lat="43.1207477" lon="12.5041806"><ele>228.0</ele><time>2026-04-16T17:23:40.009Z</time></trkpt><trkpt lat="43.1206842" lon="12.5041283"><ele>228.0</ele><time>2026-04-16T17:23:42.009Z</time></trkpt><trkpt lat="43.1206163" lon="12.5040784"><ele>228.0</ele><time>2026-04-16T17:23:44.009Z</time></trkpt><trkpt lat="43.1205541" lon="12.5040264"><ele>228.0</ele><time>2026-04-16T17:23:46.009Z</time></trkpt><trkpt lat="43.1204842" lon="12.5039773"><ele>228.0</ele><time>2026-04-16T17:23:48.009Z</time></trkpt><trkpt lat="43.120404" lon="12.5039196"><ele>227.83333333333334</ele><time>2026-04-16T17:23:50.009Z</time></trkpt><trkpt lat="43.1203495" lon="12.503858"><ele>227.66666666666669</ele><time>2026-04-16T17:23:52.009Z</time></trkpt><trkpt lat="43.1202782" lon="12.5037868"><ele>227.5</ele><time>2026-04-16T17:23:54.009Z</time></trkpt><trkpt lat="43.1202154" lon="12.5037122"><ele>227.33333333333334</ele><time>2026-04-16T17:23:56.009Z</time></trkpt><trkpt lat="43.1201715" lon="12.503615"><ele>227.16666666666669</ele><time>2026-04-16T17:23:58.009Z</time></trkpt><trkpt lat="43.1201169" lon="12.5035366"><ele>227.0</ele><time>2026-04-16T17:24:00.009Z</time></trkpt><trkpt lat="43.1200709" lon="12.503468"><ele>227.0</ele><time>2026-04-16T17:24:02.009Z</time></trkpt><trkpt lat="43.1200184" lon="12.5033755"><ele>227.00000000000003</ele><time>2026-04-16T17:24:05.009Z</time></trkpt><trkpt lat="43.1199794" lon="12.503283"><ele>227.0</ele><time>2026-04-16T17:24:08.009Z</time></trkpt><trkpt lat="43.1199331" lon="12.5032208"><ele>227.0</ele><time>2026-04-16T17:24:11.009Z</time></trkpt><trkpt lat="43.1198937" lon="12.5031467"><ele>227.00000000000003</ele><time>2026-04-16T17:24:15.009Z</time></trkpt><trkpt lat="43.1198553" lon="12.5030686"><ele>227.0</ele><time>2026-04-16T17:24:20.009Z</time></trkpt><trkpt lat="43.1198177" lon="12.5029952"><ele>227.0</ele><time>2026-04-16T17:24:25.009Z</time></trkpt><trkpt lat="43.1197734" lon="12.5029186"><ele>228.42857142857144</ele><time>2026-04-16T17:24:30.009Z</time></trkpt><trkpt lat="43.1197241" lon="12.5028416"><ele>229.8571428571429</ele><time>2026-04-16T17:24:35.009Z</time></trkpt><trkpt lat="43.1196825" lon="12.5027633"><ele>231.28571428571428</ele><time>2026-04-16T17:24:40.009Z</time></trkpt><trkpt lat="43.1196419" lon="12.5026973"><ele>232.71428571428572</ele><time>2026-04-16T17:24:45.009Z</time></trkpt><trkpt lat="43.119602" lon="12.5026289"><ele>234.14285714285714</ele><time>2026-04-16T17:24:50.009Z</time></trkpt><trkpt lat="43.1195606" lon="12.5025523"><ele>235.57142857142856</ele><time>2026-04-16T17:24:55.009Z</time></trkpt><trkpt lat="43.1195207" lon="12.50248"><ele>236.99999999999997</ele><time>2026-04-16T17:25:00.008Z</time></trkpt><trkpt lat="43.1194811" lon="12.502407"><ele>236.99999999999997</ele><time>2026-04-16T17:25:04.019Z</time></trkpt><trkpt lat="43.1194403" lon="12.5023302"><ele>237.0</ele><time>2026-04-16T17:25:09.019Z</time></trkpt><trkpt lat="43.1193958" lon="12.5022602"><ele>236.99999999999997</ele><time>2026-04-16T17:25:14.019Z</time></trkpt><trkpt lat="43.1193491" lon="12.5021983"><ele>236.99999999999997</ele><time>2026-04-16T17:25:19.019Z</time></trkpt><trkpt lat="43.1192801" lon="12.5021663"><ele>237.0</ele><time>2026-04-16T17:25:25.019Z</time></trkpt><trkpt lat="43.1192101" lon="12.5021756"><ele>236.99999999999997</ele><time>2026-04-16T17:25:30.019Z</time></trkpt><trkpt lat="43.1191384" lon="12.5021613"><ele>236.99999999999997</ele><time>2026-04-16T17:25:37.019Z</time></trkpt><trkpt lat="43.1190803" lon="12.5021184"><ele>238.4285714285714</ele><time>2026-04-16T17:25:42.019Z</time></trkpt><trkpt lat="43.1190286" lon="12.5020667"><ele>239.85714285714283</ele><time>2026-04-16T17:25:47.019Z</time></trkpt><trkpt lat="43.118977" lon="12.5019897"><ele>241.28571428571428</ele><time>2026-04-16T17:25:53.019Z</time></trkpt><trkpt lat="43.1189195" lon="12.5019537"><ele>242.7142857142857</ele><time>2026-04-16T17:25:58.019Z</time></trkpt><trkpt lat="43.11886" lon="12.5018918"><ele>244.1428571428571</ele><time>2026-04-16T17:26:04.019Z</time></trkpt><trkpt lat="43.1188041" lon="12.5018335"><ele>245.57142857142858</ele><time>2026-04-16T17:26:10.019Z</time></trkpt><trkpt lat="43.118746" lon="12.5017687"><ele>247.0</ele><time>2026-04-16T17:26:16.019Z</time></trkpt><trkpt lat="43.1187021" lon="12.5017033"><ele>247.0</ele><time>2026-04-16T17:26:21.019Z</time></trkpt><trkpt lat="43.1186611" lon="12.5016258"><ele>247.0</ele><time>2026-04-16T17:26:27.019Z</time></trkpt><trkpt lat="43.1186266" lon="12.5015391"><ele>247.0</ele><time>2026-04-16T17:26:33.019Z</time></trkpt><trkpt lat="43.1186007" lon="12.5014583"><ele>247.0</ele><time>2026-04-16T17:26:39.019Z</time></trkpt><trkpt lat="43.1185833" lon="12.5013699"><ele>247.0</ele><time>2026-04-16T17:26:46.019Z</time></trkpt><trkpt lat="43.1185665" lon="12.5012672"><ele>247.0</ele><time>2026-04-16T17:26:52.018Z</time></trkpt><trkpt lat="43.118552" lon="12.5011732"><ele>247.0</ele><time>2026-04-16T17:27:00.019Z</time></trkpt><trkpt lat="43.1185127" lon="12.5010889"><ele>248.28571428571428</ele><time>2026-04-16T17:27:05.019Z</time></trkpt><trkpt lat="43.118471" lon="12.5010099"><ele>249.57142857142856</ele><time>2026-04-16T17:27:10.019Z</time></trkpt><trkpt lat="43.118425" lon="12.500941"><ele>250.85714285714283</ele><time>2026-04-16T17:27:16.019Z</time></trkpt><trkpt lat="43.1183784" lon="12.5008776"><ele>252.14285714285714</ele><time>2026-04-16T17:27:21.018Z</time></trkpt><trkpt lat="43.118317" lon="12.5008241"><ele>253.4285714285714</ele><time>2026-04-16T17:27:27.019Z</time></trkpt><trkpt lat="43.1182596" lon="12.5007792"><ele>254.7142857142857</ele><time>2026-04-16T17:27:32.019Z</time></trkpt><trkpt lat="43.1181988" lon="12.5007274"><ele>256.0</ele><time>2026-04-16T17:27:37.019Z</time></trkpt><trkpt lat="43.1181369" lon="12.500692"><ele>256.1428571428571</ele><time>2026-04-16T17:27:42.019Z</time></trkpt><trkpt lat="43.118063" lon="12.5006615"><ele>256.2857142857143</ele><time>2026-04-16T17:27:48.019Z</time></trkpt><trkpt lat="43.1179954" lon="12.5006412"><ele>256.42857142857144</ele><time>2026-04-16T17:27:53.019Z</time></trkpt><trkpt lat="43.1179304" lon="12.5006199"><ele>256.57142857142856</ele><time>2026-04-16T17:27:58.019Z</time></trkpt><trkpt lat="43.1178608" lon="12.5005905"><ele>256.7142857142857</ele><time>2026-04-16T17:28:03.019Z</time></trkpt><trkpt lat="43.1177866" lon="12.500555"><ele>256.85714285714283</ele><time>2026-04-16T17:28:09.019Z</time></trkpt><trkpt lat="43.1177181" lon="12.5005229"><ele>257.0</ele><time>2026-04-16T17:28:15.019Z</time></trkpt><trkpt lat="43.1176558" lon="12.5005012"><ele>257.0</ele><time>2026-04-16T17:28:20.019Z</time></trkpt><trkpt lat="43.1175895" lon="12.5004801"><ele>257.0</ele><time>2026-04-16T17:28:25.019Z</time></trkpt><trkpt lat="43.1175219" lon="12.5004479"><ele>257.0</ele><time>2026-04-16T17:28:31.019Z</time></trkpt><trkpt lat="43.1174658" lon="12.5003953"><ele>257.0</ele><time>2026-04-16T17:28:36.019Z</time></trkpt><trkpt lat="43.1173877" lon="12.5003489"><ele>257.0</ele><time>2026-04-16T17:28:41.019Z</time></trkpt><trkpt lat="43.117331" lon="12.5003107"><ele>257.0</ele><time>2026-04-16T17:28:44.019Z</time></trkpt><trkpt lat="43.1172744" lon="12.5002686"><ele>257.0</ele><time>2026-04-16T17:28:47.019Z</time></trkpt><trkpt lat="43.1172011" lon="12.5002142"><ele>258.1428571428571</ele><time>2026-04-16T17:28:51.019Z</time></trkpt><trkpt lat="43.1171414" lon="12.5001633"><ele>259.2857142857143</ele><time>2026-04-16T17:28:55.019Z</time></trkpt><trkpt lat="43.1170765" lon="12.5001195"><ele>260.42857142857144</ele><time>2026-04-16T17:28:59.019Z</time></trkpt><trkpt lat="43.1170068" lon="12.5000627"><ele>261.57142857142856</ele><time>2026-04-16T17:29:03.019Z</time></trkpt><trkpt lat="43.1169513" lon="12.500015"><ele>262.7142857142857</ele><time>2026-04-16T17:29:06.019Z</time></trkpt><trkpt lat="43.1168758" lon="12.4999801"><ele>263.85714285714283</ele><time>2026-04-16T17:29:10.019Z</time></trkpt><trkpt lat="43.1168094" lon="12.4999375"><ele>265.0</ele><time>2026-04-16T17:29:14.019Z</time></trkpt><trkpt lat="43.1167417" lon="12.499931"><ele>265.0</ele><time>2026-04-16T17:29:20.019Z</time></trkpt><trkpt lat="43.1166914" lon="12.4998664"><ele>265.0</ele><time>2026-04-16T17:29:24.019Z</time></trkpt><trkpt lat="43.1166335" lon="12.4998108"><ele>265.0</ele><time>2026-04-16T17:29:27.019Z</time></trkpt><trkpt lat="43.1165676" lon="12.4997241"><ele>265.0</ele><time>2026-04-16T17:29:30.019Z</time></trkpt><trkpt lat="43.1164956" lon="12.4996708"><ele>265.0</ele><time>2026-04-16T17:29:32.019Z</time></trkpt><trkpt lat="43.1164036" lon="12.4996066"><ele>265.0</ele><time>2026-04-16T17:29:34.019Z</time></trkpt><trkpt lat="43.1162995" lon="12.4995179"><ele>264.1428571428571</ele><time>2026-04-16T17:29:36.019Z</time></trkpt><trkpt lat="43.1162392" lon="12.4994799"><ele>263.2857142857143</ele><time>2026-04-16T17:29:37.019Z</time></trkpt><trkpt lat="43.1161811" lon="12.4994355"><ele>262.42857142857144</ele><time>2026-04-16T17:29:38.019Z</time></trkpt><trkpt lat="43.1161221" lon="12.4993909"><ele>261.57142857142856</ele><time>2026-04-16T17:29:39.019Z</time></trkpt><trkpt lat="43.1160624" lon="12.4993455"><ele>260.7142857142857</ele><time>2026-04-16T17:29:40.019Z</time></trkpt><trkpt lat="43.1160063" lon="12.4993056"><ele>259.85714285714283</ele><time>2026-04-16T17:29:41.019Z</time></trkpt><trkpt lat="43.1159219" lon="12.4992544"><ele>259.0</ele><time>2026-04-16T17:29:43.019Z</time></trkpt><trkpt lat="43.1158914" lon="12.4991773"><ele>259.0</ele><time>2026-04-16T17:29:47.018Z</time></trkpt><trkpt lat="43.1159367" lon="12.4991117"><ele>259.0</ele><time>2026-04-16T17:29:52.019Z</time></trkpt><trkpt lat="43.1160162" lon="12.4990912"><ele>259.0</ele><time>2026-04-16T17:29:57.019Z</time></trkpt><trkpt lat="43.1160844" lon="12.499068"><ele>259.0</ele><time>2026-04-16T17:30:00.019Z</time></trkpt><trkpt lat="43.1161527" lon="12.4990445"><ele>259.0</ele><time>2026-04-16T17:30:03.019Z</time></trkpt><trkpt lat="43.1162216" lon="12.4990211"><ele>259.0</ele><time>2026-04-16T17:30:06.019Z</time></trkpt><trkpt lat="43.1162869" lon="12.4990017"><ele>259.0</ele><time>2026-04-16T17:30:09.019Z</time></trkpt><trkpt lat="43.1163572" lon="12.4989728"><ele>259.0</ele><time>2026-04-16T17:30:13.019Z</time></trkpt><trkpt lat="43.1164196" lon="12.4989473"><ele>259.0</ele><time>2026-04-16T17:30:17.019Z</time></trkpt><trkpt lat="43.1164928" lon="12.4989252"><ele>259.0</ele><time>2026-04-16T17:30:22.019Z</time></trkpt><trkpt lat="43.116567" lon="12.4988982"><ele>259.0</ele><time>2026-04-16T17:30:27.019Z</time></trkpt><trkpt lat="43.1166356" lon="12.4988617"><ele>259.0</ele><time>2026-04-16T17:30:32.019Z</time></trkpt><trkpt lat="43.1167016" lon="12.4988469"><ele>259.0</ele><time>2026-04-16T17:30:36.019Z</time></trkpt><trkpt lat="43.1167689" lon="12.4988132"><ele>259.0</ele><time>2026-04-16T17:30:41.019Z</time></trkpt><trkpt lat="43.1167007" lon="12.4987979"><ele>259.0</ele><time>2026-04-16T17:30:45.019Z</time></trkpt><trkpt lat="43.1166217" lon="12.4988275"><ele>259.0</ele><time>2026-04-16T17:30:48.019Z</time></trkpt><trkpt lat="43.1165299" lon="12.4988603"><ele>259.0</ele><time>2026-04-16T17:30:51.019Z</time></trkpt><trkpt lat="43.1164494" lon="12.4988907"><ele>259.0</ele><time>2026-04-16T17:30:53.019Z</time></trkpt><trkpt lat="43.1163651" lon="12.4989327"><ele>259.0</ele><time>2026-04-16T17:30:55.019Z</time></trkpt><trkpt lat="43.116294" lon="12.4989627"><ele>259.0</ele><time>2026-04-16T17:30:57.019Z</time></trkpt><trkpt lat="43.1162303" lon="12.4989811"><ele>259.0</ele><time>2026-04-16T17:30:59.019Z</time></trkpt><trkpt lat="43.1161533" lon="12.4990202"><ele>259.0</ele><time>2026-04-16T17:31:01.019Z</time></trkpt><trkpt lat="43.1160857" lon="12.4990444"><ele>259.0</ele><time>2026-04-16T17:31:03.019Z</time></trkpt><trkpt lat="43.1160139" lon="12.4990466"><ele>259.0</ele><time>2026-04-16T17:31:06.019Z</time></trkpt><trkpt lat="43.1159306" lon="12.4990726"><ele>259.0</ele><time>2026-04-16T17:31:09.018Z</time></trkpt><trkpt lat="43.1158641" lon="12.4990702"><ele>259.0</ele><time>2026-04-16T17:31:11.019Z</time></trkpt><trkpt lat="43.1157899" lon="12.4990574"><ele>258.3333333333333</ele><time>2026-04-16T17:31:13.019Z</time></trkpt><trkpt lat="43.1157049" lon="12.4990316"><ele>257.66666666666663</ele><time>2026-04-16T17:31:15.019Z</time></trkpt><trkpt lat="43.1156251" lon="12.4990079"><ele>257.0</ele><time>2026-04-16T17:31:17.019Z</time></trkpt><trkpt lat="43.11554" lon="12.4989701"><ele>256.3333333333333</ele><time>2026-04-16T17:31:19.019Z</time></trkpt><trkpt lat="43.1154546" lon="12.4989267"><ele>255.66666666666666</ele><time>2026-04-16T17:31:21.019Z</time></trkpt><trkpt lat="43.115366" lon="12.498876"><ele>255.0</ele><time>2026-04-16T17:31:23.019Z</time></trkpt><trkpt lat="43.1152741" lon="12.4988385"><ele>255.0</ele><time>2026-04-16T17:31:25.019Z</time></trkpt><trkpt lat="43.1151714" lon="12.4987885"><ele>255.0</ele><time>2026-04-16T17:31:27.019Z</time></trkpt><trkpt lat="43.1150686" lon="12.4987325"><ele>255.0</ele><time>2026-04-16T17:31:29.019Z</time></trkpt><trkpt lat="43.1149675" lon="12.4986811"><ele>255.0</ele><time>2026-04-16T17:31:31.019Z</time></trkpt><trkpt lat="43.1148581" lon="12.4986374"><ele>255.0</ele><time>2026-04-16T17:31:33.019Z</time></trkpt><trkpt lat="43.1147493" lon="12.4985908"><ele>254.5</ele><time>2026-04-16T17:31:35.019Z</time></trkpt><trkpt lat="43.1146422" lon="12.4985276"><ele>254.0</ele><time>2026-04-16T17:31:37.019Z</time></trkpt><trkpt lat="43.1145248" lon="12.4984662"><ele>253.5</ele><time>2026-04-16T17:31:39.019Z</time></trkpt><trkpt lat="43.114411" lon="12.4984083"><ele>253.0</ele><time>2026-04-16T17:31:41.019Z</time></trkpt><trkpt lat="43.1142937" lon="12.4983622"><ele>253.0</ele><time>2026-04-16T17:31:43.019Z</time></trkpt><trkpt lat="43.1141884" lon="12.4983132"><ele>253.0</ele><time>2026-04-16T17:31:45.028Z</time></trkpt><trkpt lat="43.1140913" lon="12.4982724"><ele>253.0</ele><time>2026-04-16T17:31:47.028Z</time></trkpt><trkpt lat="43.1139945" lon="12.4982539"><ele>253.0</ele><time>2026-04-16T17:31:49.028Z</time></trkpt><trkpt lat="43.1139017" lon="12.4982336"><ele>253.0</ele><time>2026-04-16T17:31:51.028Z</time></trkpt><trkpt lat="43.1138068" lon="12.4982186"><ele>253.4</ele><time>2026-04-16T17:31:53.028Z</time></trkpt><trkpt lat="43.1137114" lon="12.4982102"><ele>253.8</ele><time>2026-04-16T17:31:55.028Z</time></trkpt><trkpt lat="43.1136185" lon="12.4981996"><ele>254.2</ele><time>2026-04-16T17:31:57.028Z</time></trkpt><trkpt lat="43.1135282" lon="12.4981928"><ele>254.6</ele><time>2026-04-16T17:31:59.028Z</time></trkpt><trkpt lat="43.1134403" lon="12.4981694"><ele>255.0</ele><time>2026-04-16T17:32:01.028Z</time></trkpt><trkpt lat="43.1133549" lon="12.4981582"><ele>255.0</ele><time>2026-04-16T17:32:03.028Z</time></trkpt><trkpt lat="43.1132706" lon="12.49815"><ele>255.0</ele><time>2026-04-16T17:32:05.027Z</time></trkpt><trkpt lat="43.1131898" lon="12.4981445"><ele>255.0</ele><time>2026-04-16T17:32:07.028Z</time></trkpt><trkpt lat="43.1131149" lon="12.4981236"><ele>255.0</ele><time>2026-04-16T17:32:09.028Z</time></trkpt><trkpt lat="43.1130327" lon="12.4981079"><ele>255.0</ele><time>2026-04-16T17:32:11.028Z</time></trkpt><trkpt lat="43.1129545" lon="12.4980906"><ele>255.0</ele><time>2026-04-16T17:32:13.028Z</time></trkpt><trkpt lat="43.1128701" lon="12.4980839"><ele>255.2857142857143</ele><time>2026-04-16T17:32:15.028Z</time></trkpt><trkpt lat="43.1127942" lon="12.4980776"><ele>255.5714285714286</ele><time>2026-04-16T17:32:17.028Z</time></trkpt><trkpt lat="43.1127176" lon="12.4980775"><ele>255.85714285714286</ele><time>2026-04-16T17:32:19.028Z</time></trkpt><trkpt lat="43.1126488" lon="12.4980723"><ele>256.14285714285717</ele><time>2026-04-16T17:32:21.028Z</time></trkpt><trkpt lat="43.1125778" lon="12.4980679"><ele>256.42857142857144</ele><time>2026-04-16T17:32:23.028Z</time></trkpt><trkpt lat="43.1125117" lon="12.4980455"><ele>256.7142857142857</ele><time>2026-04-16T17:32:25.028Z</time></trkpt><trkpt lat="43.112439" lon="12.4980112"><ele>257.0</ele><time>2026-04-16T17:32:27.028Z</time></trkpt><trkpt lat="43.112357" lon="12.4980018"><ele>257.0</ele><time>2026-04-16T17:32:29.028Z</time></trkpt><trkpt lat="43.1122706" lon="12.4980064"><ele>257.0</ele><time>2026-04-16T17:32:31.028Z</time></trkpt><trkpt lat="43.1121779" lon="12.4980027"><ele>257.0</ele><time>2026-04-16T17:32:33.028Z</time></trkpt><trkpt lat="43.1120878" lon="12.4979932"><ele>257.0</ele><time>2026-04-16T17:32:35.028Z</time></trkpt><trkpt lat="43.112001" lon="12.4979785"><ele>257.0</ele><time>2026-04-16T17:32:37.028Z</time></trkpt><trkpt lat="43.1119104" lon="12.4979816"><ele>257.0</ele><time>2026-04-16T17:32:39.028Z</time></trkpt><trkpt lat="43.1118216" lon="12.4979679"><ele>257.0</ele><time>2026-04-16T17:32:41.028Z</time></trkpt><trkpt lat="43.1117319" lon="12.4979422"><ele>257.0</ele><time>2026-04-16T17:32:43.028Z</time></trkpt><trkpt lat="43.1116402" lon="12.4979143"><ele>257.0</ele><time>2026-04-16T17:32:45.028Z</time></trkpt><trkpt lat="43.1115415" lon="12.4978807"><ele>257.0</ele><time>2026-04-16T17:32:47.028Z</time></trkpt><trkpt lat="43.1114444" lon="12.497854"><ele>257.0</ele><time>2026-04-16T17:32:49.028Z</time></trkpt><trkpt lat="43.1113518" lon="12.4978377"><ele>256.85714285714283</ele><time>2026-04-16T17:32:51.028Z</time></trkpt><trkpt lat="43.1112742" lon="12.4978137"><ele>256.7142857142857</ele><time>2026-04-16T17:32:53.028Z</time></trkpt><trkpt lat="43.1112008" lon="12.497784"><ele>256.57142857142856</ele><time>2026-04-16T17:32:55.028Z</time></trkpt><trkpt lat="43.1111262" lon="12.4977636"><ele>256.42857142857144</ele><time>2026-04-16T17:32:57.028Z</time></trkpt><trkpt lat="43.1110544" lon="12.4977451"><ele>256.2857142857143</ele><time>2026-04-16T17:32:59.028Z</time></trkpt><trkpt lat="43.110989" lon="12.4977149"><ele>256.1428571428571</ele><time>2026-04-16T17:33:01.028Z</time></trkpt><trkpt lat="43.1109216" lon="12.4976909"><ele>256.0</ele><time>2026-04-16T17:33:03.028Z</time></trkpt><trkpt lat="43.1108446" lon="12.4976592"><ele>255.99999999999997</ele><time>2026-04-16T17:33:05.028Z</time></trkpt><trkpt lat="43.110777" lon="12.4976243"><ele>256.0</ele><time>2026-04-16T17:33:07.028Z</time></trkpt><trkpt lat="43.1107069" lon="12.4975673"><ele>256.0</ele><time>2026-04-16T17:33:09.028Z</time></trkpt><trkpt lat="43.1106335" lon="12.4975099"><ele>256.0</ele><time>2026-04-16T17:33:11.028Z</time></trkpt><trkpt lat="43.1105656" lon="12.4974607"><ele>255.99999999999997</ele><time>2026-04-16T17:33:13.028Z</time></trkpt><trkpt lat="43.1104962" lon="12.4973841"><ele>256.0</ele><time>2026-04-16T17:33:15.028Z</time></trkpt><trkpt lat="43.1104252" lon="12.4973155"><ele>255.99999999999997</ele><time>2026-04-16T17:33:17.028Z</time></trkpt><trkpt lat="43.1103549" lon="12.4972481"><ele>256.0</ele><time>2026-04-16T17:33:19.028Z</time></trkpt><trkpt lat="43.1102845" lon="12.4971724"><ele>256.0</ele><time>2026-04-16T17:33:21.028Z</time></trkpt><trkpt lat="43.1102105" lon="12.4971097"><ele>256.0</ele><time>2026-04-16T17:33:23.028Z</time></trkpt><trkpt lat="43.1101361" lon="12.4970496"><ele>255.99999999999997</ele><time>2026-04-16T17:33:25.028Z</time></trkpt><trkpt lat="43.1100665" lon="12.4969759"><ele>256.0</ele><time>2026-04-16T17:33:27.028Z</time></trkpt><trkpt lat="43.1099893" lon="12.4969027"><ele>255.83333333333331</ele><time>2026-04-16T17:33:29.028Z</time></trkpt><trkpt lat="43.1099162" lon="12.496831"><ele>255.66666666666666</ele><time>2026-04-16T17:33:31.028Z</time></trkpt><trkpt lat="43.1098465" lon="12.4967629"><ele>255.5</ele><time>2026-04-16T17:33:33.028Z</time></trkpt><trkpt lat="43.1097773" lon="12.4966962"><ele>255.33333333333331</ele><time>2026-04-16T17:33:35.028Z</time></trkpt><trkpt lat="43.1097191" lon="12.4966165"><ele>255.16666666666666</ele><time>2026-04-16T17:33:37.028Z</time></trkpt><trkpt lat="43.1096667" lon="12.4965314"><ele>255.0</ele><time>2026-04-16T17:33:39.028Z</time></trkpt><trkpt lat="43.1096093" lon="12.4964496"><ele>255.16666666666666</ele><time>2026-04-16T17:33:41.028Z</time></trkpt><trkpt lat="43.1095554" lon="12.4963762"><ele>255.33333333333331</ele><time>2026-04-16T17:33:43.028Z</time></trkpt><trkpt lat="43.1095034" lon="12.4962996"><ele>255.5</ele><time>2026-04-16T17:33:45.028Z</time></trkpt><trkpt lat="43.1094527" lon="12.4962164"><ele>255.66666666666666</ele><time>2026-04-16T17:33:47.028Z</time></trkpt><trkpt lat="43.1094049" lon="12.496124"><ele>255.83333333333331</ele><time>2026-04-16T17:33:49.028Z</time></trkpt><trkpt lat="43.1093439" lon="12.4960261"><ele>256.0</ele><time>2026-04-16T17:33:51.028Z</time></trkpt><trkpt lat="43.1092713" lon="12.4959195"><ele>255.99999999999997</ele><time>2026-04-16T17:33:53.028Z</time></trkpt><trkpt lat="43.1091995" lon="12.4957979"><ele>256.0</ele><time>2026-04-16T17:33:55.028Z</time></trkpt><trkpt lat="43.1091207" lon="12.4956661"><ele>256.0</ele><time>2026-04-16T17:33:57.028Z</time></trkpt><trkpt lat="43.1090778" lon="12.4955973"><ele>256.0</ele><time>2026-04-16T17:33:58.028Z</time></trkpt><trkpt lat="43.109036" lon="12.4955226"><ele>255.99999999999997</ele><time>2026-04-16T17:33:59.028Z</time></trkpt><trkpt lat="43.108995" lon="12.4954495"><ele>256.0</ele><time>2026-04-16T17:34:00.028Z</time></trkpt><trkpt lat="43.1089501" lon="12.4953768"><ele>255.85714285714283</ele><time>2026-04-16T17:34:01.028Z</time></trkpt><trkpt lat="43.1089039" lon="12.4953003"><ele>255.7142857142857</ele><time>2026-04-16T17:34:02.028Z</time></trkpt><trkpt lat="43.1088579" lon="12.4952232"><ele>255.57142857142856</ele><time>2026-04-16T17:34:03.028Z</time></trkpt><trkpt lat="43.1088103" lon="12.4951445"><ele>255.42857142857144</ele><time>2026-04-16T17:34:04.028Z</time></trkpt><trkpt lat="43.1087614" lon="12.4950663"><ele>255.2857142857143</ele><time>2026-04-16T17:34:05.028Z</time></trkpt><trkpt lat="43.1087091" lon="12.4949972"><ele>255.14285714285717</ele><time>2026-04-16T17:34:06.028Z</time></trkpt><trkpt lat="43.1086577" lon="12.4949233"><ele>255.0</ele><time>2026-04-16T17:34:07.028Z</time></trkpt><trkpt lat="43.1086038" lon="12.4948544"><ele>255.0</ele><time>2026-04-16T17:34:08.028Z</time></trkpt><trkpt lat="43.1085482" lon="12.4947795"><ele>255.0</ele><time>2026-04-16T17:34:09.028Z</time></trkpt><trkpt lat="43.1084924" lon="12.4947033"><ele>255.0</ele><time>2026-04-16T17:34:10.028Z</time></trkpt><trkpt lat="43.1084312" lon="12.494634"><ele>255.0</ele><time>2026-04-16T17:34:11.028Z</time></trkpt><trkpt lat="43.1083697" lon="12.4945694"><ele>255.0</ele><time>2026-04-16T17:34:12.028Z</time></trkpt><trkpt lat="43.1083048" lon="12.4945028"><ele>255.0</ele><time>2026-04-16T17:34:13.028Z</time></trkpt><trkpt lat="43.10824" lon="12.4944399"><ele>253.83333333333334</ele><time>2026-04-16T17:34:14.027Z</time></trkpt><trkpt lat="43.108176" lon="12.4943739"><ele>252.66666666666669</ele><time>2026-04-16T17:34:15.028Z</time></trkpt><trkpt lat="43.1081081" lon="12.4943118"><ele>251.5</ele><time>2026-04-16T17:34:16.027Z</time></trkpt><trkpt lat="43.1080416" lon="12.4942549"><ele>250.33333333333334</ele><time>2026-04-16T17:34:17.028Z</time></trkpt><trkpt lat="43.1079753" lon="12.4941846"><ele>249.16666666666669</ele><time>2026-04-16T17:34:18.028Z</time></trkpt><trkpt lat="43.1079102" lon="12.4941135"><ele>248.0</ele><time>2026-04-16T17:34:19.028Z</time></trkpt><trkpt lat="43.1078386" lon="12.4940518"><ele>248.0</ele><time>2026-04-16T17:34:20.028Z</time></trkpt><trkpt lat="43.1077732" lon="12.4939886"><ele>248.00000000000003</ele><time>2026-04-16T17:34:21.028Z</time></trkpt><trkpt lat="43.1077125" lon="12.493924"><ele>248.0</ele><time>2026-04-16T17:34:22.028Z</time></trkpt><trkpt lat="43.1076519" lon="12.4938661"><ele>248.0</ele><time>2026-04-16T17:34:23.028Z</time></trkpt><trkpt lat="43.1075947" lon="12.4938061"><ele>248.00000000000003</ele><time>2026-04-16T17:34:24.028Z</time></trkpt><trkpt lat="43.1075445" lon="12.4937453"><ele>248.0</ele><time>2026-04-16T17:34:25.028Z</time></trkpt><trkpt lat="43.1074938" lon="12.493693"><ele>248.0</ele><time>2026-04-16T17:34:26.028Z</time></trkpt><trkpt lat="43.1074049" lon="12.4935763"><ele>248.4</ele><time>2026-04-16T17:34:28.028Z</time></trkpt><trkpt lat="43.1073191" lon="12.4934728"><ele>248.8</ele><time>2026-04-16T17:34:30.028Z</time></trkpt><trkpt lat="43.1072382" lon="12.4933654"><ele>249.2</ele><time>2026-04-16T17:34:32.028Z</time></trkpt><trkpt lat="43.1071602" lon="12.4932655"><ele>249.6</ele><time>2026-04-16T17:34:34.028Z</time></trkpt><trkpt lat="43.1070884" lon="12.493166"><ele>250.0</ele><time>2026-04-16T17:34:36.028Z</time></trkpt><trkpt lat="43.1070064" lon="12.4930589"><ele>250.0</ele><time>2026-04-16T17:34:38.028Z</time></trkpt><trkpt lat="43.1069317" lon="12.4929621"><ele>250.0</ele><time>2026-04-16T17:34:40.028Z</time></trkpt><trkpt lat="43.1068554" lon="12.4928646"><ele>250.0</ele><time>2026-04-16T17:34:42.028Z</time></trkpt><trkpt lat="43.1067796" lon="12.4927599"><ele>250.0</ele><time>2026-04-16T17:34:44.028Z</time></trkpt><trkpt lat="43.1067045" lon="12.4926518"><ele>250.0</ele><time>2026-04-16T17:34:46.027Z</time></trkpt><trkpt lat="43.1066293" lon="12.4925487"><ele>250.2</ele><time>2026-04-16T17:34:48.027Z</time></trkpt><trkpt lat="43.106552" lon="12.4924493"><ele>250.4</ele><time>2026-04-16T17:34:50.028Z</time></trkpt><trkpt lat="43.1064795" lon="12.4923515"><ele>250.60000000000002</ele><time>2026-04-16T17:34:52.028Z</time></trkpt><trkpt lat="43.1064049" lon="12.4922525"><ele>250.8</ele><time>2026-04-16T17:34:54.028Z</time></trkpt><trkpt lat="43.106333" lon="12.4921498"><ele>251.0</ele><time>2026-04-16T17:34:56.028Z</time></trkpt><trkpt lat="43.1062612" lon="12.4920526"><ele>251.4</ele><time>2026-04-16T17:34:58.028Z</time></trkpt><trkpt lat="43.1061845" lon="12.4919569"><ele>251.8</ele><time>2026-04-16T17:35:00.028Z</time></trkpt><trkpt lat="43.1061132" lon="12.4918529"><ele>252.20000000000002</ele><time>2026-04-16T17:35:02.028Z</time></trkpt><trkpt lat="43.1060425" lon="12.4917582"><ele>252.60000000000002</ele><time>2026-04-16T17:35:04.028Z</time></trkpt><trkpt lat="43.1059673" lon="12.4916811"><ele>253.0</ele><time>2026-04-16T17:35:06.028Z</time></trkpt><trkpt lat="43.1058843" lon="12.4916265"><ele>253.0</ele><time>2026-04-16T17:35:08.028Z</time></trkpt><trkpt lat="43.1058044" lon="12.4915794"><ele>253.0</ele><time>2026-04-16T17:35:10.028Z</time></trkpt><trkpt lat="43.1057144" lon="12.4915463"><ele>253.0</ele><time>2026-04-16T17:35:12.028Z</time></trkpt><trkpt lat="43.1056197" lon="12.4915101"><ele>253.0</ele><time>2026-04-16T17:35:14.028Z</time></trkpt><trkpt lat="43.1055264" lon="12.4914806"><ele>253.0</ele><time>2026-04-16T17:35:16.028Z</time></trkpt><trkpt lat="43.1054285" lon="12.4914534"><ele>252.99999999999997</ele><time>2026-04-16T17:35:18.028Z</time></trkpt><trkpt lat="43.1053438" lon="12.4914484"><ele>253.0</ele><time>2026-04-16T17:35:20.028Z</time></trkpt><trkpt lat="43.105251" lon="12.4914335"><ele>253.0</ele><time>2026-04-16T17:35:22.028Z</time></trkpt><trkpt lat="43.1051794" lon="12.4914092"><ele>253.0</ele><time>2026-04-16T17:35:24.028Z</time></trkpt><trkpt lat="43.1051016" lon="12.4913876"><ele>252.99999999999997</ele><time>2026-04-16T17:35:26.028Z</time></trkpt><trkpt lat="43.1050073" lon="12.4913663"><ele>253.0</ele><time>2026-04-16T17:35:28.028Z</time></trkpt><trkpt lat="43.1049151" lon="12.4913445"><ele>253.16666666666666</ele><time>2026-04-16T17:35:30.028Z</time></trkpt><trkpt lat="43.1048294" lon="12.4913214"><ele>253.33333333333331</ele><time>2026-04-16T17:35:32.028Z</time></trkpt><trkpt lat="43.1047428" lon="12.4912854"><ele>253.5</ele><time>2026-04-16T17:35:34.028Z</time></trkpt><trkpt lat="43.104666" lon="12.4912335"><ele>253.66666666666669</ele><time>2026-04-16T17:35:36.028Z</time></trkpt><trkpt lat="43.1046002" lon="12.4911864"><ele>253.83333333333334</ele><time>2026-04-16T17:35:38.028Z</time></trkpt><trkpt lat="43.1045201" lon="12.4911446"><ele>254.0</ele><time>2026-04-16T17:35:40.028Z</time></trkpt><trkpt lat="43.1044538" lon="12.4911164"><ele>255.00000000000003</ele><time>2026-04-16T17:35:42.028Z</time></trkpt><trkpt lat="43.1043779" lon="12.4910979"><ele>256.0</ele><time>2026-04-16T17:35:44.028Z</time></trkpt><trkpt lat="43.1043178" lon="12.4910678"><ele>257.0</ele><time>2026-04-16T17:35:46.027Z</time></trkpt><trkpt lat="43.1042479" lon="12.4909892"><ele>258.0</ele><time>2026-04-16T17:35:49.028Z</time></trkpt><trkpt lat="43.1042207" lon="12.4908917"><ele>259.0</ele><time>2026-04-16T17:35:51.028Z</time></trkpt><trkpt lat="43.1041939" lon="12.4907911"><ele>260.0</ele><time>2026-04-16T17:35:53.028Z</time></trkpt><trkpt lat="43.1041637" lon="12.4906823"><ele>260.0</ele><time>2026-04-16T17:35:55.028Z</time></trkpt><trkpt lat="43.1041477" lon="12.490535"><ele>260.0</ele><time>2026-04-16T17:35:57.028Z</time></trkpt><trkpt lat="43.1041395" lon="12.4903903"><ele>260.0</ele><time>2026-04-16T17:35:59.028Z</time></trkpt><trkpt lat="43.1041354" lon="12.4902482"><ele>260.0</ele><time>2026-04-16T17:36:01.028Z</time></trkpt><trkpt lat="43.1041152" lon="12.4900967"><ele>260.0</ele><time>2026-04-16T17:36:03.028Z</time></trkpt><trkpt lat="43.1040546" lon="12.4900421"><ele>258.1666666666667</ele><time>2026-04-16T17:36:04.028Z</time></trkpt><trkpt lat="43.1039906" lon="12.4899886"><ele>256.33333333333337</ele><time>2026-04-16T17:36:05.028Z</time></trkpt><trkpt lat="43.1039255" lon="12.4899284"><ele>254.5</ele><time>2026-04-16T17:36:06.028Z</time></trkpt><trkpt lat="43.1038537" lon="12.4898774"><ele>252.66666666666669</ele><time>2026-04-16T17:36:07.028Z</time></trkpt><trkpt lat="43.1037985" lon="12.4898199"><ele>250.83333333333334</ele><time>2026-04-16T17:36:08.028Z</time></trkpt><trkpt lat="43.1037315" lon="12.489756"><ele>249.0</ele><time>2026-04-16T17:36:09.028Z</time></trkpt><trkpt lat="43.1036668" lon="12.4896832"><ele>249.0</ele><time>2026-04-16T17:36:10.028Z</time></trkpt><trkpt lat="43.1035907" lon="12.4896189"><ele>249.0</ele><time>2026-04-16T17:36:11.028Z</time></trkpt><trkpt lat="43.1035092" lon="12.4895925"><ele>249.0</ele><time>2026-04-16T17:36:12.028Z</time></trkpt><trkpt lat="43.1034131" lon="12.4895965"><ele>249.0</ele><time>2026-04-16T17:36:13.028Z</time></trkpt><trkpt lat="43.1033243" lon="12.4895922"><ele>249.0</ele><time>2026-04-16T17:36:14.028Z</time></trkpt><trkpt lat="43.103245" lon="12.4895443"><ele>249.0</ele><time>2026-04-16T17:36:15.028Z</time></trkpt><trkpt lat="43.1031811" lon="12.4894543"><ele>248.16666666666666</ele><time>2026-04-16T17:36:16.027Z</time></trkpt><trkpt lat="43.1031746" lon="12.4893578"><ele>247.33333333333331</ele><time>2026-04-16T17:36:17.028Z</time></trkpt><trkpt lat="43.1031482" lon="12.4891707"><ele>246.5</ele><time>2026-04-16T17:36:19.028Z</time></trkpt><trkpt lat="43.1031373" lon="12.4890727"><ele>245.66666666666666</ele><time>2026-04-16T17:36:20.028Z</time></trkpt><trkpt lat="43.1031132" lon="12.4889794"><ele>244.83333333333331</ele><time>2026-04-16T17:36:21.028Z</time></trkpt><trkpt lat="43.1030805" lon="12.4888815"><ele>244.0</ele><time>2026-04-16T17:36:22.028Z</time></trkpt><trkpt lat="43.1030562" lon="12.4887937"><ele>243.83333333333331</ele><time>2026-04-16T17:36:23.028Z</time></trkpt><trkpt lat="43.1030265" lon="12.4887073"><ele>243.66666666666666</ele><time>2026-04-16T17:36:24.028Z</time></trkpt><trkpt lat="43.1029956" lon="12.4886229"><ele>243.5</ele><time>2026-04-16T17:36:25.028Z</time></trkpt><trkpt lat="43.1029647" lon="12.4885472"><ele>243.33333333333331</ele><time>2026-04-16T17:36:26.028Z</time></trkpt><trkpt lat="43.1029203" lon="12.4884043"><ele>243.16666666666666</ele><time>2026-04-16T17:36:28.028Z</time></trkpt><trkpt lat="43.1028962" lon="12.4882941"><ele>243.0</ele><time>2026-04-16T17:36:30.028Z</time></trkpt><trkpt lat="43.1028765" lon="12.4882044"><ele>243.0</ele><time>2026-04-16T17:36:32.028Z</time></trkpt><trkpt lat="43.1028207" lon="12.4881455"><ele>243.0</ele><time>2026-04-16T17:36:35.028Z</time></trkpt><trkpt lat="43.1027423" lon="12.4881828"><ele>243.0</ele><time>2026-04-16T17:36:38.028Z</time></trkpt><trkpt lat="43.1026551" lon="12.4882119"><ele>243.0</ele><time>2026-04-16T17:36:41.028Z</time></trkpt><trkpt lat="43.10258" lon="12.4882551"><ele>243.0</ele><time>2026-04-16T17:36:44.028Z</time></trkpt><trkpt lat="43.1025191" lon="12.4882933"><ele>243.0</ele><time>2026-04-16T17:36:47.028Z</time></trkpt><trkpt lat="43.1025869" lon="12.4882623"><ele>243.0</ele><time>2026-04-16T17:36:54.028Z</time></trkpt><trkpt lat="43.1026514" lon="12.4882296"><ele>243.0</ele><time>2026-04-16T17:36:59.028Z</time></trkpt><trkpt lat="43.102718" lon="12.4881847"><ele>243.0</ele><time>2026-04-16T17:37:04.028Z</time></trkpt><trkpt lat="43.1027814" lon="12.4881483"><ele>243.0</ele><time>2026-04-16T17:37:09.028Z</time></trkpt><trkpt lat="43.1028548" lon="12.4881564"><ele>243.0</ele><time>2026-04-16T17:37:18.028Z</time></trkpt><trkpt lat="43.1029158" lon="12.4880804"><ele>243.0</ele><time>2026-04-16T17:37:20.028Z</time></trkpt><trkpt lat="43.103024" lon="12.4880099"><ele>243.0</ele><time>2026-04-16T17:37:22.028Z</time></trkpt><trkpt lat="43.1031504" lon="12.4879681"><ele>243.0</ele><time>2026-04-16T17:37:24.028Z</time></trkpt><trkpt lat="43.1032285" lon="12.4879571"><ele>243.0</ele><time>2026-04-16T17:37:25.028Z</time></trkpt><trkpt lat="43.1033047" lon="12.487949"><ele>243.0</ele><time>2026-04-16T17:37:26.028Z</time></trkpt><trkpt lat="43.1033837" lon="12.4879433"><ele>243.0</ele><time>2026-04-16T17:37:27.028Z</time></trkpt><trkpt lat="43.1034661" lon="12.4879387"><ele>243.0</ele><time>2026-04-16T17:37:28.028Z</time></trkpt><trkpt lat="43.1035743" lon="12.4879149"><ele>241.0</ele><time>2026-04-16T17:37:29.028Z</time></trkpt><trkpt lat="43.1036703" lon="12.4879035"><ele>239.0</ele><time>2026-04-16T17:37:30.028Z</time></trkpt><trkpt lat="43.1037704" lon="12.4878884"><ele>237.0</ele><time>2026-04-16T17:37:31.028Z</time></trkpt><trkpt lat="43.103872" lon="12.4878787"><ele>235.0</ele><time>2026-04-16T17:37:32.028Z</time></trkpt><trkpt lat="43.1039773" lon="12.4878628"><ele>233.0</ele><time>2026-04-16T17:37:33.028Z</time></trkpt><trkpt lat="43.1040752" lon="12.4878339"><ele>231.33333333333334</ele><time>2026-04-16T17:37:34.028Z</time></trkpt><trkpt lat="43.1041676" lon="12.487822"><ele>229.66666666666669</ele><time>2026-04-16T17:37:35.028Z</time></trkpt><trkpt lat="43.1042513" lon="12.4878073"><ele>228.0</ele><time>2026-04-16T17:37:36.028Z</time></trkpt><trkpt lat="43.104326" lon="12.487797"><ele>226.33333333333331</ele><time>2026-04-16T17:37:37.028Z</time></trkpt><trkpt lat="43.104398" lon="12.4877877"><ele>224.66666666666666</ele><time>2026-04-16T17:37:38.028Z</time></trkpt><trkpt lat="43.1044647" lon="12.4877332"><ele>223.0</ele><time>2026-04-16T17:37:39.028Z</time></trkpt><trkpt lat="43.1044833" lon="12.4876275"><ele>222.99999999999997</ele><time>2026-04-16T17:37:40.028Z</time></trkpt><trkpt lat="43.1044842" lon="12.4875013"><ele>223.0</ele><time>2026-04-16T17:37:41.028Z</time></trkpt><trkpt lat="43.1044763" lon="12.487389"><ele>223.0</ele><time>2026-04-16T17:37:42.028Z</time></trkpt><trkpt lat="43.1044652" lon="12.487295"><ele>223.0</ele><time>2026-04-16T17:37:43.028Z</time></trkpt><trkpt lat="43.1044456" lon="12.4871929"><ele>222.99999999999997</ele><time>2026-04-16T17:37:45.028Z</time></trkpt><trkpt lat="43.1044115" lon="12.4870825"><ele>223.0</ele><time>2026-04-16T17:37:50.028Z</time></trkpt><trkpt lat="43.1043858" lon="12.4869964"><ele>222.28571428571428</ele><time>2026-04-16T17:37:54.028Z</time></trkpt><trkpt lat="43.1043663" lon="12.4869091"><ele>221.57142857142856</ele><time>2026-04-16T17:38:50.036Z</time></trkpt><trkpt lat="43.1043546" lon="12.486822"><ele>220.85714285714286</ele><time>2026-04-16T17:38:53.036Z</time></trkpt><trkpt lat="43.104338" lon="12.4867373"><ele>220.14285714285714</ele><time>2026-04-16T17:38:57.036Z</time></trkpt><trkpt lat="43.1043119" lon="12.4866496"><ele>219.42857142857144</ele><time>2026-04-16T17:39:08.036Z</time></trkpt><trkpt lat="43.1042864" lon="12.4865633"><ele>218.71428571428572</ele><time>2026-04-16T17:39:14.036Z</time></trkpt><trkpt lat="43.1042684" lon="12.4864646"><ele>218.0</ele><time>2026-04-16T17:39:21.036Z</time></trkpt><trkpt lat="43.1042484" lon="12.4863725"><ele>218.0</ele><time>2026-04-16T17:39:27.036Z</time></trkpt><trkpt lat="43.1042205" lon="12.4862871"><ele>218.0</ele><time>2026-04-16T17:39:32.036Z</time></trkpt><trkpt lat="43.1042003" lon="12.4861997"><ele>218.0</ele><time>2026-04-16T17:39:39.036Z</time></trkpt><trkpt lat="43.1041958" lon="12.4861131"><ele>218.0</ele><time>2026-04-16T17:39:56.036Z</time></trkpt><trkpt lat="43.1041691" lon="12.4860041"><ele>218.0</ele><time>2026-04-16T17:40:11.036Z</time></trkpt><trkpt lat="43.1041373" lon="12.4859006"><ele>218.0</ele><time>2026-04-16T17:40:22.036Z</time></trkpt><trkpt lat="43.1041314" lon="12.4858123"><ele>218.0</ele><time>2026-04-16T17:40:24.036Z</time></trkpt><trkpt lat="43.1041093" lon="12.4857245"><ele>217.00000000000003</ele><time>2026-04-16T17:40:26.036Z</time></trkpt><trkpt lat="43.1040964" lon="12.4856304"><ele>216.0</ele><time>2026-04-16T17:40:28.036Z</time></trkpt><trkpt lat="43.1040805" lon="12.4855348"><ele>215.0</ele><time>2026-04-16T17:40:30.036Z</time></trkpt><trkpt lat="43.104071" lon="12.4854225"><ele>214.0</ele><time>2026-04-16T17:40:32.036Z</time></trkpt><trkpt lat="43.1040513" lon="12.4852531"><ele>213.00000000000003</ele><time>2026-04-16T17:40:34.036Z</time></trkpt><trkpt lat="43.1040393" lon="12.4851505"><ele>212.0</ele><time>2026-04-16T17:40:35.036Z</time></trkpt><trkpt lat="43.104028" lon="12.4850414"><ele>212.0</ele><time>2026-04-16T17:40:36.036Z</time></trkpt><trkpt lat="43.1040157" lon="12.4849231"><ele>212.0</ele><time>2026-04-16T17:40:37.036Z</time></trkpt><trkpt lat="43.1040025" lon="12.4847917"><ele>212.0</ele><time>2026-04-16T17:40:38.036Z</time></trkpt><trkpt lat="43.1039964" lon="12.484656"><ele>212.0</ele><time>2026-04-16T17:40:39.036Z</time></trkpt><trkpt lat="43.1039956" lon="12.4845222"><ele>212.0</ele><time>2026-04-16T17:40:40.036Z</time></trkpt><trkpt lat="43.1039985" lon="12.4843962"><ele>210.8</ele><time>2026-04-16T17:40:41.036Z</time></trkpt><trkpt lat="43.1040009" lon="12.4842372"><ele>209.6</ele><time>2026-04-16T17:40:42.036Z</time></trkpt><trkpt lat="43.1040059" lon="12.4841112"><ele>208.4</ele><time>2026-04-16T17:40:43.036Z</time></trkpt><trkpt lat="43.1040513" lon="12.4839478"><ele>207.20000000000002</ele><time>2026-04-16T17:40:44.036Z</time></trkpt><trkpt lat="43.1040867" lon="12.4838083"><ele>206.0</ele><time>2026-04-16T17:40:45.036Z</time></trkpt><trkpt lat="43.1041171" lon="12.4836623"><ele>204.4</ele><time>2026-04-16T17:40:46.036Z</time></trkpt><trkpt lat="43.1041472" lon="12.4835244"><ele>202.8</ele><time>2026-04-16T17:40:47.036Z</time></trkpt><trkpt lat="43.104178" lon="12.4833945"><ele>201.20000000000002</ele><time>2026-04-16T17:40:48.036Z</time></trkpt><trkpt lat="43.1042053" lon="12.4832773"><ele>199.60000000000002</ele><time>2026-04-16T17:40:49.036Z</time></trkpt><trkpt lat="43.1042294" lon="12.4831642"><ele>198.0</ele><time>2026-04-16T17:40:50.036Z</time></trkpt><trkpt lat="43.1042539" lon="12.4830609"><ele>198.0</ele><time>2026-04-16T17:40:51.036Z</time></trkpt><trkpt lat="43.1042784" lon="12.4829651"><ele>198.0</ele><time>2026-04-16T17:40:52.036Z</time></trkpt><trkpt lat="43.1042994" lon="12.4828719"><ele>198.0</ele><time>2026-04-16T17:40:53.036Z</time></trkpt><trkpt lat="43.1043166" lon="12.4827848"><ele>198.0</ele><time>2026-04-16T17:40:54.035Z</time></trkpt><trkpt lat="43.1043459" lon="12.4826216"><ele>198.0</ele><time>2026-04-16T17:40:56.036Z</time></trkpt><trkpt lat="43.104368" lon="12.4824743"><ele>198.0</ele><time>2026-04-16T17:40:58.036Z</time></trkpt><trkpt lat="43.1043802" lon="12.4823361"><ele>197.8</ele><time>2026-04-16T17:41:00.036Z</time></trkpt><trkpt lat="43.104386" lon="12.482197"><ele>197.60000000000002</ele><time>2026-04-16T17:41:02.036Z</time></trkpt><trkpt lat="43.104393" lon="12.4820519"><ele>197.39999999999998</ele><time>2026-04-16T17:41:04.036Z</time></trkpt><trkpt lat="43.1043916" lon="12.4819074"><ele>197.2</ele><time>2026-04-16T17:41:06.036Z</time></trkpt><trkpt lat="43.1043945" lon="12.481757"><ele>197.0</ele><time>2026-04-16T17:41:08.036Z</time></trkpt><trkpt lat="43.1043951" lon="12.4815965"><ele>196.75</ele><time>2026-04-16T17:41:10.036Z</time></trkpt><trkpt lat="43.104393" lon="12.4814427"><ele>196.5</ele><time>2026-04-16T17:41:12.036Z</time></trkpt><trkpt lat="43.1043908" lon="12.4812849"><ele>196.25</ele><time>2026-04-16T17:41:14.036Z</time></trkpt><trkpt lat="43.1043945" lon="12.4811239"><ele>196.0</ele><time>2026-04-16T17:41:16.036Z</time></trkpt><trkpt lat="43.1043967" lon="12.4809609"><ele>196.5</ele><time>2026-04-16T17:41:18.036Z</time></trkpt><trkpt lat="43.1043992" lon="12.4807998"><ele>197.0</ele><time>2026-04-16T17:41:20.036Z</time></trkpt><trkpt lat="43.1044022" lon="12.4806371"><ele>197.5</ele><time>2026-04-16T17:41:22.036Z</time></trkpt><trkpt lat="43.1043951" lon="12.4804723"><ele>198.0</ele><time>2026-04-16T17:41:24.036Z</time></trkpt><trkpt lat="43.104396" lon="12.4803056"><ele>198.25</ele><time>2026-04-16T17:41:26.036Z</time></trkpt><trkpt lat="43.1044059" lon="12.4801482"><ele>198.5</ele><time>2026-04-16T17:41:28.036Z</time></trkpt><trkpt lat="43.1043992" lon="12.4799834"><ele>198.75</ele><time>2026-04-16T17:41:30.036Z</time></trkpt><trkpt lat="43.1044098" lon="12.479822"><ele>199.0</ele><time>2026-04-16T17:41:32.036Z</time></trkpt><trkpt lat="43.104423" lon="12.4796705"><ele>199.0</ele><time>2026-04-16T17:41:34.036Z</time></trkpt><trkpt lat="43.1044458" lon="12.4795156"><ele>199.0</ele><time>2026-04-16T17:41:36.036Z</time></trkpt><trkpt lat="43.1044708" lon="12.4793603"><ele>199.0</ele><time>2026-04-16T17:41:38.036Z</time></trkpt><trkpt lat="43.1044968" lon="12.4792155"><ele>199.0</ele><time>2026-04-16T17:41:40.036Z</time></trkpt><trkpt lat="43.1045336" lon="12.4790738"><ele>199.0</ele><time>2026-04-16T17:41:42.036Z</time></trkpt><trkpt lat="43.1045634" lon="12.478922"><ele>199.0</ele><time>2026-04-16T17:41:44.036Z</time></trkpt><trkpt lat="43.104602" lon="12.4787776"><ele>199.0</ele><time>2026-04-16T17:41:46.036Z</time></trkpt><trkpt lat="43.1046436" lon="12.4786316"><ele>199.0</ele><time>2026-04-16T17:41:48.036Z</time></trkpt><trkpt lat="43.1046773" lon="12.4784769"><ele>198.5</ele><time>2026-04-16T17:41:50.036Z</time></trkpt><trkpt lat="43.1047128" lon="12.4783217"><ele>198.0</ele><time>2026-04-16T17:41:52.036Z</time></trkpt><trkpt lat="43.1047457" lon="12.4781603"><ele>197.5</ele><time>2026-04-16T17:41:54.036Z</time></trkpt><trkpt lat="43.1047822" lon="12.477998"><ele>197.0</ele><time>2026-04-16T17:41:56.036Z</time></trkpt><trkpt lat="43.1048241" lon="12.4778451"><ele>196.83333333333334</ele><time>2026-04-16T17:41:58.035Z</time></trkpt><trkpt lat="43.1048633" lon="12.4776834"><ele>196.66666666666669</ele><time>2026-04-16T17:42:00.036Z</time></trkpt><trkpt lat="43.104883" lon="12.4776009"><ele>196.5</ele><time>2026-04-16T17:42:01.036Z</time></trkpt><trkpt lat="43.1049037" lon="12.4775171"><ele>196.33333333333331</ele><time>2026-04-16T17:42:02.036Z</time></trkpt><trkpt lat="43.1049481" lon="12.4773504"><ele>196.16666666666666</ele><time>2026-04-16T17:42:04.036Z</time></trkpt><trkpt lat="43.104974" lon="12.4772692"><ele>196.0</ele><time>2026-04-16T17:42:05.036Z</time></trkpt><trkpt lat="43.1050023" lon="12.4771895"><ele>195.85714285714286</ele><time>2026-04-16T17:42:06.036Z</time></trkpt><trkpt lat="43.1050397" lon="12.4771101"><ele>195.71428571428572</ele><time>2026-04-16T17:42:07.036Z</time></trkpt><trkpt lat="43.1050812" lon="12.4770302"><ele>195.57142857142856</ele><time>2026-04-16T17:42:08.036Z</time></trkpt><trkpt lat="43.1051272" lon="12.4769541"><ele>195.42857142857144</ele><time>2026-04-16T17:42:09.036Z</time></trkpt><trkpt lat="43.1051752" lon="12.4768829"><ele>195.28571428571428</ele><time>2026-04-16T17:42:10.036Z</time></trkpt><trkpt lat="43.1052233" lon="12.4768164"><ele>195.14285714285714</ele><time>2026-04-16T17:42:11.036Z</time></trkpt><trkpt lat="43.1052715" lon="12.4767487"><ele>195.0</ele><time>2026-04-16T17:42:12.036Z</time></trkpt><trkpt lat="43.1053222" lon="12.4766842"><ele>194.71428571428572</ele><time>2026-04-16T17:42:13.036Z</time></trkpt><trkpt lat="43.1053707" lon="12.4766229"><ele>194.42857142857142</ele><time>2026-04-16T17:42:14.036Z</time></trkpt><trkpt lat="43.1054718" lon="12.476522"><ele>194.14285714285717</ele><time>2026-04-16T17:42:16.036Z</time></trkpt><trkpt lat="43.1055243" lon="12.4764669"><ele>193.85714285714286</ele><time>2026-04-16T17:42:17.036Z</time></trkpt><trkpt lat="43.1055753" lon="12.4764159"><ele>193.57142857142858</ele><time>2026-04-16T17:42:18.036Z</time></trkpt><trkpt lat="43.1056262" lon="12.476361"><ele>193.2857142857143</ele><time>2026-04-16T17:42:19.036Z</time></trkpt><trkpt lat="43.1056791" lon="12.4763121"><ele>193.0</ele><time>2026-04-16T17:42:20.036Z</time></trkpt><trkpt lat="43.1057323" lon="12.4762645"><ele>192.66666666666666</ele><time>2026-04-16T17:42:21.036Z</time></trkpt><trkpt lat="43.1057841" lon="12.4762068"><ele>192.33333333333331</ele><time>2026-04-16T17:42:22.036Z</time></trkpt><trkpt lat="43.1058379" lon="12.4761606"><ele>192.0</ele><time>2026-04-16T17:42:23.036Z</time></trkpt><trkpt lat="43.1058938" lon="12.4761128"><ele>191.66666666666666</ele><time>2026-04-16T17:42:24.036Z</time></trkpt><trkpt lat="43.105993" lon="12.4760107"><ele>191.33333333333331</ele><time>2026-04-16T17:42:26.036Z</time></trkpt><trkpt lat="43.1060439" lon="12.4759592"><ele>191.0</ele><time>2026-04-16T17:42:27.036Z</time></trkpt><trkpt lat="43.1061377" lon="12.4758525"><ele>191.0</ele><time>2026-04-16T17:42:29.036Z</time></trkpt><trkpt lat="43.1061881" lon="12.4758003"><ele>191.0</ele><time>2026-04-16T17:42:30.036Z</time></trkpt><trkpt lat="43.1062798" lon="12.4756973"><ele>191.0</ele><time>2026-04-16T17:42:32.036Z</time></trkpt><trkpt lat="43.106379" lon="12.475601"><ele>191.0</ele><time>2026-04-16T17:42:34.036Z</time></trkpt><trkpt lat="43.106477" lon="12.4754966"><ele>191.0</ele><time>2026-04-16T17:42:36.036Z</time></trkpt><trkpt lat="43.1065305" lon="12.4754397"><ele>191.60000000000002</ele><time>2026-04-16T17:42:37.036Z</time></trkpt><trkpt lat="43.1065792" lon="12.4753834"><ele>192.2</ele><time>2026-04-16T17:42:38.036Z</time></trkpt><trkpt lat="43.1066774" lon="12.475281"><ele>192.8</ele><time>2026-04-16T17:42:40.036Z</time></trkpt><trkpt lat="43.1067694" lon="12.4751837"><ele>193.39999999999998</ele><time>2026-04-16T17:42:42.036Z</time></trkpt><trkpt lat="43.1068724" lon="12.4751058"><ele>194.0</ele><time>2026-04-16T17:42:44.036Z</time></trkpt><trkpt lat="43.1069735" lon="12.4750556"><ele>194.00000000000003</ele><time>2026-04-16T17:42:46.036Z</time></trkpt><trkpt lat="43.10705" lon="12.4750265"><ele>194.0</ele><time>2026-04-16T17:42:48.036Z</time></trkpt><trkpt lat="43.1071174" lon="12.4750022"><ele>194.0</ele><time>2026-04-16T17:42:50.036Z</time></trkpt><trkpt lat="43.1072034" lon="12.4749653"><ele>194.0</ele><time>2026-04-16T17:42:53.036Z</time></trkpt><trkpt lat="43.1072898" lon="12.4749354"><ele>194.00000000000003</ele><time>2026-04-16T17:42:56.036Z</time></trkpt><trkpt lat="43.1073594" lon="12.4749198"><ele>194.0</ele><time>2026-04-16T17:42:58.036Z</time></trkpt><trkpt lat="43.1074253" lon="12.4749018"><ele>194.28571428571428</ele><time>2026-04-16T17:43:00.036Z</time></trkpt><trkpt lat="43.1074888" lon="12.4748767"><ele>194.57142857142858</ele><time>2026-04-16T17:43:02.036Z</time></trkpt><trkpt lat="43.1075575" lon="12.4748476"><ele>194.85714285714286</ele><time>2026-04-16T17:43:04.036Z</time></trkpt><trkpt lat="43.1076238" lon="12.4748291"><ele>195.14285714285714</ele><time>2026-04-16T17:43:06.036Z</time></trkpt><trkpt lat="43.1076921" lon="12.4748059"><ele>195.42857142857144</ele><time>2026-04-16T17:43:08.036Z</time></trkpt><trkpt lat="43.1077566" lon="12.4747871"><ele>195.71428571428572</ele><time>2026-04-16T17:43:10.036Z</time></trkpt><trkpt lat="43.1078271" lon="12.4747735"><ele>196.0</ele><time>2026-04-16T17:43:12.036Z</time></trkpt><trkpt lat="43.1078973" lon="12.4747489"><ele>195.99999999999997</ele><time>2026-04-16T17:43:14.036Z</time></trkpt><trkpt lat="43.1079607" lon="12.4747252"><ele>196.0</ele><time>2026-04-16T17:43:16.036Z</time></trkpt><trkpt lat="43.1080372" lon="12.4746949"><ele>196.0</ele><time>2026-04-16T17:43:19.036Z</time></trkpt><trkpt lat="43.1080952" lon="12.474623"><ele>196.0</ele><time>2026-04-16T17:43:23.036Z</time></trkpt><trkpt lat="43.1081419" lon="12.4745212"><ele>195.99999999999997</ele><time>2026-04-16T17:43:26.036Z</time></trkpt><trkpt lat="43.108186" lon="12.4744258"><ele>196.0</ele><time>2026-04-16T17:43:29.036Z</time></trkpt><trkpt lat="43.1082191" lon="12.474322"><ele>196.14285714285714</ele><time>2026-04-16T17:43:32.036Z</time></trkpt><trkpt lat="43.1082521" lon="12.4742122"><ele>196.28571428571428</ele><time>2026-04-16T17:43:35.036Z</time></trkpt><trkpt lat="43.1082703" lon="12.4740936"><ele>196.42857142857144</ele><time>2026-04-16T17:43:38.036Z</time></trkpt><trkpt lat="43.1082678" lon="12.4740006"><ele>196.57142857142856</ele><time>2026-04-16T17:43:40.036Z</time></trkpt><trkpt lat="43.1082584" lon="12.4739124"><ele>196.71428571428572</ele><time>2026-04-16T17:43:42.036Z</time></trkpt><trkpt lat="43.108249" lon="12.4738263"><ele>196.85714285714286</ele><time>2026-04-16T17:43:44.036Z</time></trkpt><trkpt lat="43.1082307" lon="12.473741"><ele>197.0</ele><time>2026-04-16T17:43:46.036Z</time></trkpt><trkpt lat="43.1081946" lon="12.4736222"><ele>196.33333333333334</ele><time>2026-04-16T17:43:49.036Z</time></trkpt><trkpt lat="43.1081828" lon="12.4735276"><ele>195.66666666666669</ele><time>2026-04-16T17:43:51.036Z</time></trkpt><trkpt lat="43.1081662" lon="12.4734347"><ele>195.0</ele><time>2026-04-16T17:43:53.036Z</time></trkpt><trkpt lat="43.1081392" lon="12.4733556"><ele>194.33333333333331</ele><time>2026-04-16T17:43:55.036Z</time></trkpt><trkpt lat="43.1081141" lon="12.4732423"><ele>193.66666666666666</ele><time>2026-04-16T17:43:57.036Z</time></trkpt><trkpt lat="43.1080855" lon="12.4731146"><ele>193.0</ele><time>2026-04-16T17:43:59.036Z</time></trkpt><trkpt lat="43.1080674" lon="12.472982"><ele>193.4</ele><time>2026-04-16T17:44:01.036Z</time></trkpt><trkpt lat="43.1080364" lon="12.4728328"><ele>193.8</ele><time>2026-04-16T17:44:03.036Z</time></trkpt><trkpt lat="43.1080036" lon="12.472667"><ele>194.2</ele><time>2026-04-16T17:44:05.036Z</time></trkpt><trkpt lat="43.1079906" lon="12.4725774"><ele>194.6</ele><time>2026-04-16T17:44:06.036Z</time></trkpt><trkpt lat="43.1079732" lon="12.4724831"><ele>195.0</ele><time>2026-04-16T17:44:07.036Z</time></trkpt><trkpt lat="43.1079536" lon="12.4723863"><ele>195.0</ele><time>2026-04-16T17:44:08.036Z</time></trkpt><trkpt lat="43.1079361" lon="12.4722877"><ele>195.0</ele><time>2026-04-16T17:44:09.036Z</time></trkpt><trkpt lat="43.1079184" lon="12.4721838"><ele>195.0</ele><time>2026-04-16T17:44:10.036Z</time></trkpt><trkpt lat="43.1079006" lon="12.472073"><ele>195.0</ele><time>2026-04-16T17:44:11.036Z</time></trkpt><trkpt lat="43.1078869" lon="12.4719625"><ele>195.0</ele><time>2026-04-16T17:44:12.036Z</time></trkpt><trkpt lat="43.1078728" lon="12.4718501"><ele>195.0</ele><time>2026-04-16T17:44:13.036Z</time></trkpt><trkpt lat="43.1078602" lon="12.4717335"><ele>194.83333333333334</ele><time>2026-04-16T17:44:14.036Z</time></trkpt><trkpt lat="43.1078502" lon="12.4716176"><ele>194.66666666666669</ele><time>2026-04-16T17:44:15.036Z</time></trkpt><trkpt lat="43.1078327" lon="12.4714975"><ele>194.5</ele><time>2026-04-16T17:44:16.036Z</time></trkpt><trkpt lat="43.1078196" lon="12.4713771"><ele>194.33333333333334</ele><time>2026-04-16T17:44:17.036Z</time></trkpt><trkpt lat="43.1078084" lon="12.4712557"><ele>194.16666666666669</ele><time>2026-04-16T17:44:18.036Z</time></trkpt><trkpt lat="43.1077958" lon="12.4711275"><ele>194.0</ele><time>2026-04-16T17:44:19.036Z</time></trkpt><trkpt lat="43.107784" lon="12.4709955"><ele>193.0</ele><time>2026-04-16T17:44:20.036Z</time></trkpt><trkpt lat="43.107775" lon="12.4708584"><ele>192.0</ele><time>2026-04-16T17:44:21.036Z</time></trkpt><trkpt lat="43.1077663" lon="12.4707224"><ele>191.0</ele><time>2026-04-16T17:44:22.036Z</time></trkpt><trkpt lat="43.107753" lon="12.4705836"><ele>190.0</ele><time>2026-04-16T17:44:23.036Z</time></trkpt><trkpt lat="43.1077407" lon="12.4704459"><ele>189.0</ele><time>2026-04-16T17:44:24.036Z</time></trkpt><trkpt lat="43.1077249" lon="12.4703114"><ele>188.79999999999998</ele><time>2026-04-16T17:44:25.036Z</time></trkpt><trkpt lat="43.1077098" lon="12.4701755"><ele>188.6</ele><time>2026-04-16T17:44:26.036Z</time></trkpt><trkpt lat="43.1076926" lon="12.4700443"><ele>188.4</ele><time>2026-04-16T17:44:27.036Z</time></trkpt><trkpt lat="43.1076759" lon="12.4699102"><ele>188.2</ele><time>2026-04-16T17:44:28.036Z</time></trkpt><trkpt lat="43.1076608" lon="12.4697831"><ele>188.0</ele><time>2026-04-16T17:44:29.036Z</time></trkpt><trkpt lat="43.1076437" lon="12.4696635"><ele>188.16666666666666</ele><time>2026-04-16T17:44:30.035Z</time></trkpt><trkpt lat="43.1076275" lon="12.469546"><ele>188.33333333333331</ele><time>2026-04-16T17:44:31.036Z</time></trkpt><trkpt lat="43.1076102" lon="12.4694257"><ele>188.5</ele><time>2026-04-16T17:44:32.036Z</time></trkpt><trkpt lat="43.1075906" lon="12.4693065"><ele>188.66666666666666</ele><time>2026-04-16T17:44:33.036Z</time></trkpt><trkpt lat="43.1075699" lon="12.4691955"><ele>188.83333333333334</ele><time>2026-04-16T17:44:34.036Z</time></trkpt><trkpt lat="43.1075519" lon="12.4690841"><ele>189.0</ele><time>2026-04-16T17:44:35.036Z</time></trkpt><trkpt lat="43.1075359" lon="12.4689728"><ele>189.0</ele><time>2026-04-16T17:44:36.036Z</time></trkpt><trkpt lat="43.107518" lon="12.4688662"><ele>189.0</ele><time>2026-04-16T17:44:37.036Z</time></trkpt><trkpt lat="43.1074978" lon="12.4687583"><ele>189.0</ele><time>2026-04-16T17:44:38.036Z</time></trkpt><trkpt lat="43.1074731" lon="12.4686505"><ele>189.0</ele><time>2026-04-16T17:44:39.036Z</time></trkpt><trkpt lat="43.1074497" lon="12.4685445"><ele>189.0</ele><time>2026-04-16T17:44:40.036Z</time></trkpt><trkpt lat="43.1074278" lon="12.4684413"><ele>189.0</ele><time>2026-04-16T17:44:41.036Z</time></trkpt><trkpt lat="43.1073996" lon="12.4683398"><ele>189.0</ele><time>2026-04-16T17:44:42.036Z</time></trkpt><trkpt lat="43.1073706" lon="12.4682392"><ele>189.0</ele><time>2026-04-16T17:44:43.036Z</time></trkpt><trkpt lat="43.1073492" lon="12.4681367"><ele>189.0</ele><time>2026-04-16T17:44:44.036Z</time></trkpt><trkpt lat="43.107328" lon="12.4680381"><ele>189.0</ele><time>2026-04-16T17:44:45.036Z</time></trkpt><trkpt lat="43.107298" lon="12.4679422"><ele>189.0</ele><time>2026-04-16T17:44:46.036Z</time></trkpt><trkpt lat="43.1072716" lon="12.4678472"><ele>189.0</ele><time>2026-04-16T17:44:47.036Z</time></trkpt><trkpt lat="43.1072415" lon="12.4677458"><ele>189.0</ele><time>2026-04-16T17:44:48.036Z</time></trkpt><trkpt lat="43.1072183" lon="12.467648"><ele>189.0</ele><time>2026-04-16T17:44:49.036Z</time></trkpt><trkpt lat="43.1071957" lon="12.4675517"><ele>189.0</ele><time>2026-04-16T17:44:50.036Z</time></trkpt><trkpt lat="43.1071697" lon="12.4674543"><ele>189.0</ele><time>2026-04-16T17:44:51.036Z</time></trkpt><trkpt lat="43.1071493" lon="12.4673555"><ele>189.0</ele><time>2026-04-16T17:44:52.036Z</time></trkpt><trkpt lat="43.1071339" lon="12.4672538"><ele>189.0</ele><time>2026-04-16T17:44:53.036Z</time></trkpt><trkpt lat="43.1071184" lon="12.4671561"><ele>189.0</ele><time>2026-04-16T17:44:54.036Z</time></trkpt><trkpt lat="43.1071042" lon="12.4670608"><ele>188.85714285714286</ele><time>2026-04-16T17:44:55.036Z</time></trkpt><trkpt lat="43.107088" lon="12.4669659"><ele>188.71428571428572</ele><time>2026-04-16T17:44:56.036Z</time></trkpt><trkpt lat="43.1070694" lon="12.4668666"><ele>188.57142857142856</ele><time>2026-04-16T17:44:57.036Z</time></trkpt><trkpt lat="43.1070524" lon="12.4667675"><ele>188.42857142857144</ele><time>2026-04-16T17:44:58.036Z</time></trkpt><trkpt lat="43.1070374" lon="12.4666676"><ele>188.28571428571428</ele><time>2026-04-16T17:44:59.036Z</time></trkpt><trkpt lat="43.107019" lon="12.4665721"><ele>188.14285714285714</ele><time>2026-04-16T17:45:00.036Z</time></trkpt><trkpt lat="43.1069987" lon="12.4664742"><ele>188.0</ele><time>2026-04-16T17:45:01.036Z</time></trkpt><trkpt lat="43.1069823" lon="12.4663803"><ele>188.0</ele><time>2026-04-16T17:45:02.036Z</time></trkpt><trkpt lat="43.1069656" lon="12.4662849"><ele>188.0</ele><time>2026-04-16T17:45:03.036Z</time></trkpt><trkpt lat="43.1069466" lon="12.4661914"><ele>188.0</ele><time>2026-04-16T17:45:04.036Z</time></trkpt><trkpt lat="43.1069318" lon="12.4660992"><ele>188.0</ele><time>2026-04-16T17:45:05.043Z</time></trkpt><trkpt lat="43.1069125" lon="12.4660039"><ele>188.0</ele><time>2026-04-16T17:45:06.043Z</time></trkpt><trkpt lat="43.1068949" lon="12.4659115"><ele>188.0</ele><time>2026-04-16T17:45:07.043Z</time></trkpt><trkpt lat="43.1068798" lon="12.4658162"><ele>188.0</ele><time>2026-04-16T17:45:08.043Z</time></trkpt><trkpt lat="43.1068648" lon="12.46572"><ele>187.85714285714286</ele><time>2026-04-16T17:45:09.043Z</time></trkpt><trkpt lat="43.1068558" lon="12.4656291"><ele>187.71428571428572</ele><time>2026-04-16T17:45:10.043Z</time></trkpt><trkpt lat="43.106846" lon="12.4655345"><ele>187.57142857142856</ele><time>2026-04-16T17:45:11.044Z</time></trkpt><trkpt lat="43.106837" lon="12.4654433"><ele>187.42857142857144</ele><time>2026-04-16T17:45:12.044Z</time></trkpt><trkpt lat="43.106829" lon="12.4653519"><ele>187.2857142857143</ele><time>2026-04-16T17:45:13.044Z</time></trkpt><trkpt lat="43.1068224" lon="12.465261"><ele>187.14285714285714</ele><time>2026-04-16T17:45:14.044Z</time></trkpt><trkpt lat="43.1068168" lon="12.4651709"><ele>187.0</ele><time>2026-04-16T17:45:15.044Z</time></trkpt><trkpt lat="43.1068095" lon="12.4650841"><ele>187.0</ele><time>2026-04-16T17:45:16.044Z</time></trkpt><trkpt lat="43.1068029" lon="12.4649979"><ele>187.0</ele><time>2026-04-16T17:45:17.044Z</time></trkpt><trkpt lat="43.1067959" lon="12.464909"><ele>187.0</ele><time>2026-04-16T17:45:18.044Z</time></trkpt><trkpt lat="43.1067861" lon="12.4648237"><ele>187.0</ele><time>2026-04-16T17:45:19.044Z</time></trkpt><trkpt lat="43.1067796" lon="12.4647344"><ele>187.0</ele><time>2026-04-16T17:45:20.044Z</time></trkpt><trkpt lat="43.1067728" lon="12.4646442"><ele>187.0</ele><time>2026-04-16T17:45:21.044Z</time></trkpt><trkpt lat="43.1067687" lon="12.4645542"><ele>187.0</ele><time>2026-04-16T17:45:22.044Z</time></trkpt><trkpt lat="43.1067675" lon="12.4644673"><ele>187.39999999999998</ele><time>2026-04-16T17:45:23.044Z</time></trkpt><trkpt lat="43.1067714" lon="12.4643778"><ele>187.79999999999998</ele><time>2026-04-16T17:45:24.044Z</time></trkpt><trkpt lat="43.1067799" lon="12.4642918"><ele>188.2</ele><time>2026-04-16T17:45:25.044Z</time></trkpt><trkpt lat="43.1068047" lon="12.4641264"><ele>188.6</ele><time>2026-04-16T17:45:27.044Z</time></trkpt><trkpt lat="43.1068541" lon="12.463988"><ele>189.0</ele><time>2026-04-16T17:45:29.044Z</time></trkpt><trkpt lat="43.1068999" lon="12.4638453"><ele>189.0</ele><time>2026-04-16T17:45:31.044Z</time></trkpt><trkpt lat="43.1069507" lon="12.4637085"><ele>189.0</ele><time>2026-04-16T17:45:33.044Z</time></trkpt><trkpt lat="43.1070076" lon="12.4635715"><ele>189.0</ele><time>2026-04-16T17:45:35.044Z</time></trkpt><trkpt lat="43.1070564" lon="12.4634385"><ele>189.0</ele><time>2026-04-16T17:45:37.044Z</time></trkpt><trkpt lat="43.1071084" lon="12.4633206"><ele>189.0</ele><time>2026-04-16T17:45:39.044Z</time></trkpt><trkpt lat="43.1071604" lon="12.463212"><ele>189.0</ele><time>2026-04-16T17:45:41.044Z</time></trkpt><trkpt lat="43.107215" lon="12.4631113"><ele>189.0</ele><time>2026-04-16T17:45:43.044Z</time></trkpt><trkpt lat="43.1072634" lon="12.463002"><ele>189.0</ele><time>2026-04-16T17:45:45.044Z</time></trkpt><trkpt lat="43.1073022" lon="12.4628794"><ele>189.0</ele><time>2026-04-16T17:45:47.044Z</time></trkpt><trkpt lat="43.1073527" lon="12.4627756"><ele>189.0</ele><time>2026-04-16T17:45:49.044Z</time></trkpt><trkpt lat="43.1074039" lon="12.4626631"><ele>189.79999999999998</ele><time>2026-04-16T17:45:51.044Z</time></trkpt><trkpt lat="43.1074514" lon="12.4625513"><ele>190.6</ele><time>2026-04-16T17:45:53.044Z</time></trkpt><trkpt lat="43.1075012" lon="12.4624479"><ele>191.4</ele><time>2026-04-16T17:45:55.044Z</time></trkpt><trkpt lat="43.107548" lon="12.4623504"><ele>192.2</ele><time>2026-04-16T17:45:57.044Z</time></trkpt><trkpt lat="43.1075934" lon="12.4622304"><ele>193.0</ele><time>2026-04-16T17:45:59.044Z</time></trkpt><trkpt lat="43.1076455" lon="12.4621323"><ele>192.8</ele><time>2026-04-16T17:46:01.044Z</time></trkpt><trkpt lat="43.1076878" lon="12.4620249"><ele>192.60000000000002</ele><time>2026-04-16T17:46:03.044Z</time></trkpt><trkpt lat="43.1077323" lon="12.4619136"><ele>192.39999999999998</ele><time>2026-04-16T17:46:05.044Z</time></trkpt><trkpt lat="43.1077735" lon="12.4618004"><ele>192.2</ele><time>2026-04-16T17:46:07.044Z</time></trkpt><trkpt lat="43.1078082" lon="12.4616792"><ele>192.0</ele><time>2026-04-16T17:46:09.044Z</time></trkpt><trkpt lat="43.1078437" lon="12.4615551"><ele>192.0</ele><time>2026-04-16T17:46:11.043Z</time></trkpt><trkpt lat="43.107869" lon="12.4614222"><ele>192.0</ele><time>2026-04-16T17:46:13.044Z</time></trkpt><trkpt lat="43.1078977" lon="12.4612879"><ele>192.0</ele><time>2026-04-16T17:46:15.044Z</time></trkpt><trkpt lat="43.1079271" lon="12.4611604"><ele>192.0</ele><time>2026-04-16T17:46:17.043Z</time></trkpt><trkpt lat="43.1079622" lon="12.4610358"><ele>192.0</ele><time>2026-04-16T17:46:19.044Z</time></trkpt><trkpt lat="43.1079941" lon="12.460898"><ele>192.0</ele><time>2026-04-16T17:46:21.044Z</time></trkpt><trkpt lat="43.1080269" lon="12.4607542"><ele>192.0</ele><time>2026-04-16T17:46:23.044Z</time></trkpt><trkpt lat="43.1080529" lon="12.4606"><ele>192.0</ele><time>2026-04-16T17:46:25.044Z</time></trkpt><trkpt lat="43.1080829" lon="12.4604534"><ele>192.0</ele><time>2026-04-16T17:46:27.044Z</time></trkpt><trkpt lat="43.1081137" lon="12.4603052"><ele>192.0</ele><time>2026-04-16T17:46:29.044Z</time></trkpt><trkpt lat="43.1081465" lon="12.4601477"><ele>192.0</ele><time>2026-04-16T17:46:31.044Z</time></trkpt><trkpt lat="43.1081937" lon="12.4599995"><ele>192.0</ele><time>2026-04-16T17:46:33.044Z</time></trkpt><trkpt lat="43.1082262" lon="12.4598407"><ele>192.0</ele><time>2026-04-16T17:46:35.044Z</time></trkpt><trkpt lat="43.1082549" lon="12.4596826"><ele>192.0</ele><time>2026-04-16T17:46:37.044Z</time></trkpt><trkpt lat="43.108291" lon="12.4595296"><ele>191.8</ele><time>2026-04-16T17:46:39.044Z</time></trkpt><trkpt lat="43.108307" lon="12.4594451"><ele>191.6</ele><time>2026-04-16T17:46:40.043Z</time></trkpt><trkpt lat="43.1083358" lon="12.459283"><ele>191.4</ele><time>2026-04-16T17:46:42.044Z</time></trkpt><trkpt lat="43.10835" lon="12.4591235"><ele>191.20000000000002</ele><time>2026-04-16T17:46:44.044Z</time></trkpt><trkpt lat="43.1083459" lon="12.4589606"><ele>191.0</ele><time>2026-04-16T17:46:46.044Z</time></trkpt><trkpt lat="43.1083365" lon="12.4588013"><ele>191.0</ele><time>2026-04-16T17:46:48.044Z</time></trkpt><trkpt lat="43.108323" lon="12.4586427"><ele>191.0</ele><time>2026-04-16T17:46:50.044Z</time></trkpt><trkpt lat="43.108304" lon="12.458484"><ele>191.0</ele><time>2026-04-16T17:46:52.044Z</time></trkpt><trkpt lat="43.1082879" lon="12.4583205"><ele>191.0</ele><time>2026-04-16T17:46:54.044Z</time></trkpt><trkpt lat="43.1082817" lon="12.4581666"><ele>191.0</ele><time>2026-04-16T17:46:56.044Z</time></trkpt><trkpt lat="43.1082961" lon="12.4580149"><ele>191.0</ele><time>2026-04-16T17:46:58.044Z</time></trkpt><trkpt lat="43.1083097" lon="12.4578694"><ele>191.0</ele><time>2026-04-16T17:47:00.044Z</time></trkpt><trkpt lat="43.1083338" lon="12.4577404"><ele>191.0</ele><time>2026-04-16T17:47:02.044Z</time></trkpt><trkpt lat="43.1083588" lon="12.4576281"><ele>191.0</ele><time>2026-04-16T17:47:04.044Z</time></trkpt><trkpt lat="43.1083745" lon="12.4575229"><ele>190.85714285714286</ele><time>2026-04-16T17:47:06.044Z</time></trkpt><trkpt lat="43.1083952" lon="12.4574313"><ele>190.7142857142857</ele><time>2026-04-16T17:47:08.044Z</time></trkpt><trkpt lat="43.1084112" lon="12.4573427"><ele>190.57142857142856</ele><time>2026-04-16T17:47:10.044Z</time></trkpt><trkpt lat="43.1084226" lon="12.4572564"><ele>190.42857142857144</ele><time>2026-04-16T17:47:12.044Z</time></trkpt><trkpt lat="43.1084351" lon="12.4571578"><ele>190.28571428571428</ele><time>2026-04-16T17:47:15.044Z</time></trkpt><trkpt lat="43.1084415" lon="12.4570555"><ele>190.14285714285714</ele><time>2026-04-16T17:47:19.044Z</time></trkpt><trkpt lat="43.1084528" lon="12.4569629"><ele>190.0</ele><time>2026-04-16T17:47:24.044Z</time></trkpt><trkpt lat="43.1084619" lon="12.4568595"><ele>190.0</ele><time>2026-04-16T17:47:29.044Z</time></trkpt><trkpt lat="43.1083961" lon="12.4569051"><ele>190.0</ele><time>2026-04-16T17:47:50.044Z</time></trkpt><trkpt lat="43.1083209" lon="12.4568844"><ele>190.0</ele><time>2026-04-16T17:47:54.044Z</time></trkpt><trkpt lat="43.1082523" lon="12.4568804"><ele>190.0</ele><time>2026-04-16T17:47:59.044Z</time></trkpt><trkpt lat="43.1081853" lon="12.4568387"><ele>190.0</ele><time>2026-04-16T17:48:04.044Z</time></trkpt><trkpt lat="43.1081196" lon="12.4568221"><ele>190.0</ele><time>2026-04-16T17:48:09.044Z</time></trkpt><trkpt lat="43.1080509" lon="12.4568283"><ele>190.0</ele><time>2026-04-16T17:48:42.044Z</time></trkpt><trkpt lat="43.1079903" lon="12.4567791"><ele>189.85714285714286</ele><time>2026-04-16T17:49:13.044Z</time></trkpt><trkpt lat="43.1079303" lon="12.4567517"><ele>189.71428571428572</ele><time>2026-04-16T17:49:53.044Z</time></trkpt><trkpt lat="43.1078668" lon="12.4567269"><ele>189.57142857142856</ele><time>2026-04-16T17:49:58.044Z</time></trkpt><trkpt lat="43.1077934" lon="12.4567118"><ele>189.42857142857144</ele><time>2026-04-16T17:50:03.044Z</time></trkpt><trkpt lat="43.1077583" lon="12.4568004"><ele>189.28571428571428</ele><time>2026-04-16T17:50:09.044Z</time></trkpt><trkpt lat="43.1077536" lon="12.4568874"><ele>189.14285714285714</ele><time>2026-04-16T17:50:13.044Z</time></trkpt><trkpt lat="43.1077194" lon="12.4569811"><ele>189.0</ele><time>2026-04-16T17:50:18.044Z</time></trkpt><trkpt lat="43.1077058" lon="12.4570816"><ele>189.0</ele><time>2026-04-16T17:50:23.044Z</time></trkpt><trkpt lat="43.1076896" lon="12.4571753"><ele>189.0</ele><time>2026-04-16T17:50:28.044Z</time></trkpt><trkpt lat="43.1076768" lon="12.4572647"><ele>189.0</ele><time>2026-04-16T17:50:32.044Z</time></trkpt><trkpt lat="43.107659" lon="12.4573575"><ele>189.0</ele><time>2026-04-16T17:50:37.044Z</time></trkpt><trkpt lat="43.1077119" lon="12.4573037"><ele>189.0</ele><time>2026-04-16T17:50:41.044Z</time></trkpt><trkpt lat="43.1077285" lon="12.4572124"><ele>189.0</ele><time>2026-04-16T17:50:49.044Z</time></trkpt><trkpt lat="43.1077247" lon="12.4571183"><ele>189.0</ele><time>2026-04-16T17:51:49.053Z</time></trkpt><trkpt lat="43.1077381" lon="12.4570322"><ele>189.0</ele><time>2026-04-16T17:51:56.053Z</time></trkpt><trkpt lat="43.1077586" lon="12.4569425"><ele>189.0</ele><time>2026-04-16T17:52:02.053Z</time></trkpt><trkpt lat="43.1077683" lon="12.4568399"><ele>189.0</ele><time>2026-04-16T17:52:08.053Z</time></trkpt><trkpt lat="43.1077855" lon="12.4567515"><ele>189.0</ele><time>2026-04-16T17:52:12.053Z</time></trkpt><trkpt lat="43.1078453" lon="12.4567134"><ele>189.0</ele><time>2026-04-16T17:52:16.053Z</time></trkpt><trkpt lat="43.1079059" lon="12.4567381"><ele>189.0</ele><time>2026-04-16T17:52:19.053Z</time></trkpt><trkpt lat="43.1079755" lon="12.456757"><ele>189.0</ele><time>2026-04-16T17:52:23.053Z</time></trkpt><trkpt lat="43.1080348" lon="12.4567861"><ele>189.0</ele><time>2026-04-16T17:52:27.053Z</time></trkpt><trkpt lat="43.1080966" lon="12.4568072"><ele>189.0</ele><time>2026-04-16T17:52:31.053Z</time></trkpt><trkpt lat="43.1081732" lon="12.4568311"><ele>189.0</ele><time>2026-04-16T17:52:36.053Z</time></trkpt><trkpt lat="43.1082431" lon="12.4568486"><ele>189.0</ele><time>2026-04-16T17:52:39.053Z</time></trkpt><trkpt lat="43.1083065" lon="12.4568713"><ele>189.0</ele><time>2026-04-16T17:52:43.053Z</time></trkpt><trkpt lat="43.108374" lon="12.4568936"><ele>189.0</ele><time>2026-04-16T17:52:48.053Z</time></trkpt><trkpt lat="43.108436" lon="12.4568683"><ele>189.0</ele><time>2026-04-16T17:53:07.053Z</time></trkpt><trkpt lat="43.1084733" lon="12.4567821"><ele>189.16666666666666</ele><time>2026-04-16T17:53:11.053Z</time></trkpt><trkpt lat="43.1084973" lon="12.4566569"><ele>189.33333333333334</ele><time>2026-04-16T17:53:14.053Z</time></trkpt><trkpt lat="43.1085251" lon="12.4565364"><ele>189.5</ele><time>2026-04-16T17:53:16.053Z</time></trkpt><trkpt lat="43.1085494" lon="12.4564163"><ele>189.66666666666669</ele><time>2026-04-16T17:53:18.053Z</time></trkpt><trkpt lat="43.1085669" lon="12.4563069"><ele>189.83333333333334</ele><time>2026-04-16T17:53:20.053Z</time></trkpt><trkpt lat="43.1085732" lon="12.456194"><ele>190.0</ele><time>2026-04-16T17:53:22.052Z</time></trkpt><trkpt lat="43.1086003" lon="12.4560592"><ele>190.0</ele><time>2026-04-16T17:53:24.053Z</time></trkpt><trkpt lat="43.1086286" lon="12.455929"><ele>190.0</ele><time>2026-04-16T17:53:26.052Z</time></trkpt><trkpt lat="43.1086511" lon="12.4557965"><ele>190.0</ele><time>2026-04-16T17:53:28.053Z</time></trkpt><trkpt lat="43.1086779" lon="12.4556483"><ele>190.0</ele><time>2026-04-16T17:53:30.053Z</time></trkpt><trkpt lat="43.1086951" lon="12.4555109"><ele>190.0</ele><time>2026-04-16T17:53:32.053Z</time></trkpt><trkpt lat="43.1087176" lon="12.4553754"><ele>190.0</ele><time>2026-04-16T17:53:34.053Z</time></trkpt><trkpt lat="43.1087494" lon="12.4552453"><ele>190.0</ele><time>2026-04-16T17:53:36.053Z</time></trkpt><trkpt lat="43.1087725" lon="12.4550909"><ele>190.0</ele><time>2026-04-16T17:53:38.053Z</time></trkpt><trkpt lat="43.1087876" lon="12.4549462"><ele>190.0</ele><time>2026-04-16T17:53:40.053Z</time></trkpt><trkpt lat="43.1088159" lon="12.4547962"><ele>190.0</ele><time>2026-04-16T17:53:42.053Z</time></trkpt><trkpt lat="43.1088411" lon="12.4546392"><ele>189.6</ele><time>2026-04-16T17:53:44.053Z</time></trkpt><trkpt lat="43.1088693" lon="12.4544894"><ele>189.2</ele><time>2026-04-16T17:53:46.053Z</time></trkpt><trkpt lat="43.1088936" lon="12.4543416"><ele>188.8</ele><time>2026-04-16T17:53:48.053Z</time></trkpt><trkpt lat="43.1089167" lon="12.454192"><ele>188.4</ele><time>2026-04-16T17:53:50.053Z</time></trkpt><trkpt lat="43.1089426" lon="12.454042"><ele>188.0</ele><time>2026-04-16T17:53:52.053Z</time></trkpt><trkpt lat="43.1089683" lon="12.4538948"><ele>187.75</ele><time>2026-04-16T17:53:54.053Z</time></trkpt><trkpt lat="43.1089933" lon="12.4537452"><ele>187.5</ele><time>2026-04-16T17:53:56.053Z</time></trkpt><trkpt lat="43.1090169" lon="12.4535991"><ele>187.25</ele><time>2026-04-16T17:53:58.053Z</time></trkpt><trkpt lat="43.1090416" lon="12.4534452"><ele>187.0</ele><time>2026-04-16T17:54:00.053Z</time></trkpt><trkpt lat="43.1090638" lon="12.4532887"><ele>187.6</ele><time>2026-04-16T17:54:02.053Z</time></trkpt><trkpt lat="43.1090804" lon="12.4531365"><ele>188.2</ele><time>2026-04-16T17:54:04.053Z</time></trkpt><trkpt lat="43.1091013" lon="12.4529875"><ele>188.8</ele><time>2026-04-16T17:54:06.053Z</time></trkpt><trkpt lat="43.1091238" lon="12.4528397"><ele>189.4</ele><time>2026-04-16T17:54:08.053Z</time></trkpt><trkpt lat="43.1091464" lon="12.4526862"><ele>190.0</ele><time>2026-04-16T17:54:10.053Z</time></trkpt><trkpt lat="43.1091569" lon="12.4526008"><ele>190.25</ele><time>2026-04-16T17:54:11.053Z</time></trkpt><trkpt lat="43.1091777" lon="12.4524468"><ele>190.5</ele><time>2026-04-16T17:54:13.053Z</time></trkpt><trkpt lat="43.1091962" lon="12.4522943"><ele>190.75</ele><time>2026-04-16T17:54:15.053Z</time></trkpt><trkpt lat="43.1092143" lon="12.4521463"><ele>191.0</ele><time>2026-04-16T17:54:17.053Z</time></trkpt><trkpt lat="43.1092306" lon="12.4519924"><ele>191.25</ele><time>2026-04-16T17:54:19.053Z</time></trkpt><trkpt lat="43.1092388" lon="12.4518404"><ele>191.5</ele><time>2026-04-16T17:54:21.053Z</time></trkpt><trkpt lat="43.1092505" lon="12.4516838"><ele>191.75</ele><time>2026-04-16T17:54:23.053Z</time></trkpt><trkpt lat="43.1092695" lon="12.451533"><ele>192.0</ele><time>2026-04-16T17:54:25.053Z</time></trkpt><trkpt lat="43.1092944" lon="12.4513778"><ele>192.0</ele><time>2026-04-16T17:54:27.053Z</time></trkpt><trkpt lat="43.1093091" lon="12.4512248"><ele>192.0</ele><time>2026-04-16T17:54:29.053Z</time></trkpt><trkpt lat="43.1093163" lon="12.4510776"><ele>192.0</ele><time>2026-04-16T17:54:31.053Z</time></trkpt><trkpt lat="43.1093168" lon="12.4509342"><ele>192.0</ele><time>2026-04-16T17:54:33.053Z</time></trkpt><trkpt lat="43.1093094" lon="12.4507871"><ele>192.0</ele><time>2026-04-16T17:54:35.053Z</time></trkpt><trkpt lat="43.1092988" lon="12.4506407"><ele>192.0</ele><time>2026-04-16T17:54:37.053Z</time></trkpt><trkpt lat="43.109284" lon="12.4504915"><ele>192.0</ele><time>2026-04-16T17:54:39.053Z</time></trkpt><trkpt lat="43.1092818" lon="12.4503449"><ele>192.0</ele><time>2026-04-16T17:54:41.053Z</time></trkpt><trkpt lat="43.1093403" lon="12.450213"><ele>192.0</ele><time>2026-04-16T17:54:43.053Z</time></trkpt><trkpt lat="43.109432" lon="12.4501413"><ele>192.0</ele><time>2026-04-16T17:54:45.053Z</time></trkpt><trkpt lat="43.1095265" lon="12.4500592"><ele>192.2</ele><time>2026-04-16T17:54:47.053Z</time></trkpt><trkpt lat="43.1096238" lon="12.4499892"><ele>192.39999999999998</ele><time>2026-04-16T17:54:49.053Z</time></trkpt><trkpt lat="43.1097186" lon="12.4499309"><ele>192.60000000000002</ele><time>2026-04-16T17:54:51.053Z</time></trkpt><trkpt lat="43.1098056" lon="12.449844"><ele>192.8</ele><time>2026-04-16T17:54:53.053Z</time></trkpt><trkpt lat="43.1098938" lon="12.4497641"><ele>193.0</ele><time>2026-04-16T17:54:55.053Z</time></trkpt><trkpt lat="43.1099845" lon="12.449696"><ele>193.16666666666666</ele><time>2026-04-16T17:54:57.053Z</time></trkpt><trkpt lat="43.1100659" lon="12.4496283"><ele>193.33333333333331</ele><time>2026-04-16T17:54:59.053Z</time></trkpt><trkpt lat="43.110135" lon="12.4495752"><ele>193.5</ele><time>2026-04-16T17:55:01.053Z</time></trkpt><trkpt lat="43.110186" lon="12.4495202"><ele>193.66666666666669</ele><time>2026-04-16T17:55:03.053Z</time></trkpt><trkpt lat="43.1101883" lon="12.4494159"><ele>193.83333333333334</ele><time>2026-04-16T17:55:05.053Z</time></trkpt><trkpt lat="43.110161" lon="12.4493069"><ele>194.0</ele><time>2026-04-16T17:55:07.053Z</time></trkpt><trkpt lat="43.1101327" lon="12.4491734"><ele>193.79999999999998</ele><time>2026-04-16T17:55:09.052Z</time></trkpt><trkpt lat="43.1101009" lon="12.4490503"><ele>193.6</ele><time>2026-04-16T17:55:11.053Z</time></trkpt><trkpt lat="43.110062" lon="12.4489265"><ele>193.4</ele><time>2026-04-16T17:55:13.053Z</time></trkpt><trkpt lat="43.1100413" lon="12.448799"><ele>193.2</ele><time>2026-04-16T17:55:15.053Z</time></trkpt><trkpt lat="43.1100064" lon="12.4486777"><ele>193.0</ele><time>2026-04-16T17:55:17.053Z</time></trkpt><trkpt lat="43.1099657" lon="12.448565"><ele>192.99999999999997</ele><time>2026-04-16T17:55:19.053Z</time></trkpt><trkpt lat="43.1099694" lon="12.448444"><ele>193.0</ele><time>2026-04-16T17:55:21.053Z</time></trkpt><trkpt lat="43.1099549" lon="12.4483594"><ele>193.0</ele><time>2026-04-16T17:55:23.053Z</time></trkpt><trkpt lat="43.1099499" lon="12.4482302"><ele>193.0</ele><time>2026-04-16T17:55:26.053Z</time></trkpt><trkpt lat="43.1099362" lon="12.4481336"><ele>192.99999999999997</ele><time>2026-04-16T17:55:28.053Z</time></trkpt><trkpt lat="43.1099198" lon="12.4480209"><ele>193.0</ele><time>2026-04-16T17:55:30.053Z</time></trkpt><trkpt lat="43.1098973" lon="12.4479193"><ele>193.60000000000002</ele><time>2026-04-16T17:55:32.053Z</time></trkpt><trkpt lat="43.1098686" lon="12.4478072"><ele>194.20000000000002</ele><time>2026-04-16T17:55:34.053Z</time></trkpt><trkpt lat="43.1098393" lon="12.4476756"><ele>194.8</ele><time>2026-04-16T17:55:36.053Z</time></trkpt><trkpt lat="43.1098256" lon="12.4475657"><ele>195.4</ele><time>2026-04-16T17:55:38.053Z</time></trkpt><trkpt lat="43.1097777" lon="12.4474528"><ele>196.0</ele><time>2026-04-16T17:55:40.053Z</time></trkpt><trkpt lat="43.1097459" lon="12.4473414"><ele>195.99999999999997</ele><time>2026-04-16T17:55:42.053Z</time></trkpt><trkpt lat="43.1097049" lon="12.4472224"><ele>196.0</ele><time>2026-04-16T17:55:44.053Z</time></trkpt><trkpt lat="43.1096902" lon="12.4470958"><ele>196.0</ele><time>2026-04-16T17:55:46.053Z</time></trkpt><trkpt lat="43.1096596" lon="12.4469918"><ele>196.0</ele><time>2026-04-16T17:55:48.053Z</time></trkpt><trkpt lat="43.1096438" lon="12.4468927"><ele>195.99999999999997</ele><time>2026-04-16T17:55:50.053Z</time></trkpt><trkpt lat="43.1096482" lon="12.4467688"><ele>196.0</ele><time>2026-04-16T17:55:52.053Z</time></trkpt><trkpt lat="43.1096642" lon="12.446652"><ele>195.83333333333331</ele><time>2026-04-16T17:55:54.053Z</time></trkpt><trkpt lat="43.109682" lon="12.4465499"><ele>195.66666666666666</ele><time>2026-04-16T17:55:56.053Z</time></trkpt><trkpt lat="43.1097347" lon="12.4464568"><ele>195.5</ele><time>2026-04-16T17:55:59.053Z</time></trkpt><trkpt lat="43.1097011" lon="12.4463652"><ele>195.33333333333331</ele><time>2026-04-16T17:56:02.053Z</time></trkpt><trkpt lat="43.1096774" lon="12.4462791"><ele>195.16666666666666</ele><time>2026-04-16T17:56:05.052Z</time></trkpt><trkpt lat="43.1096541" lon="12.4461806"><ele>195.0</ele><time>2026-04-16T17:56:09.053Z</time></trkpt><trkpt lat="43.1096401" lon="12.446075"><ele>194.71428571428572</ele><time>2026-04-16T17:56:13.053Z</time></trkpt><trkpt lat="43.1096075" lon="12.4459847"><ele>194.42857142857142</ele><time>2026-04-16T17:56:16.053Z</time></trkpt><trkpt lat="43.109555" lon="12.4459175"><ele>194.14285714285717</ele><time>2026-04-16T17:56:19.053Z</time></trkpt><trkpt lat="43.1094919" lon="12.4458604"><ele>193.85714285714286</ele><time>2026-04-16T17:56:22.053Z</time></trkpt><trkpt lat="43.1094344" lon="12.4457978"><ele>193.57142857142858</ele><time>2026-04-16T17:56:25.053Z</time></trkpt><trkpt lat="43.1093746" lon="12.4457475"><ele>193.2857142857143</ele><time>2026-04-16T17:56:28.053Z</time></trkpt><trkpt lat="43.1093222" lon="12.4456926"><ele>193.0</ele><time>2026-04-16T17:56:31.053Z</time></trkpt><trkpt lat="43.109258" lon="12.4456495"><ele>193.00000000000003</ele><time>2026-04-16T17:56:35.053Z</time></trkpt><trkpt lat="43.1091996" lon="12.4455885"><ele>193.0</ele><time>2026-04-16T17:56:40.053Z</time></trkpt><trkpt lat="43.1091392" lon="12.4455355"><ele>193.0</ele><time>2026-04-16T17:56:45.053Z</time></trkpt><trkpt lat="43.1090837" lon="12.445489"><ele>193.0</ele><time>2026-04-16T17:56:49.053Z</time></trkpt><trkpt lat="43.1090293" lon="12.4454443"><ele>193.0</ele><time>2026-04-16T17:56:53.053Z</time></trkpt><trkpt lat="43.1089743" lon="12.445397"><ele>193.00000000000003</ele><time>2026-04-16T17:56:57.053Z</time></trkpt><trkpt lat="43.1089071" lon="12.4453472"><ele>193.0</ele><time>2026-04-16T17:57:02.053Z</time></trkpt><trkpt lat="43.1088493" lon="12.4453005"><ele>192.85714285714286</ele><time>2026-04-16T17:57:06.053Z</time></trkpt><trkpt lat="43.1087976" lon="12.4452472"><ele>192.71428571428572</ele><time>2026-04-16T17:57:10.053Z</time></trkpt><trkpt lat="43.1087269" lon="12.4451982"><ele>192.57142857142856</ele><time>2026-04-16T17:57:15.053Z</time></trkpt><trkpt lat="43.1086716" lon="12.4451488"><ele>192.42857142857144</ele><time>2026-04-16T17:57:19.053Z</time></trkpt><trkpt lat="43.1086125" lon="12.4450885"><ele>192.28571428571428</ele><time>2026-04-16T17:57:24.053Z</time></trkpt><trkpt lat="43.1085486" lon="12.4450242"><ele>192.14285714285714</ele><time>2026-04-16T17:57:29.053Z</time></trkpt><trkpt lat="43.108486" lon="12.4449825"><ele>192.0</ele><time>2026-04-16T17:57:33.053Z</time></trkpt><trkpt lat="43.1084297" lon="12.4449419"><ele>191.99999999999997</ele><time>2026-04-16T17:57:37.053Z</time></trkpt><trkpt lat="43.1083639" lon="12.4448799"><ele>192.0</ele><time>2026-04-16T17:57:42.053Z</time></trkpt><trkpt lat="43.1082991" lon="12.4448386"><ele>192.0</ele><time>2026-04-16T17:57:46.053Z</time></trkpt><trkpt lat="43.1082391" lon="12.4447794"><ele>192.0</ele><time>2026-04-16T17:57:50.053Z</time></trkpt><trkpt lat="43.1081756" lon="12.4447314"><ele>192.0</ele><time>2026-04-16T17:57:54.053Z</time></trkpt><trkpt lat="43.1081165" lon="12.4446778"><ele>191.99999999999997</ele><time>2026-04-16T17:57:58.053Z</time></trkpt><trkpt lat="43.1080606" lon="12.4446371"><ele>192.0</ele><time>2026-04-16T17:58:02.053Z</time></trkpt><trkpt lat="43.1079911" lon="12.4446026"><ele>194.14285714285714</ele><time>2026-04-16T17:58:07.053Z</time></trkpt><trkpt lat="43.1079322" lon="12.444549"><ele>196.28571428571428</ele><time>2026-04-16T17:58:11.053Z</time></trkpt><trkpt lat="43.1078738" lon="12.4444778"><ele>198.42857142857144</ele><time>2026-04-16T17:58:16.053Z</time></trkpt><trkpt lat="43.1078105" lon="12.4444339"><ele>200.57142857142856</ele><time>2026-04-16T17:58:20.053Z</time></trkpt><trkpt lat="43.1077613" lon="12.4443561"><ele>202.71428571428572</ele><time>2026-04-16T17:58:24.053Z</time></trkpt><trkpt lat="43.1077025" lon="12.4443016"><ele>204.85714285714286</ele><time>2026-04-16T17:58:28.06Z</time></trkpt><trkpt lat="43.1076535" lon="12.4442411"><ele>207.0</ele><time>2026-04-16T17:58:33.06Z</time></trkpt><trkpt lat="43.1076209" lon="12.4441451"><ele>207.00000000000003</ele><time>2026-04-16T17:58:39.06Z</time></trkpt><trkpt lat="43.1076046" lon="12.4440611"><ele>207.0</ele><time>2026-04-16T17:58:44.06Z</time></trkpt><trkpt lat="43.1075843" lon="12.4439677"><ele>207.0</ele><time>2026-04-16T17:58:50.06Z</time></trkpt><trkpt lat="43.1075763" lon="12.4438786"><ele>207.0</ele><time>2026-04-16T17:58:55.06Z</time></trkpt><trkpt lat="43.1075694" lon="12.4437907"><ele>207.0</ele><time>2026-04-16T17:59:00.06Z</time></trkpt><trkpt lat="43.1075489" lon="12.4436986"><ele>207.00000000000003</ele><time>2026-04-16T17:59:06.06Z</time></trkpt><trkpt lat="43.1075405" lon="12.4435916"><ele>207.0</ele><time>2026-04-16T17:59:11.06Z</time></trkpt><trkpt lat="43.1075352" lon="12.4434946"><ele>208.71428571428572</ele><time>2026-04-16T17:59:16.06Z</time></trkpt><trkpt lat="43.1075412" lon="12.4433943"><ele>210.42857142857144</ele><time>2026-04-16T17:59:22.06Z</time></trkpt><trkpt lat="43.107539" lon="12.4432945"><ele>212.14285714285717</ele><time>2026-04-16T17:59:29.06Z</time></trkpt><trkpt lat="43.1075442" lon="12.4432004"><ele>213.85714285714286</ele><time>2026-04-16T17:59:34.06Z</time></trkpt><trkpt lat="43.1075544" lon="12.4431073"><ele>215.57142857142856</ele><time>2026-04-16T17:59:39.06Z</time></trkpt><trkpt lat="43.1076046" lon="12.4430524"><ele>217.2857142857143</ele><time>2026-04-16T18:00:33.06Z</time></trkpt><trkpt lat="43.107624" lon="12.4429687"><ele>219.0</ele><time>2026-04-16T18:00:40.06Z</time></trkpt><trkpt lat="43.1076479" lon="12.4428886"><ele>221.14285714285717</ele><time>2026-04-16T18:00:47.06Z</time></trkpt><trkpt lat="43.1076719" lon="12.442797"><ele>223.28571428571428</ele><time>2026-04-16T18:00:53.06Z</time></trkpt><trkpt lat="43.1077203" lon="12.4427404"><ele>225.42857142857144</ele><time>2026-04-16T18:01:00.06Z</time></trkpt><trkpt lat="43.107774" lon="12.4426795"><ele>227.57142857142858</ele><time>2026-04-16T18:01:07.06Z</time></trkpt><trkpt lat="43.1078189" lon="12.4426097"><ele>229.71428571428572</ele><time>2026-04-16T18:01:13.06Z</time></trkpt><trkpt lat="43.1078641" lon="12.4425425"><ele>231.85714285714286</ele><time>2026-04-16T18:01:19.06Z</time></trkpt><trkpt lat="43.107924" lon="12.4424862"><ele>234.0</ele><time>2026-04-16T18:01:26.06Z</time></trkpt><trkpt lat="43.1079654" lon="12.4424163"><ele>234.0</ele><time>2026-04-16T18:01:33.06Z</time></trkpt><trkpt lat="43.1080056" lon="12.4423495"><ele>234.00000000000003</ele><time>2026-04-16T18:01:38.06Z</time></trkpt><trkpt lat="43.1080613" lon="12.4423031"><ele>234.0</ele><time>2026-04-16T18:01:44.059Z</time></trkpt><trkpt lat="43.1081115" lon="12.4422472"><ele>234.0</ele><time>2026-04-16T18:01:49.06Z</time></trkpt><trkpt lat="43.1081779" lon="12.4421973"><ele>234.00000000000003</ele><time>2026-04-16T18:01:55.06Z</time></trkpt><trkpt lat="43.1082053" lon="12.4421189"><ele>234.0</ele><time>2026-04-16T18:02:00.06Z</time></trkpt><trkpt lat="43.1082678" lon="12.4420925"><ele>234.0</ele><time>2026-04-16T18:02:04.06Z</time></trkpt><trkpt lat="43.1083059" lon="12.4419961"><ele>243.0</ele><time>2026-04-16T18:02:10.06Z</time></trkpt><trkpt lat="43.108368" lon="12.441958"><ele>243.0</ele><time>2026-04-16T18:02:18.06Z</time></trkpt><trkpt lat="43.1084304" lon="12.4419728"><ele>243.0</ele><time>2026-04-16T18:02:38.06Z</time></trkpt><trkpt lat="43.1084673" lon="12.4420619"><ele>243.0</ele><time>2026-04-16T18:03:04.06Z</time></trkpt><trkpt lat="43.1085241" lon="12.442005"><ele>243.0</ele><time>2026-04-16T18:03:19.06Z</time></trkpt><trkpt lat="43.1085264" lon="12.441907"><ele>243.0</ele><time>2026-04-16T18:04:01.06Z</time></trkpt></trkseg></trk></gpx>